<?xml version="1.0" encoding="UTF-8" standalone="no" ?>
<gpx xmlns="http://www.topografix.com/GPX/1/1" xmlns:xsi="http://www.w3.org/2001/XMLSchema-instance" xsi:schemaLocation="http://www.topografix.com/GPX/1/1 http://www.topografix.com/GPX/1/1/gpx.xsd" version="1.1" creator="VisuGPX - https://www.visugpx.com">
  <metadata>
    <name>La madeleine</name>
    <desc><![CDATA[La madeleine, le trame]]></desc>
  </metadata>
  <trk>
    <name><![CDATA[La madeleine, le trame]]></name>
    <cmt><![CDATA[Damien, Philippe2&3 jean marie thierry]]></cmt>
    <trkseg>
      <trkpt lat="45.11805" lon="4.96962">
        <ele>132.02000427246</ele>
        <time>2009-09-26T11:27:21Z</time>
      </trkpt>
      <trkpt lat="45.11855" lon="4.97028">
        <ele>133.23599243164</ele>
        <time>2009-09-26T11:27:31Z</time>
      </trkpt>
      <trkpt lat="45.11869" lon="4.97046">
        <ele>133.43200683594</ele>
        <time>2009-09-26T11:27:34Z</time>
      </trkpt>
      <trkpt lat="45.11878" lon="4.97093">
        <ele>133.12199401856</ele>
        <time>2009-09-26T11:27:40Z</time>
      </trkpt>
      <trkpt lat="45.11877" lon="4.97101">
        <ele>132.89399719238</ele>
        <time>2009-09-26T11:27:41Z</time>
      </trkpt>
      <trkpt lat="45.11872" lon="4.9713">
        <ele>132.70799255371</ele>
        <time>2009-09-26T11:27:45Z</time>
      </trkpt>
      <trkpt lat="45.11878" lon="4.97174">
        <ele>132.49299621582</ele>
        <time>2009-09-26T11:27:51Z</time>
      </trkpt>
      <trkpt lat="45.11881" lon="4.97189">
        <ele>132.32000732422</ele>
        <time>2009-09-26T11:27:53Z</time>
      </trkpt>
      <trkpt lat="45.11895" lon="4.97268">
        <ele>131.90199279785</ele>
        <time>2009-09-26T11:28:03Z</time>
      </trkpt>
      <trkpt lat="45.11911" lon="4.97358">
        <ele>132.66799926758</ele>
        <time>2009-09-26T11:28:17Z</time>
      </trkpt>
      <trkpt lat="45.11928" lon="4.97451">
        <ele>133.38600158691</ele>
        <time>2009-09-26T11:28:30Z</time>
      </trkpt>
      <trkpt lat="45.11944" lon="4.97542">
        <ele>134.47999572754</ele>
        <time>2009-09-26T11:28:43Z</time>
      </trkpt>
      <trkpt lat="45.1195" lon="4.97574">
        <ele>135.21899414062</ele>
        <time>2009-09-26T11:28:48Z</time>
      </trkpt>
      <trkpt lat="45.11959" lon="4.97627">
        <ele>135.43800354004</ele>
        <time>2009-09-26T11:28:56Z</time>
      </trkpt>
      <trkpt lat="45.1198" lon="4.97753">
        <ele>136.28500366211</ele>
        <time>2009-09-26T11:29:14Z</time>
      </trkpt>
      <trkpt lat="45.12002" lon="4.97878">
        <ele>137.49299621582</ele>
        <time>2009-09-26T11:29:32Z</time>
      </trkpt>
      <trkpt lat="45.12009" lon="4.97918">
        <ele>138.20599365234</ele>
        <time>2009-09-26T11:29:38Z</time>
      </trkpt>
      <trkpt lat="45.12037" lon="4.98014">
        <ele>139.64900207519</ele>
        <time>2009-09-26T11:29:53Z</time>
      </trkpt>
      <trkpt lat="45.12055" lon="4.98079">
        <ele>140.4640045166</ele>
        <time>2009-09-26T11:30:02Z</time>
      </trkpt>
      <trkpt lat="45.12058" lon="4.98093">
        <ele>140.70899963379</ele>
        <time>2009-09-26T11:30:04Z</time>
      </trkpt>
      <trkpt lat="45.1207" lon="4.98244">
        <ele>142.68899536133</ele>
        <time>2009-09-26T11:30:24Z</time>
      </trkpt>
      <trkpt lat="45.12048" lon="4.98371">
        <ele>144.35299682617</ele>
        <time>2009-09-26T11:30:41Z</time>
      </trkpt>
      <trkpt lat="45.12023" lon="4.98392">
        <ele>144.33200073242</ele>
        <time>2009-09-26T11:30:49Z</time>
      </trkpt>
      <trkpt lat="45.11993" lon="4.98383">
        <ele>143.4700012207</ele>
        <time>2009-09-26T11:30:55Z</time>
      </trkpt>
      <trkpt lat="45.11971" lon="4.98389">
        <ele>143.92399597168</ele>
        <time>2009-09-26T11:31:03Z</time>
      </trkpt>
      <trkpt lat="45.1197" lon="4.98384">
        <ele>143.89300537109</ele>
        <time>2009-09-26T11:31:07Z</time>
      </trkpt>
      <trkpt lat="45.11967" lon="4.98403">
        <ele>168.36500549316</ele>
        <time>2009-09-26T11:48:19Z</time>
      </trkpt>
      <trkpt lat="45.11971" lon="4.9841">
        <ele>168.7619934082</ele>
        <time>2009-09-26T11:48:24Z</time>
      </trkpt>
      <trkpt lat="45.11973" lon="4.98407">
        <ele>168.70599365234</ele>
        <time>2009-09-26T11:48:26Z</time>
      </trkpt>
      <trkpt lat="45.11979" lon="4.98398">
        <ele>168.81599426269</ele>
        <time>2009-09-26T11:48:30Z</time>
      </trkpt>
      <trkpt lat="45.1199" lon="4.98396">
        <ele>168.83099365234</ele>
        <time>2009-09-26T11:48:34Z</time>
      </trkpt>
      <trkpt lat="45.12024" lon="4.98414">
        <ele>170.50500488281</ele>
        <time>2009-09-26T11:48:46Z</time>
      </trkpt>
      <trkpt lat="45.12028" lon="4.98418">
        <ele>171.00500488281</ele>
        <time>2009-09-26T11:48:50Z</time>
      </trkpt>
      <trkpt lat="45.12023" lon="4.98459">
        <ele>171.00300598144</ele>
        <time>2009-09-26T11:48:59Z</time>
      </trkpt>
      <trkpt lat="45.12015" lon="4.98592">
        <ele>171.05599975586</ele>
        <time>2009-09-26T11:49:18Z</time>
      </trkpt>
      <trkpt lat="45.12037" lon="4.9876">
        <ele>171.34300231934</ele>
        <time>2009-09-26T11:49:39Z</time>
      </trkpt>
      <trkpt lat="45.12072" lon="4.98863">
        <ele>172.89399719238</ele>
        <time>2009-09-26T11:49:54Z</time>
      </trkpt>
      <trkpt lat="45.12137" lon="4.98976">
        <ele>174.52299499512</ele>
        <time>2009-09-26T11:50:14Z</time>
      </trkpt>
      <trkpt lat="45.12158" lon="4.99003">
        <ele>175.77299499512</ele>
        <time>2009-09-26T11:50:20Z</time>
      </trkpt>
      <trkpt lat="45.12193" lon="4.99042">
        <ele>178.2440032959</ele>
        <time>2009-09-26T11:50:30Z</time>
      </trkpt>
      <trkpt lat="45.12204" lon="4.99053">
        <ele>178.82600402832</ele>
        <time>2009-09-26T11:50:33Z</time>
      </trkpt>
      <trkpt lat="45.12215" lon="4.99075">
        <ele>179.27299499512</ele>
        <time>2009-09-26T11:50:37Z</time>
      </trkpt>
      <trkpt lat="45.12235" lon="4.99084">
        <ele>180.70199584961</ele>
        <time>2009-09-26T11:50:42Z</time>
      </trkpt>
      <trkpt lat="45.12247" lon="4.99082">
        <ele>181.94000244141</ele>
        <time>2009-09-26T11:50:45Z</time>
      </trkpt>
      <trkpt lat="45.12257" lon="4.99086">
        <ele>183.29499816894</ele>
        <time>2009-09-26T11:50:48Z</time>
      </trkpt>
      <trkpt lat="45.12267" lon="4.99093">
        <ele>184.81500244141</ele>
        <time>2009-09-26T11:50:51Z</time>
      </trkpt>
      <trkpt lat="45.12276" lon="4.99106">
        <ele>186.22399902344</ele>
        <time>2009-09-26T11:50:55Z</time>
      </trkpt>
      <trkpt lat="45.12281" lon="4.99129">
        <ele>186.51400756836</ele>
        <time>2009-09-26T11:50:59Z</time>
      </trkpt>
      <trkpt lat="45.12288" lon="4.99147">
        <ele>187.47900390625</ele>
        <time>2009-09-26T11:51:02Z</time>
      </trkpt>
      <trkpt lat="45.12305" lon="4.99184">
        <ele>189.01499938965</ele>
        <time>2009-09-26T11:51:09Z</time>
      </trkpt>
      <trkpt lat="45.12334" lon="4.99239">
        <ele>190.22500610352</ele>
        <time>2009-09-26T11:51:19Z</time>
      </trkpt>
      <trkpt lat="45.12358" lon="4.99349">
        <ele>190.58799743652</ele>
        <time>2009-09-26T11:51:34Z</time>
      </trkpt>
      <trkpt lat="45.12375" lon="4.99439">
        <ele>189.94000244141</ele>
        <time>2009-09-26T11:51:44Z</time>
      </trkpt>
      <trkpt lat="45.12392" lon="4.9952">
        <ele>189.79800415039</ele>
        <time>2009-09-26T11:51:53Z</time>
      </trkpt>
      <trkpt lat="45.124" lon="4.99544">
        <ele>189.73300170898</ele>
        <time>2009-09-26T11:51:56Z</time>
      </trkpt>
      <trkpt lat="45.1247" lon="4.99659">
        <ele>189.23300170898</ele>
        <time>2009-09-26T11:52:12Z</time>
      </trkpt>
      <trkpt lat="45.12489" lon="4.99687">
        <ele>189.0059967041</ele>
        <time>2009-09-26T11:52:16Z</time>
      </trkpt>
      <trkpt lat="45.12564" lon="4.9978">
        <ele>188.55400085449</ele>
        <time>2009-09-26T11:52:30Z</time>
      </trkpt>
      <trkpt lat="45.12615" lon="4.99853">
        <ele>188.94400024414</ele>
        <time>2009-09-26T11:52:40Z</time>
      </trkpt>
      <trkpt lat="45.12631" lon="4.99875">
        <ele>188.42300415039</ele>
        <time>2009-09-26T11:52:43Z</time>
      </trkpt>
      <trkpt lat="45.12669" lon="4.99985">
        <ele>188.39100646973</ele>
        <time>2009-09-26T11:52:55Z</time>
      </trkpt>
      <trkpt lat="45.12729" lon="5.00055">
        <ele>190.12300109863</ele>
        <time>2009-09-26T11:53:07Z</time>
      </trkpt>
      <trkpt lat="45.12812" lon="5.00088">
        <ele>193.50500488281</ele>
        <time>2009-09-26T11:53:23Z</time>
      </trkpt>
      <trkpt lat="45.12827" lon="5.00094">
        <ele>194.07099914551</ele>
        <time>2009-09-26T11:53:26Z</time>
      </trkpt>
      <trkpt lat="45.12864" lon="5.00135">
        <ele>196.07499694824</ele>
        <time>2009-09-26T11:53:35Z</time>
      </trkpt>
      <trkpt lat="45.12922" lon="5.00231">
        <ele>199.2440032959</ele>
        <time>2009-09-26T11:53:52Z</time>
      </trkpt>
      <trkpt lat="45.12974" lon="5.0027">
        <ele>200.33099365234</ele>
        <time>2009-09-26T11:54:03Z</time>
      </trkpt>
      <trkpt lat="45.13043" lon="5.00299">
        <ele>200.83299255371</ele>
        <time>2009-09-26T11:54:16Z</time>
      </trkpt>
      <trkpt lat="45.13138" lon="5.00342">
        <ele>201.86399841309</ele>
        <time>2009-09-26T11:54:32Z</time>
      </trkpt>
      <trkpt lat="45.13189" lon="5.00357">
        <ele>202.95300292969</ele>
        <time>2009-09-26T11:54:41Z</time>
      </trkpt>
      <trkpt lat="45.13223" lon="5.00356">
        <ele>203.80499267578</ele>
        <time>2009-09-26T11:54:47Z</time>
      </trkpt>
      <trkpt lat="45.13245" lon="5.00355">
        <ele>204.31599426269</ele>
        <time>2009-09-26T11:54:51Z</time>
      </trkpt>
      <trkpt lat="45.13319" lon="5.00357">
        <ele>205.68899536133</ele>
        <time>2009-09-26T11:55:04Z</time>
      </trkpt>
      <trkpt lat="45.13324" lon="5.00357">
        <ele>206.07200622559</ele>
        <time>2009-09-26T11:55:05Z</time>
      </trkpt>
      <trkpt lat="45.13406" lon="5.00394">
        <ele>207.89100646973</ele>
        <time>2009-09-26T11:55:20Z</time>
      </trkpt>
      <trkpt lat="45.13523" lon="5.0047">
        <ele>210.00199890137</ele>
        <time>2009-09-26T11:55:42Z</time>
      </trkpt>
      <trkpt lat="45.13619" lon="5.00501">
        <ele>210.24200439453</ele>
        <time>2009-09-26T11:55:58Z</time>
      </trkpt>
      <trkpt lat="45.13688" lon="5.0057">
        <ele>211.57899475098</ele>
        <time>2009-09-26T11:56:12Z</time>
      </trkpt>
      <trkpt lat="45.1376" lon="5.00648">
        <ele>212.42799377441</ele>
        <time>2009-09-26T11:56:27Z</time>
      </trkpt>
      <trkpt lat="45.13862" lon="5.00714">
        <ele>213.65699768066</ele>
        <time>2009-09-26T11:56:45Z</time>
      </trkpt>
      <trkpt lat="45.13953" lon="5.00759">
        <ele>214.09300231934</ele>
        <time>2009-09-26T11:57:01Z</time>
      </trkpt>
      <trkpt lat="45.14039" lon="5.00799">
        <ele>214.09100341797</ele>
        <time>2009-09-26T11:57:16Z</time>
      </trkpt>
      <trkpt lat="45.1407" lon="5.00814">
        <ele>214.94700622559</ele>
        <time>2009-09-26T11:57:21Z</time>
      </trkpt>
      <trkpt lat="45.14094" lon="5.00827">
        <ele>214.83200073242</ele>
        <time>2009-09-26T11:57:25Z</time>
      </trkpt>
      <trkpt lat="45.14222" lon="5.0089">
        <ele>216.51800537109</ele>
        <time>2009-09-26T11:57:46Z</time>
      </trkpt>
      <trkpt lat="45.14309" lon="5.00941">
        <ele>217.50399780273</ele>
        <time>2009-09-26T11:58:01Z</time>
      </trkpt>
      <trkpt lat="45.14402" lon="5.01043">
        <ele>218.85899353027</ele>
        <time>2009-09-26T11:58:20Z</time>
      </trkpt>
      <trkpt lat="45.14488" lon="5.01137">
        <ele>218.81900024414</ele>
        <time>2009-09-26T11:58:36Z</time>
      </trkpt>
      <trkpt lat="45.14537" lon="5.01176">
        <ele>218.65699768066</ele>
        <time>2009-09-26T11:58:44Z</time>
      </trkpt>
      <trkpt lat="45.14636" lon="5.01255">
        <ele>218.33599853516</ele>
        <time>2009-09-26T11:59:01Z</time>
      </trkpt>
      <trkpt lat="45.14679" lon="5.01353">
        <ele>218.51600646973</ele>
        <time>2009-09-26T11:59:13Z</time>
      </trkpt>
      <trkpt lat="45.14729" lon="5.01487">
        <ele>220.85400390625</ele>
        <time>2009-09-26T11:59:30Z</time>
      </trkpt>
      <trkpt lat="45.14735" lon="5.015">
        <ele>221.42700195312</ele>
        <time>2009-09-26T11:59:32Z</time>
      </trkpt>
      <trkpt lat="45.14742" lon="5.01512">
        <ele>221.84700012207</ele>
        <time>2009-09-26T11:59:34Z</time>
      </trkpt>
      <trkpt lat="45.14776" lon="5.01546">
        <ele>223.69200134277</ele>
        <time>2009-09-26T11:59:42Z</time>
      </trkpt>
      <trkpt lat="45.14807" lon="5.01576">
        <ele>225.64199829102</ele>
        <time>2009-09-26T11:59:49Z</time>
      </trkpt>
      <trkpt lat="45.14811" lon="5.0158">
        <ele>225.89300537109</ele>
        <time>2009-09-26T11:59:50Z</time>
      </trkpt>
      <trkpt lat="45.14838" lon="5.01606">
        <ele>226.2619934082</ele>
        <time>2009-09-26T11:59:56Z</time>
      </trkpt>
      <trkpt lat="45.14851" lon="5.01622">
        <ele>225.38800048828</ele>
        <time>2009-09-26T11:59:59Z</time>
      </trkpt>
      <trkpt lat="45.14869" lon="5.01641">
        <ele>225.05900573731</ele>
        <time>2009-09-26T12:00:03Z</time>
      </trkpt>
      <trkpt lat="45.14905" lon="5.01694">
        <ele>224.38499450684</ele>
        <time>2009-09-26T12:00:12Z</time>
      </trkpt>
      <trkpt lat="45.14973" lon="5.01791">
        <ele>226.17300415039</ele>
        <time>2009-09-26T12:00:26Z</time>
      </trkpt>
      <trkpt lat="45.15038" lon="5.01882">
        <ele>226.73199462891</ele>
        <time>2009-09-26T12:00:40Z</time>
      </trkpt>
      <trkpt lat="45.15108" lon="5.01979">
        <ele>227.20100402832</ele>
        <time>2009-09-26T12:00:55Z</time>
      </trkpt>
      <trkpt lat="45.15163" lon="5.02065">
        <ele>227.53799438477</ele>
        <time>2009-09-26T12:01:08Z</time>
      </trkpt>
      <trkpt lat="45.15168" lon="5.02081">
        <ele>227.57400512695</ele>
        <time>2009-09-26T12:01:10Z</time>
      </trkpt>
      <trkpt lat="45.15192" lon="5.0211">
        <ele>227.71000671387</ele>
        <time>2009-09-26T12:01:15Z</time>
      </trkpt>
      <trkpt lat="45.15265" lon="5.02228">
        <ele>228.44000244141</ele>
        <time>2009-09-26T12:01:31Z</time>
      </trkpt>
      <trkpt lat="45.1535" lon="5.02357">
        <ele>227.93800354004</ele>
        <time>2009-09-26T12:01:49Z</time>
      </trkpt>
      <trkpt lat="45.15441" lon="5.02458">
        <ele>229.72200012207</ele>
        <time>2009-09-26T12:02:07Z</time>
      </trkpt>
      <trkpt lat="45.15495" lon="5.02533">
        <ele>230.44200134277</ele>
        <time>2009-09-26T12:02:19Z</time>
      </trkpt>
      <trkpt lat="45.15599" lon="5.02672">
        <ele>232.7619934082</ele>
        <time>2009-09-26T12:02:41Z</time>
      </trkpt>
      <trkpt lat="45.15696" lon="5.02773">
        <ele>235.04100036621</ele>
        <time>2009-09-26T12:03:01Z</time>
      </trkpt>
      <trkpt lat="45.15802" lon="5.02876">
        <ele>237.22999572754</ele>
        <time>2009-09-26T12:03:22Z</time>
      </trkpt>
      <trkpt lat="45.15889" lon="5.02974">
        <ele>239.39500427246</ele>
        <time>2009-09-26T12:03:41Z</time>
      </trkpt>
      <trkpt lat="45.15984" lon="5.03106">
        <ele>241.88999938965</ele>
        <time>2009-09-26T12:04:04Z</time>
      </trkpt>
      <trkpt lat="45.16045" lon="5.03215">
        <ele>243.71899414062</ele>
        <time>2009-09-26T12:04:20Z</time>
      </trkpt>
      <trkpt lat="45.16095" lon="5.03311">
        <ele>243.39700317383</ele>
        <time>2009-09-26T12:04:32Z</time>
      </trkpt>
      <trkpt lat="45.16167" lon="5.03468">
        <ele>242.80599975586</ele>
        <time>2009-09-26T12:04:51Z</time>
      </trkpt>
      <trkpt lat="45.16187" lon="5.03585">
        <ele>243.03500366211</ele>
        <time>2009-09-26T12:05:03Z</time>
      </trkpt>
      <trkpt lat="45.16192" lon="5.03781">
        <ele>243.87600708008</ele>
        <time>2009-09-26T12:05:23Z</time>
      </trkpt>
      <trkpt lat="45.1619" lon="5.0387">
        <ele>244.74600219727</ele>
        <time>2009-09-26T12:05:33Z</time>
      </trkpt>
      <trkpt lat="45.16173" lon="5.03925">
        <ele>245.43600463867</ele>
        <time>2009-09-26T12:05:40Z</time>
      </trkpt>
      <trkpt lat="45.16173" lon="5.03958">
        <ele>245.14900207519</ele>
        <time>2009-09-26T12:05:44Z</time>
      </trkpt>
      <trkpt lat="45.16197" lon="5.04053">
        <ele>243.99299621582</ele>
        <time>2009-09-26T12:05:56Z</time>
      </trkpt>
      <trkpt lat="45.16235" lon="5.04279">
        <ele>244.80799865723</ele>
        <time>2009-09-26T12:06:21Z</time>
      </trkpt>
      <trkpt lat="45.16215" lon="5.04387">
        <ele>246.06199645996</ele>
        <time>2009-09-26T12:06:33Z</time>
      </trkpt>
      <trkpt lat="45.1617" lon="5.04572">
        <ele>247.52299499512</ele>
        <time>2009-09-26T12:06:54Z</time>
      </trkpt>
      <trkpt lat="45.1616" lon="5.04727">
        <ele>248.96899414062</ele>
        <time>2009-09-26T12:07:10Z</time>
      </trkpt>
      <trkpt lat="45.16165" lon="5.04914">
        <ele>250.5359954834</ele>
        <time>2009-09-26T12:07:30Z</time>
      </trkpt>
      <trkpt lat="45.16219" lon="5.05091">
        <ele>253.06900024414</ele>
        <time>2009-09-26T12:07:51Z</time>
      </trkpt>
      <trkpt lat="45.1626" lon="5.052">
        <ele>255.3809967041</ele>
        <time>2009-09-26T12:08:05Z</time>
      </trkpt>
      <trkpt lat="45.16327" lon="5.05315">
        <ele>257.75100708008</ele>
        <time>2009-09-26T12:08:22Z</time>
      </trkpt>
      <trkpt lat="45.16409" lon="5.05462">
        <ele>261.19100952148</ele>
        <time>2009-09-26T12:08:44Z</time>
      </trkpt>
      <trkpt lat="45.16463" lon="5.05563">
        <ele>263.86999511719</ele>
        <time>2009-09-26T12:08:59Z</time>
      </trkpt>
      <trkpt lat="45.16543" lon="5.05729">
        <ele>267.13598632812</ele>
        <time>2009-09-26T12:09:22Z</time>
      </trkpt>
      <trkpt lat="45.16585" lon="5.0584">
        <ele>269.62799072266</ele>
        <time>2009-09-26T12:09:37Z</time>
      </trkpt>
      <trkpt lat="45.16629" lon="5.05958">
        <ele>272.45498657227</ele>
        <time>2009-09-26T12:09:53Z</time>
      </trkpt>
      <trkpt lat="45.1667" lon="5.06093">
        <ele>273.59100341797</ele>
        <time>2009-09-26T12:10:10Z</time>
      </trkpt>
      <trkpt lat="45.16694" lon="5.0621">
        <ele>271.63800048828</ele>
        <time>2009-09-26T12:10:22Z</time>
      </trkpt>
      <trkpt lat="45.16724" lon="5.0636">
        <ele>270.25900268555</ele>
        <time>2009-09-26T12:10:37Z</time>
      </trkpt>
      <trkpt lat="45.16735" lon="5.06411">
        <ele>269.67199707031</ele>
        <time>2009-09-26T12:10:42Z</time>
      </trkpt>
      <trkpt lat="45.16751" lon="5.0648">
        <ele>268.96701049805</ele>
        <time>2009-09-26T12:10:49Z</time>
      </trkpt>
      <trkpt lat="45.16814" lon="5.0657">
        <ele>268.99700927734</ele>
        <time>2009-09-26T12:11:01Z</time>
      </trkpt>
      <trkpt lat="45.16934" lon="5.06692">
        <ele>269.45401000977</ele>
        <time>2009-09-26T12:11:22Z</time>
      </trkpt>
      <trkpt lat="45.17032" lon="5.06791">
        <ele>270.99499511719</ele>
        <time>2009-09-26T12:11:40Z</time>
      </trkpt>
      <trkpt lat="45.17122" lon="5.06883">
        <ele>272.28698730469</ele>
        <time>2009-09-26T12:11:57Z</time>
      </trkpt>
      <trkpt lat="45.17221" lon="5.06957">
        <ele>274.24899291992</ele>
        <time>2009-09-26T12:12:15Z</time>
      </trkpt>
      <trkpt lat="45.17276" lon="5.06975">
        <ele>275.36700439453</ele>
        <time>2009-09-26T12:12:24Z</time>
      </trkpt>
      <trkpt lat="45.17367" lon="5.07017">
        <ele>276.8219909668</ele>
        <time>2009-09-26T12:12:39Z</time>
      </trkpt>
      <trkpt lat="45.17385" lon="5.07022">
        <ele>276.94299316406</ele>
        <time>2009-09-26T12:12:42Z</time>
      </trkpt>
      <trkpt lat="45.17447" lon="5.0706">
        <ele>279.51000976562</ele>
        <time>2009-09-26T12:12:54Z</time>
      </trkpt>
      <trkpt lat="45.17452" lon="5.07063">
        <ele>279.78100585938</ele>
        <time>2009-09-26T12:12:55Z</time>
      </trkpt>
      <trkpt lat="45.17481" lon="5.07087">
        <ele>279.98400878906</ele>
        <time>2009-09-26T12:13:01Z</time>
      </trkpt>
      <trkpt lat="45.17531" lon="5.07162">
        <ele>280.68798828125</ele>
        <time>2009-09-26T12:13:13Z</time>
      </trkpt>
      <trkpt lat="45.17625" lon="5.07296">
        <ele>281.15600585938</ele>
        <time>2009-09-26T12:13:33Z</time>
      </trkpt>
      <trkpt lat="45.17717" lon="5.07428">
        <ele>281.93798828125</ele>
        <time>2009-09-26T12:13:52Z</time>
      </trkpt>
      <trkpt lat="45.17838" lon="5.07598">
        <ele>284.45700073242</ele>
        <time>2009-09-26T12:14:17Z</time>
      </trkpt>
      <trkpt lat="45.17947" lon="5.0775">
        <ele>286.39700317383</ele>
        <time>2009-09-26T12:14:39Z</time>
      </trkpt>
      <trkpt lat="45.18013" lon="5.07843">
        <ele>287.6789855957</ele>
        <time>2009-09-26T12:14:53Z</time>
      </trkpt>
      <trkpt lat="45.18111" lon="5.07981">
        <ele>288.97900390625</ele>
        <time>2009-09-26T12:15:14Z</time>
      </trkpt>
      <trkpt lat="45.18219" lon="5.08134">
        <ele>292.5719909668</ele>
        <time>2009-09-26T12:15:38Z</time>
      </trkpt>
      <trkpt lat="45.18263" lon="5.08196">
        <ele>293.68301391602</ele>
        <time>2009-09-26T12:15:48Z</time>
      </trkpt>
      <trkpt lat="45.18285" lon="5.08227">
        <ele>294.70001220703</ele>
        <time>2009-09-26T12:15:53Z</time>
      </trkpt>
      <trkpt lat="45.18316" lon="5.08271">
        <ele>295.71600341797</ele>
        <time>2009-09-26T12:16:00Z</time>
      </trkpt>
      <trkpt lat="45.18334" lon="5.08296">
        <ele>296.14199829102</ele>
        <time>2009-09-26T12:16:04Z</time>
      </trkpt>
      <trkpt lat="45.18454" lon="5.08466">
        <ele>299.8210144043</ele>
        <time>2009-09-26T12:16:31Z</time>
      </trkpt>
      <trkpt lat="45.18568" lon="5.08626">
        <ele>303.08999633789</ele>
        <time>2009-09-26T12:16:56Z</time>
      </trkpt>
      <trkpt lat="45.18646" lon="5.08775">
        <ele>304.1969909668</ele>
        <time>2009-09-26T12:17:16Z</time>
      </trkpt>
      <trkpt lat="45.18712" lon="5.08977">
        <ele>307.66000366211</ele>
        <time>2009-09-26T12:17:40Z</time>
      </trkpt>
      <trkpt lat="45.1879" lon="5.09214">
        <ele>310.39999389648</ele>
        <time>2009-09-26T12:18:08Z</time>
      </trkpt>
      <trkpt lat="45.18843" lon="5.09378">
        <ele>312.36999511719</ele>
        <time>2009-09-26T12:18:27Z</time>
      </trkpt>
      <trkpt lat="45.18921" lon="5.09611">
        <ele>313.92098999023</ele>
        <time>2009-09-26T12:18:53Z</time>
      </trkpt>
      <trkpt lat="45.18986" lon="5.09821">
        <ele>316.13198852539</ele>
        <time>2009-09-26T12:19:16Z</time>
      </trkpt>
      <trkpt lat="45.19048" lon="5.10043">
        <ele>318.97399902344</ele>
        <time>2009-09-26T12:19:41Z</time>
      </trkpt>
      <trkpt lat="45.19107" lon="5.10257">
        <ele>321.19500732422</ele>
        <time>2009-09-26T12:20:04Z</time>
      </trkpt>
      <trkpt lat="45.1916" lon="5.1045">
        <ele>323.52600097656</ele>
        <time>2009-09-26T12:20:25Z</time>
      </trkpt>
      <trkpt lat="45.19212" lon="5.10634">
        <ele>325.67599487305</ele>
        <time>2009-09-26T12:20:46Z</time>
      </trkpt>
      <trkpt lat="45.19276" lon="5.10864">
        <ele>329.86599731445</ele>
        <time>2009-09-26T12:21:13Z</time>
      </trkpt>
      <trkpt lat="45.19346" lon="5.11108">
        <ele>334.5</ele>
        <time>2009-09-26T12:21:42Z</time>
      </trkpt>
      <trkpt lat="45.19359" lon="5.11149">
        <ele>336.12799072266</ele>
        <time>2009-09-26T12:21:47Z</time>
      </trkpt>
      <trkpt lat="45.19396" lon="5.11274">
        <ele>339.52801513672</ele>
        <time>2009-09-26T12:22:05Z</time>
      </trkpt>
      <trkpt lat="45.19427" lon="5.11379">
        <ele>341.29299926758</ele>
        <time>2009-09-26T12:22:19Z</time>
      </trkpt>
      <trkpt lat="45.19471" lon="5.11528">
        <ele>342.93701171875</ele>
        <time>2009-09-26T12:22:37Z</time>
      </trkpt>
      <trkpt lat="45.19507" lon="5.11647">
        <ele>343.78900146484</ele>
        <time>2009-09-26T12:22:51Z</time>
      </trkpt>
      <trkpt lat="45.19541" lon="5.11706">
        <ele>344.87600708008</ele>
        <time>2009-09-26T12:22:59Z</time>
      </trkpt>
      <trkpt lat="45.19572" lon="5.11732">
        <ele>345.51000976562</ele>
        <time>2009-09-26T12:23:04Z</time>
      </trkpt>
      <trkpt lat="45.19589" lon="5.11772">
        <ele>345.08999633789</ele>
        <time>2009-09-26T12:23:09Z</time>
      </trkpt>
      <trkpt lat="45.19604" lon="5.1195">
        <ele>340.82901000977</ele>
        <time>2009-09-26T12:23:24Z</time>
      </trkpt>
      <trkpt lat="45.19604" lon="5.11962">
        <ele>340.64700317383</ele>
        <time>2009-09-26T12:23:25Z</time>
      </trkpt>
      <trkpt lat="45.19588" lon="5.12014">
        <ele>341.12200927734</ele>
        <time>2009-09-26T12:23:30Z</time>
      </trkpt>
      <trkpt lat="45.19577" lon="5.12083">
        <ele>340.12600708008</ele>
        <time>2009-09-26T12:23:37Z</time>
      </trkpt>
      <trkpt lat="45.19611" lon="5.12224">
        <ele>341.63299560547</ele>
        <time>2009-09-26T12:23:52Z</time>
      </trkpt>
      <trkpt lat="45.19657" lon="5.12415">
        <ele>343.92700195312</ele>
        <time>2009-09-26T12:24:13Z</time>
      </trkpt>
      <trkpt lat="45.1968" lon="5.12512">
        <ele>344.98498535156</ele>
        <time>2009-09-26T12:24:24Z</time>
      </trkpt>
      <trkpt lat="45.19662" lon="5.12579">
        <ele>345.39801025391</ele>
        <time>2009-09-26T12:24:32Z</time>
      </trkpt>
      <trkpt lat="45.1965" lon="5.12587">
        <ele>345.65100097656</ele>
        <time>2009-09-26T12:24:34Z</time>
      </trkpt>
      <trkpt lat="45.19572" lon="5.12633">
        <ele>346.85198974609</ele>
        <time>2009-09-26T12:24:47Z</time>
      </trkpt>
      <trkpt lat="45.19551" lon="5.12646">
        <ele>347.81600952148</ele>
        <time>2009-09-26T12:24:51Z</time>
      </trkpt>
      <trkpt lat="45.19535" lon="5.12665">
        <ele>349.28799438477</ele>
        <time>2009-09-26T12:24:55Z</time>
      </trkpt>
      <trkpt lat="45.19525" lon="5.12701">
        <ele>351.61599731445</ele>
        <time>2009-09-26T12:25:01Z</time>
      </trkpt>
      <trkpt lat="45.19522" lon="5.12739">
        <ele>353.63500976562</ele>
        <time>2009-09-26T12:25:07Z</time>
      </trkpt>
      <trkpt lat="45.19519" lon="5.12764">
        <ele>355.39498901367</ele>
        <time>2009-09-26T12:25:11Z</time>
      </trkpt>
      <trkpt lat="45.19517" lon="5.12802">
        <ele>356.5539855957</ele>
        <time>2009-09-26T12:25:17Z</time>
      </trkpt>
      <trkpt lat="45.19522" lon="5.12915">
        <ele>358.93399047852</ele>
        <time>2009-09-26T12:25:32Z</time>
      </trkpt>
      <trkpt lat="45.19511" lon="5.13065">
        <ele>362.94198608398</ele>
        <time>2009-09-26T12:25:50Z</time>
      </trkpt>
      <trkpt lat="45.19495" lon="5.13188">
        <ele>366.77700805664</ele>
        <time>2009-09-26T12:26:06Z</time>
      </trkpt>
      <trkpt lat="45.19473" lon="5.13346">
        <ele>368.84201049805</ele>
        <time>2009-09-26T12:26:25Z</time>
      </trkpt>
      <trkpt lat="45.19476" lon="5.13514">
        <ele>368.99700927734</ele>
        <time>2009-09-26T12:26:42Z</time>
      </trkpt>
      <trkpt lat="45.1948" lon="5.13702">
        <ele>375.76699829102</ele>
        <time>2009-09-26T12:27:03Z</time>
      </trkpt>
      <trkpt lat="45.19482" lon="5.13813">
        <ele>380.2799987793</ele>
        <time>2009-09-26T12:27:17Z</time>
      </trkpt>
      <trkpt lat="45.19498" lon="5.13961">
        <ele>385.52600097656</ele>
        <time>2009-09-26T12:27:36Z</time>
      </trkpt>
      <trkpt lat="45.19517" lon="5.14101">
        <ele>388.78100585938</ele>
        <time>2009-09-26T12:27:53Z</time>
      </trkpt>
      <trkpt lat="45.19537" lon="5.14195">
        <ele>392.22500610352</ele>
        <time>2009-09-26T12:28:05Z</time>
      </trkpt>
      <trkpt lat="45.19532" lon="5.14256">
        <ele>391.24798583984</ele>
        <time>2009-09-26T12:28:12Z</time>
      </trkpt>
      <trkpt lat="45.19511" lon="5.14301">
        <ele>389.70401000977</ele>
        <time>2009-09-26T12:28:17Z</time>
      </trkpt>
      <trkpt lat="45.19511" lon="5.14346">
        <ele>390.93399047852</ele>
        <time>2009-09-26T12:28:22Z</time>
      </trkpt>
      <trkpt lat="45.19519" lon="5.14369">
        <ele>392.32400512695</ele>
        <time>2009-09-26T12:28:25Z</time>
      </trkpt>
      <trkpt lat="45.1953" lon="5.14386">
        <ele>393.75500488281</ele>
        <time>2009-09-26T12:28:28Z</time>
      </trkpt>
      <trkpt lat="45.19535" lon="5.14391">
        <ele>394.26599121094</ele>
        <time>2009-09-26T12:28:29Z</time>
      </trkpt>
      <trkpt lat="45.19569" lon="5.14421">
        <ele>397.10598754883</ele>
        <time>2009-09-26T12:28:36Z</time>
      </trkpt>
      <trkpt lat="45.19577" lon="5.14431">
        <ele>397.70199584961</ele>
        <time>2009-09-26T12:28:38Z</time>
      </trkpt>
      <trkpt lat="45.19593" lon="5.14487">
        <ele>400.39801025391</ele>
        <time>2009-09-26T12:28:46Z</time>
      </trkpt>
      <trkpt lat="45.19595" lon="5.14605">
        <ele>399.97601318359</ele>
        <time>2009-09-26T12:28:59Z</time>
      </trkpt>
      <trkpt lat="45.19622" lon="5.14669">
        <ele>398.63500976562</ele>
        <time>2009-09-26T12:29:06Z</time>
      </trkpt>
      <trkpt lat="45.19673" lon="5.14713">
        <ele>400.60400390625</ele>
        <time>2009-09-26T12:29:14Z</time>
      </trkpt>
      <trkpt lat="45.19679" lon="5.14717">
        <ele>400.70700073242</ele>
        <time>2009-09-26T12:29:15Z</time>
      </trkpt>
      <trkpt lat="45.197" lon="5.14736">
        <ele>401.39999389648</ele>
        <time>2009-09-26T12:29:19Z</time>
      </trkpt>
      <trkpt lat="45.19729" lon="5.14837">
        <ele>403.83898925781</ele>
        <time>2009-09-26T12:29:31Z</time>
      </trkpt>
      <trkpt lat="45.19737" lon="5.15014">
        <ele>406.58801269531</ele>
        <time>2009-09-26T12:29:49Z</time>
      </trkpt>
      <trkpt lat="45.19769" lon="5.15187">
        <ele>409.06500244141</ele>
        <time>2009-09-26T12:30:07Z</time>
      </trkpt>
      <trkpt lat="45.1984" lon="5.15424">
        <ele>410.76901245117</ele>
        <time>2009-09-26T12:30:31Z</time>
      </trkpt>
      <trkpt lat="45.19853" lon="5.15465">
        <ele>411.1969909668</ele>
        <time>2009-09-26T12:30:35Z</time>
      </trkpt>
      <trkpt lat="45.199" lon="5.1567">
        <ele>412.92599487305</ele>
        <time>2009-09-26T12:30:55Z</time>
      </trkpt>
      <trkpt lat="45.19906" lon="5.15854">
        <ele>412.00900268555</ele>
        <time>2009-09-26T12:31:11Z</time>
      </trkpt>
      <trkpt lat="45.19881" lon="5.16072">
        <ele>409.57800292969</ele>
        <time>2009-09-26T12:31:29Z</time>
      </trkpt>
      <trkpt lat="45.1981" lon="5.16285">
        <ele>407.79800415039</ele>
        <time>2009-09-26T12:31:47Z</time>
      </trkpt>
      <trkpt lat="45.19802" lon="5.1638">
        <ele>409.91598510742</ele>
        <time>2009-09-26T12:31:55Z</time>
      </trkpt>
      <trkpt lat="45.19797" lon="5.16434">
        <ele>411.92599487305</ele>
        <time>2009-09-26T12:32:00Z</time>
      </trkpt>
      <trkpt lat="45.19786" lon="5.16515">
        <ele>414.42199707031</ele>
        <time>2009-09-26T12:32:08Z</time>
      </trkpt>
      <trkpt lat="45.19783" lon="5.16546">
        <ele>415.37600708008</ele>
        <time>2009-09-26T12:32:11Z</time>
      </trkpt>
      <trkpt lat="45.19788" lon="5.16586">
        <ele>416.82998657227</ele>
        <time>2009-09-26T12:32:15Z</time>
      </trkpt>
      <trkpt lat="45.1983" lon="5.16717">
        <ele>420.42401123047</ele>
        <time>2009-09-26T12:32:29Z</time>
      </trkpt>
      <trkpt lat="45.19881" lon="5.16831">
        <ele>422.39498901367</ele>
        <time>2009-09-26T12:32:42Z</time>
      </trkpt>
      <trkpt lat="45.19891" lon="5.1688">
        <ele>423</ele>
        <time>2009-09-26T12:32:47Z</time>
      </trkpt>
      <trkpt lat="45.19883" lon="5.17057">
        <ele>425.76699829102</ele>
        <time>2009-09-26T12:33:04Z</time>
      </trkpt>
      <trkpt lat="45.19875" lon="5.17237">
        <ele>428.18200683594</ele>
        <time>2009-09-26T12:33:21Z</time>
      </trkpt>
      <trkpt lat="45.19843" lon="5.17324">
        <ele>429.53399658203</ele>
        <time>2009-09-26T12:33:30Z</time>
      </trkpt>
      <trkpt lat="45.1979" lon="5.17449">
        <ele>431.73098754883</ele>
        <time>2009-09-26T12:33:44Z</time>
      </trkpt>
      <trkpt lat="45.19772" lon="5.17541">
        <ele>433.16000366211</ele>
        <time>2009-09-26T12:33:54Z</time>
      </trkpt>
      <trkpt lat="45.19779" lon="5.17602">
        <ele>433.89300537109</ele>
        <time>2009-09-26T12:34:00Z</time>
      </trkpt>
      <trkpt lat="45.1977" lon="5.17651">
        <ele>434.44400024414</ele>
        <time>2009-09-26T12:34:05Z</time>
      </trkpt>
      <trkpt lat="45.19761" lon="5.17669">
        <ele>434.87701416016</ele>
        <time>2009-09-26T12:34:07Z</time>
      </trkpt>
      <trkpt lat="45.19729" lon="5.17793">
        <ele>437.03201293945</ele>
        <time>2009-09-26T12:34:20Z</time>
      </trkpt>
      <trkpt lat="45.19706" lon="5.17864">
        <ele>438.50399780273</ele>
        <time>2009-09-26T12:34:28Z</time>
      </trkpt>
      <trkpt lat="45.19704" lon="5.17892">
        <ele>439.13800048828</ele>
        <time>2009-09-26T12:34:31Z</time>
      </trkpt>
      <trkpt lat="45.19723" lon="5.17939">
        <ele>440.04400634766</ele>
        <time>2009-09-26T12:34:37Z</time>
      </trkpt>
      <trkpt lat="45.19727" lon="5.17957">
        <ele>440.57501220703</ele>
        <time>2009-09-26T12:34:39Z</time>
      </trkpt>
      <trkpt lat="45.19729" lon="5.17975">
        <ele>441.14801025391</ele>
        <time>2009-09-26T12:34:41Z</time>
      </trkpt>
      <trkpt lat="45.19729" lon="5.1803">
        <ele>442.48300170898</ele>
        <time>2009-09-26T12:34:47Z</time>
      </trkpt>
      <trkpt lat="45.19728" lon="5.18075">
        <ele>443.32998657227</ele>
        <time>2009-09-26T12:34:52Z</time>
      </trkpt>
      <trkpt lat="45.19712" lon="5.1825">
        <ele>446.86999511719</ele>
        <time>2009-09-26T12:35:11Z</time>
      </trkpt>
      <trkpt lat="45.19673" lon="5.18394">
        <ele>450.98098754883</ele>
        <time>2009-09-26T12:35:28Z</time>
      </trkpt>
      <trkpt lat="45.19665" lon="5.18419">
        <ele>451.45098876953</ele>
        <time>2009-09-26T12:35:31Z</time>
      </trkpt>
      <trkpt lat="45.19661" lon="5.18436">
        <ele>451.84698486328</ele>
        <time>2009-09-26T12:35:33Z</time>
      </trkpt>
      <trkpt lat="45.19655" lon="5.18603">
        <ele>455.22198486328</ele>
        <time>2009-09-26T12:35:51Z</time>
      </trkpt>
      <trkpt lat="45.19663" lon="5.18799">
        <ele>459.57501220703</ele>
        <time>2009-09-26T12:36:11Z</time>
      </trkpt>
      <trkpt lat="45.19641" lon="5.18915">
        <ele>462.63500976562</ele>
        <time>2009-09-26T12:36:23Z</time>
      </trkpt>
      <trkpt lat="45.19632" lon="5.19069">
        <ele>466.59399414062</ele>
        <time>2009-09-26T12:36:38Z</time>
      </trkpt>
      <trkpt lat="45.19614" lon="5.1928">
        <ele>472.55200195312</ele>
        <time>2009-09-26T12:36:57Z</time>
      </trkpt>
      <trkpt lat="45.19609" lon="5.19491">
        <ele>475.78601074219</ele>
        <time>2009-09-26T12:37:14Z</time>
      </trkpt>
      <trkpt lat="45.1961" lon="5.19747">
        <ele>480.56298828125</ele>
        <time>2009-09-26T12:37:35Z</time>
      </trkpt>
      <trkpt lat="45.19633" lon="5.19896">
        <ele>482.25201416016</ele>
        <time>2009-09-26T12:37:48Z</time>
      </trkpt>
      <trkpt lat="45.19632" lon="5.19982">
        <ele>483.125</ele>
        <time>2009-09-26T12:37:58Z</time>
      </trkpt>
      <trkpt lat="45.19652" lon="5.20007">
        <ele>484.26699829102</ele>
        <time>2009-09-26T12:38:05Z</time>
      </trkpt>
      <trkpt lat="45.19659" lon="5.20017">
        <ele>484.56298828125</ele>
        <time>2009-09-26T12:38:08Z</time>
      </trkpt>
      <trkpt lat="45.19697" lon="5.20091">
        <ele>487.40798950195</ele>
        <time>2009-09-26T12:38:26Z</time>
      </trkpt>
      <trkpt lat="45.19734" lon="5.2016">
        <ele>491.22399902344</ele>
        <time>2009-09-26T12:38:43Z</time>
      </trkpt>
      <trkpt lat="45.19765" lon="5.20203">
        <ele>493.47799682617</ele>
        <time>2009-09-26T12:38:54Z</time>
      </trkpt>
      <trkpt lat="45.19774" lon="5.20213">
        <ele>493.97601318359</ele>
        <time>2009-09-26T12:38:57Z</time>
      </trkpt>
      <trkpt lat="45.19781" lon="5.2025">
        <ele>495.74301147461</ele>
        <time>2009-09-26T12:39:04Z</time>
      </trkpt>
      <trkpt lat="45.19768" lon="5.20292">
        <ele>497.67300415039</ele>
        <time>2009-09-26T12:39:12Z</time>
      </trkpt>
      <trkpt lat="45.19775" lon="5.20394">
        <ele>501.52301025391</ele>
        <time>2009-09-26T12:39:30Z</time>
      </trkpt>
      <trkpt lat="45.1978" lon="5.20445">
        <ele>503.88000488281</ele>
        <time>2009-09-26T12:39:39Z</time>
      </trkpt>
      <trkpt lat="45.19784" lon="5.20463">
        <ele>504.91598510742</ele>
        <time>2009-09-26T12:39:42Z</time>
      </trkpt>
      <trkpt lat="45.19804" lon="5.20494">
        <ele>506.75299072266</ele>
        <time>2009-09-26T12:39:49Z</time>
      </trkpt>
      <trkpt lat="45.19883" lon="5.20528">
        <ele>511.10101318359</ele>
        <time>2009-09-26T12:40:07Z</time>
      </trkpt>
      <trkpt lat="45.19958" lon="5.20557">
        <ele>515.32000732422</ele>
        <time>2009-09-26T12:40:24Z</time>
      </trkpt>
      <trkpt lat="45.20026" lon="5.20594">
        <ele>518.83599853516</ele>
        <time>2009-09-26T12:40:40Z</time>
      </trkpt>
      <trkpt lat="45.20039" lon="5.20602">
        <ele>520.1240234375</ele>
        <time>2009-09-26T12:40:43Z</time>
      </trkpt>
      <trkpt lat="45.20103" lon="5.20641">
        <ele>524.71997070312</ele>
        <time>2009-09-26T12:40:59Z</time>
      </trkpt>
      <trkpt lat="45.20148" lon="5.20709">
        <ele>529.31402587891</ele>
        <time>2009-09-26T12:41:14Z</time>
      </trkpt>
      <trkpt lat="45.2018" lon="5.20783">
        <ele>532.70599365234</ele>
        <time>2009-09-26T12:41:27Z</time>
      </trkpt>
      <trkpt lat="45.2024" lon="5.20816">
        <ele>536.46301269531</ele>
        <time>2009-09-26T12:41:41Z</time>
      </trkpt>
      <trkpt lat="45.20322" lon="5.20806">
        <ele>541.50897216797</ele>
        <time>2009-09-26T12:41:59Z</time>
      </trkpt>
      <trkpt lat="45.20413" lon="5.20774">
        <ele>547.49298095703</ele>
        <time>2009-09-26T12:42:19Z</time>
      </trkpt>
      <trkpt lat="45.20489" lon="5.20763">
        <ele>552.42700195312</ele>
        <time>2009-09-26T12:42:35Z</time>
      </trkpt>
      <trkpt lat="45.20557" lon="5.2081">
        <ele>556.32897949219</ele>
        <time>2009-09-26T12:42:50Z</time>
      </trkpt>
      <trkpt lat="45.20571" lon="5.20839">
        <ele>558.0009765625</ele>
        <time>2009-09-26T12:42:55Z</time>
      </trkpt>
      <trkpt lat="45.2058" lon="5.20933">
        <ele>561.72302246094</ele>
        <time>2009-09-26T12:43:08Z</time>
      </trkpt>
      <trkpt lat="45.20587" lon="5.20953">
        <ele>562.42999267578</ele>
        <time>2009-09-26T12:43:11Z</time>
      </trkpt>
      <trkpt lat="45.20647" lon="5.21021">
        <ele>566.74798583984</ele>
        <time>2009-09-26T12:43:26Z</time>
      </trkpt>
      <trkpt lat="45.2066" lon="5.21033">
        <ele>567.77899169922</ele>
        <time>2009-09-26T12:43:29Z</time>
      </trkpt>
      <trkpt lat="45.20675" lon="5.2107">
        <ele>569.45599365234</ele>
        <time>2009-09-26T12:43:35Z</time>
      </trkpt>
      <trkpt lat="45.20684" lon="5.21089">
        <ele>570.59100341797</ele>
        <time>2009-09-26T12:43:38Z</time>
      </trkpt>
      <trkpt lat="45.20703" lon="5.21118">
        <ele>571.44201660156</ele>
        <time>2009-09-26T12:43:43Z</time>
      </trkpt>
      <trkpt lat="45.20707" lon="5.21177">
        <ele>573.78601074219</ele>
        <time>2009-09-26T12:43:51Z</time>
      </trkpt>
      <trkpt lat="45.20705" lon="5.21285">
        <ele>577.49298095703</ele>
        <time>2009-09-26T12:44:05Z</time>
      </trkpt>
      <trkpt lat="45.20706" lon="5.21293">
        <ele>578.10400390625</ele>
        <time>2009-09-26T12:44:06Z</time>
      </trkpt>
      <trkpt lat="45.20722" lon="5.21322">
        <ele>579.45300292969</ele>
        <time>2009-09-26T12:44:11Z</time>
      </trkpt>
      <trkpt lat="45.20772" lon="5.21352">
        <ele>581.79400634766</ele>
        <time>2009-09-26T12:44:21Z</time>
      </trkpt>
      <trkpt lat="45.20789" lon="5.2137">
        <ele>583.14898681641</ele>
        <time>2009-09-26T12:44:25Z</time>
      </trkpt>
      <trkpt lat="45.20834" lon="5.21489">
        <ele>586.81500244141</ele>
        <time>2009-09-26T12:44:42Z</time>
      </trkpt>
      <trkpt lat="45.20877" lon="5.21633">
        <ele>589.93103027344</ele>
        <time>2009-09-26T12:45:00Z</time>
      </trkpt>
      <trkpt lat="45.20921" lon="5.21784">
        <ele>594.57202148438</ele>
        <time>2009-09-26T12:45:19Z</time>
      </trkpt>
      <trkpt lat="45.20965" lon="5.21931">
        <ele>600.958984375</ele>
        <time>2009-09-26T12:45:39Z</time>
      </trkpt>
      <trkpt lat="45.21006" lon="5.2207">
        <ele>606.8330078125</ele>
        <time>2009-09-26T12:45:58Z</time>
      </trkpt>
      <trkpt lat="45.21015" lon="5.2209">
        <ele>607.93499755859</ele>
        <time>2009-09-26T12:46:01Z</time>
      </trkpt>
      <trkpt lat="45.21043" lon="5.22119">
        <ele>609.07897949219</ele>
        <time>2009-09-26T12:46:07Z</time>
      </trkpt>
      <trkpt lat="45.2114" lon="5.22148">
        <ele>612.041015625</ele>
        <time>2009-09-26T12:46:24Z</time>
      </trkpt>
      <trkpt lat="45.21165" lon="5.22152">
        <ele>612.84301757812</ele>
        <time>2009-09-26T12:46:29Z</time>
      </trkpt>
      <trkpt lat="45.21181" lon="5.22159">
        <ele>613.43597412109</ele>
        <time>2009-09-26T12:46:33Z</time>
      </trkpt>
      <trkpt lat="45.21236" lon="5.22173">
        <ele>614.42297363281</ele>
        <time>2009-09-26T12:46:47Z</time>
      </trkpt>
      <trkpt lat="45.21277" lon="5.22183">
        <ele>614.73101806641</ele>
        <time>2009-09-26T12:46:59Z</time>
      </trkpt>
      <trkpt lat="45.21317" lon="5.22193">
        <ele>615.29901123047</ele>
        <time>2009-09-26T12:47:10Z</time>
      </trkpt>
      <trkpt lat="45.21339" lon="5.22207">
        <ele>615.00897216797</ele>
        <time>2009-09-26T12:47:17Z</time>
      </trkpt>
      <trkpt lat="45.21364" lon="5.22237">
        <ele>615.29797363281</ele>
        <time>2009-09-26T12:47:25Z</time>
      </trkpt>
      <trkpt lat="45.2139" lon="5.22272">
        <ele>615.07397460938</ele>
        <time>2009-09-26T12:47:33Z</time>
      </trkpt>
      <trkpt lat="45.2141" lon="5.22298">
        <ele>615.28497314453</ele>
        <time>2009-09-26T12:47:39Z</time>
      </trkpt>
      <trkpt lat="45.21417" lon="5.22307">
        <ele>615.37902832031</ele>
        <time>2009-09-26T12:47:41Z</time>
      </trkpt>
      <trkpt lat="45.21466" lon="5.2237">
        <ele>615.43200683594</ele>
        <time>2009-09-26T12:47:57Z</time>
      </trkpt>
      <trkpt lat="45.21525" lon="5.22447">
        <ele>615.53198242188</ele>
        <time>2009-09-26T12:48:15Z</time>
      </trkpt>
      <trkpt lat="45.21558" lon="5.22507">
        <ele>615.333984375</ele>
        <time>2009-09-26T12:48:29Z</time>
      </trkpt>
      <trkpt lat="45.21566" lon="5.22527">
        <ele>615.291015625</ele>
        <time>2009-09-26T12:48:36Z</time>
      </trkpt>
      <trkpt lat="45.21568" lon="5.22531">
        <ele>615.23797607422</ele>
        <time>2009-09-26T12:48:39Z</time>
      </trkpt>
      <trkpt lat="45.21571" lon="5.22528">
        <ele>615.36999511719</ele>
        <time>2009-09-26T12:48:43Z</time>
      </trkpt>
      <trkpt lat="45.21571" lon="5.2252">
        <ele>615.50701904297</ele>
        <time>2009-09-26T12:48:47Z</time>
      </trkpt>
      <trkpt lat="45.21566" lon="5.22526">
        <ele>615.4169921875</ele>
        <time>2009-09-26T12:48:57Z</time>
      </trkpt>
      <trkpt lat="45.21569" lon="5.22523">
        <ele>615.6240234375</ele>
        <time>2009-09-26T12:49:02Z</time>
      </trkpt>
      <trkpt lat="45.21569" lon="5.22525">
        <ele>615.41802978516</ele>
        <time>2009-09-26T12:49:27Z</time>
      </trkpt>
      <trkpt lat="45.21571" lon="5.22535">
        <ele>615.40502929688</ele>
        <time>2009-09-26T12:49:34Z</time>
      </trkpt>
      <trkpt lat="45.21591" lon="5.22583">
        <ele>615.01000976562</ele>
        <time>2009-09-26T12:49:47Z</time>
      </trkpt>
      <trkpt lat="45.21618" lon="5.22646">
        <ele>614.63201904297</ele>
        <time>2009-09-26T12:50:01Z</time>
      </trkpt>
      <trkpt lat="45.21646" lon="5.22712">
        <ele>614.48199462891</ele>
        <time>2009-09-26T12:50:15Z</time>
      </trkpt>
      <trkpt lat="45.21687" lon="5.22814">
        <ele>614.14801025391</ele>
        <time>2009-09-26T12:50:29Z</time>
      </trkpt>
      <trkpt lat="45.21701" lon="5.22849">
        <ele>613.76000976562</ele>
        <time>2009-09-26T12:50:34Z</time>
      </trkpt>
      <trkpt lat="45.21706" lon="5.22863">
        <ele>613.79302978516</ele>
        <time>2009-09-26T12:50:36Z</time>
      </trkpt>
      <trkpt lat="45.2176" lon="5.22989">
        <ele>612.37097167969</ele>
        <time>2009-09-26T12:50:51Z</time>
      </trkpt>
      <trkpt lat="45.21805" lon="5.23092">
        <ele>610.61297607422</ele>
        <time>2009-09-26T12:51:01Z</time>
      </trkpt>
      <trkpt lat="45.21845" lon="5.2318">
        <ele>608.41400146484</ele>
        <time>2009-09-26T12:51:09Z</time>
      </trkpt>
      <trkpt lat="45.21886" lon="5.23275">
        <ele>604.89501953125</ele>
        <time>2009-09-26T12:51:17Z</time>
      </trkpt>
      <trkpt lat="45.21941" lon="5.23372">
        <ele>601.87200927734</ele>
        <time>2009-09-26T12:51:25Z</time>
      </trkpt>
      <trkpt lat="45.22" lon="5.23403">
        <ele>599.66101074219</ele>
        <time>2009-09-26T12:51:31Z</time>
      </trkpt>
      <trkpt lat="45.22069" lon="5.23481">
        <ele>596.85601806641</ele>
        <time>2009-09-26T12:51:39Z</time>
      </trkpt>
      <trkpt lat="45.22103" lon="5.23513">
        <ele>595.44097900391</ele>
        <time>2009-09-26T12:51:43Z</time>
      </trkpt>
      <trkpt lat="45.22216" lon="5.23562">
        <ele>591.45300292969</ele>
        <time>2009-09-26T12:51:54Z</time>
      </trkpt>
      <trkpt lat="45.22266" lon="5.23584">
        <ele>589.49401855469</ele>
        <time>2009-09-26T12:51:58Z</time>
      </trkpt>
      <trkpt lat="45.22292" lon="5.23661">
        <ele>587.25201416016</ele>
        <time>2009-09-26T12:52:04Z</time>
      </trkpt>
      <trkpt lat="45.22321" lon="5.23761">
        <ele>584.59399414062</ele>
        <time>2009-09-26T12:52:11Z</time>
      </trkpt>
      <trkpt lat="45.22394" lon="5.23829">
        <ele>581.64501953125</ele>
        <time>2009-09-26T12:52:19Z</time>
      </trkpt>
      <trkpt lat="45.22461" lon="5.23829">
        <ele>579.52099609375</ele>
        <time>2009-09-26T12:52:25Z</time>
      </trkpt>
      <trkpt lat="45.22528" lon="5.23813">
        <ele>576.80499267578</ele>
        <time>2009-09-26T12:52:31Z</time>
      </trkpt>
      <trkpt lat="45.22573" lon="5.23806">
        <ele>575.23400878906</ele>
        <time>2009-09-26T12:52:35Z</time>
      </trkpt>
      <trkpt lat="45.22607" lon="5.23758">
        <ele>573.93597412109</ele>
        <time>2009-09-26T12:52:39Z</time>
      </trkpt>
      <trkpt lat="45.22585" lon="5.23699">
        <ele>572.70202636719</ele>
        <time>2009-09-26T12:52:43Z</time>
      </trkpt>
      <trkpt lat="45.22578" lon="5.23669">
        <ele>572.40197753906</ele>
        <time>2009-09-26T12:52:45Z</time>
      </trkpt>
      <trkpt lat="45.22597" lon="5.23638">
        <ele>570.93499755859</ele>
        <time>2009-09-26T12:52:49Z</time>
      </trkpt>
      <trkpt lat="45.22616" lon="5.2365">
        <ele>570.81500244141</ele>
        <time>2009-09-26T12:52:51Z</time>
      </trkpt>
      <trkpt lat="45.22722" lon="5.23725">
        <ele>566.45599365234</ele>
        <time>2009-09-26T12:53:02Z</time>
      </trkpt>
      <trkpt lat="45.22806" lon="5.23828">
        <ele>562.70501708984</ele>
        <time>2009-09-26T12:53:12Z</time>
      </trkpt>
      <trkpt lat="45.22907" lon="5.23884">
        <ele>559.80200195312</ele>
        <time>2009-09-26T12:53:22Z</time>
      </trkpt>
      <trkpt lat="45.22977" lon="5.23944">
        <ele>557.85797119141</ele>
        <time>2009-09-26T12:53:29Z</time>
      </trkpt>
      <trkpt lat="45.23017" lon="5.23965">
        <ele>556.09002685547</ele>
        <time>2009-09-26T12:53:33Z</time>
      </trkpt>
      <trkpt lat="45.23125" lon="5.24035">
        <ele>553.27197265625</ele>
        <time>2009-09-26T12:53:43Z</time>
      </trkpt>
      <trkpt lat="45.23249" lon="5.24171">
        <ele>548.78302001953</ele>
        <time>2009-09-26T12:53:56Z</time>
      </trkpt>
      <trkpt lat="45.23362" lon="5.2428">
        <ele>546.74499511719</ele>
        <time>2009-09-26T12:54:08Z</time>
      </trkpt>
      <trkpt lat="45.23447" lon="5.24374">
        <ele>544.53100585938</ele>
        <time>2009-09-26T12:54:18Z</time>
      </trkpt>
      <trkpt lat="45.23497" lon="5.244">
        <ele>543.38800048828</ele>
        <time>2009-09-26T12:54:23Z</time>
      </trkpt>
      <trkpt lat="45.23525" lon="5.24406">
        <ele>542.73699951172</ele>
        <time>2009-09-26T12:54:26Z</time>
      </trkpt>
      <trkpt lat="45.236" lon="5.24466">
        <ele>542.09399414062</ele>
        <time>2009-09-26T12:54:34Z</time>
      </trkpt>
      <trkpt lat="45.23647" lon="5.24526">
        <ele>540.375</ele>
        <time>2009-09-26T12:54:40Z</time>
      </trkpt>
      <trkpt lat="45.23783" lon="5.24685">
        <ele>537.28497314453</ele>
        <time>2009-09-26T12:54:57Z</time>
      </trkpt>
      <trkpt lat="45.2388" lon="5.24731">
        <ele>535.28100585938</ele>
        <time>2009-09-26T12:55:07Z</time>
      </trkpt>
      <trkpt lat="45.23964" lon="5.24795">
        <ele>533.18200683594</ele>
        <time>2009-09-26T12:55:16Z</time>
      </trkpt>
      <trkpt lat="45.23981" lon="5.24812">
        <ele>532.42401123047</ele>
        <time>2009-09-26T12:55:18Z</time>
      </trkpt>
      <trkpt lat="45.24088" lon="5.2492">
        <ele>529.96099853516</ele>
        <time>2009-09-26T12:55:30Z</time>
      </trkpt>
      <trkpt lat="45.24143" lon="5.24974">
        <ele>528.77099609375</ele>
        <time>2009-09-26T12:55:36Z</time>
      </trkpt>
      <trkpt lat="45.24174" lon="5.24992">
        <ele>527.8740234375</ele>
        <time>2009-09-26T12:55:39Z</time>
      </trkpt>
      <trkpt lat="45.24231" lon="5.24999">
        <ele>526.75799560547</ele>
        <time>2009-09-26T12:55:44Z</time>
      </trkpt>
      <trkpt lat="45.24408" lon="5.24961">
        <ele>521.27301025391</ele>
        <time>2009-09-26T12:55:59Z</time>
      </trkpt>
      <trkpt lat="45.24479" lon="5.24924">
        <ele>519.29998779297</ele>
        <time>2009-09-26T12:56:05Z</time>
      </trkpt>
      <trkpt lat="45.24511" lon="5.24899">
        <ele>518.08502197266</ele>
        <time>2009-09-26T12:56:08Z</time>
      </trkpt>
      <trkpt lat="45.24556" lon="5.24863">
        <ele>516.92102050781</ele>
        <time>2009-09-26T12:56:12Z</time>
      </trkpt>
      <trkpt lat="45.24625" lon="5.24864">
        <ele>516.61102294922</ele>
        <time>2009-09-26T12:56:18Z</time>
      </trkpt>
      <trkpt lat="45.24701" lon="5.24901">
        <ele>516.01800537109</ele>
        <time>2009-09-26T12:56:25Z</time>
      </trkpt>
      <trkpt lat="45.24775" lon="5.24936">
        <ele>515.95397949219</ele>
        <time>2009-09-26T12:56:32Z</time>
      </trkpt>
      <trkpt lat="45.24867" lon="5.24925">
        <ele>514.97399902344</ele>
        <time>2009-09-26T12:56:40Z</time>
      </trkpt>
      <trkpt lat="45.24976" lon="5.24889">
        <ele>514.97399902344</ele>
        <time>2009-09-26T12:56:51Z</time>
      </trkpt>
      <trkpt lat="45.2509" lon="5.24815">
        <ele>514.67199707031</ele>
        <time>2009-09-26T12:57:03Z</time>
      </trkpt>
      <trkpt lat="45.252" lon="5.24747">
        <ele>513.58001708984</ele>
        <time>2009-09-26T12:57:15Z</time>
      </trkpt>
      <trkpt lat="45.25267" lon="5.24741">
        <ele>513.77301025391</ele>
        <time>2009-09-26T12:57:22Z</time>
      </trkpt>
      <trkpt lat="45.25368" lon="5.24704">
        <ele>512.96801757812</ele>
        <time>2009-09-26T12:57:32Z</time>
      </trkpt>
      <trkpt lat="45.25463" lon="5.24645">
        <ele>512.58502197266</ele>
        <time>2009-09-26T12:57:43Z</time>
      </trkpt>
      <trkpt lat="45.25564" lon="5.24569">
        <ele>511.74398803711</ele>
        <time>2009-09-26T12:57:56Z</time>
      </trkpt>
      <trkpt lat="45.25645" lon="5.24487">
        <ele>510.86599731445</ele>
        <time>2009-09-26T12:58:07Z</time>
      </trkpt>
      <trkpt lat="45.25681" lon="5.2445">
        <ele>510.35000610352</ele>
        <time>2009-09-26T12:58:13Z</time>
      </trkpt>
      <trkpt lat="45.25709" lon="5.24421">
        <ele>509.66900634766</ele>
        <time>2009-09-26T12:58:18Z</time>
      </trkpt>
      <trkpt lat="45.25714" lon="5.24416">
        <ele>509.46899414062</ele>
        <time>2009-09-26T12:58:19Z</time>
      </trkpt>
      <trkpt lat="45.25792" lon="5.24362">
        <ele>510.84698486328</ele>
        <time>2009-09-26T12:58:33Z</time>
      </trkpt>
      <trkpt lat="45.25811" lon="5.24355">
        <ele>511.48999023438</ele>
        <time>2009-09-26T12:58:37Z</time>
      </trkpt>
      <trkpt lat="45.2586" lon="5.24361">
        <ele>514.99298095703</ele>
        <time>2009-09-26T12:58:47Z</time>
      </trkpt>
      <trkpt lat="45.25882" lon="5.24374">
        <ele>516.3330078125</ele>
        <time>2009-09-26T12:58:52Z</time>
      </trkpt>
      <trkpt lat="45.2589" lon="5.24366">
        <ele>515.25701904297</ele>
        <time>2009-09-26T12:58:56Z</time>
      </trkpt>
      <trkpt lat="45.25898" lon="5.24312">
        <ele>508.47299194336</ele>
        <time>2009-09-26T12:59:08Z</time>
      </trkpt>
      <trkpt lat="45.25898" lon="5.24307">
        <ele>507.88500976562</ele>
        <time>2009-09-26T12:59:09Z</time>
      </trkpt>
      <trkpt lat="45.25898" lon="5.24295">
        <ele>507.03601074219</ele>
        <time>2009-09-26T12:59:11Z</time>
      </trkpt>
      <trkpt lat="45.25902" lon="5.24264">
        <ele>505.63299560547</ele>
        <time>2009-09-26T12:59:16Z</time>
      </trkpt>
      <trkpt lat="45.25888" lon="5.24248">
        <ele>504.87899780273</ele>
        <time>2009-09-26T12:59:20Z</time>
      </trkpt>
      <trkpt lat="45.2588" lon="5.24239">
        <ele>503.95401000977</ele>
        <time>2009-09-26T12:59:22Z</time>
      </trkpt>
      <trkpt lat="45.25867" lon="5.24211">
        <ele>502.23901367188</ele>
        <time>2009-09-26T12:59:27Z</time>
      </trkpt>
      <trkpt lat="45.25862" lon="5.2419">
        <ele>500.60900878906</ele>
        <time>2009-09-26T12:59:30Z</time>
      </trkpt>
      <trkpt lat="45.25846" lon="5.24156">
        <ele>498.72399902344</ele>
        <time>2009-09-26T12:59:35Z</time>
      </trkpt>
      <trkpt lat="45.25852" lon="5.24111">
        <ele>496.62799072266</ele>
        <time>2009-09-26T12:59:41Z</time>
      </trkpt>
      <trkpt lat="45.25883" lon="5.24045">
        <ele>495.0530090332</ele>
        <time>2009-09-26T12:59:49Z</time>
      </trkpt>
      <trkpt lat="45.25935" lon="5.239">
        <ele>493.22601318359</ele>
        <time>2009-09-26T13:00:04Z</time>
      </trkpt>
      <trkpt lat="45.25954" lon="5.23855">
        <ele>494.63299560547</ele>
        <time>2009-09-26T13:00:09Z</time>
      </trkpt>
      <trkpt lat="45.2598" lon="5.23825">
        <ele>495.52200317383</ele>
        <time>2009-09-26T13:00:14Z</time>
      </trkpt>
      <trkpt lat="45.25998" lon="5.2381">
        <ele>495.07299804688</ele>
        <time>2009-09-26T13:00:17Z</time>
      </trkpt>
      <trkpt lat="45.2602" lon="5.23754">
        <ele>494.39801025391</ele>
        <time>2009-09-26T13:00:23Z</time>
      </trkpt>
      <trkpt lat="45.26017" lon="5.2373">
        <ele>493.89099121094</ele>
        <time>2009-09-26T13:00:25Z</time>
      </trkpt>
      <trkpt lat="45.26002" lon="5.23655">
        <ele>492.49301147461</ele>
        <time>2009-09-26T13:00:31Z</time>
      </trkpt>
      <trkpt lat="45.25992" lon="5.23494">
        <ele>493.31600952148</ele>
        <time>2009-09-26T13:00:44Z</time>
      </trkpt>
      <trkpt lat="45.25991" lon="5.23331">
        <ele>495.18499755859</ele>
        <time>2009-09-26T13:00:58Z</time>
      </trkpt>
      <trkpt lat="45.26002" lon="5.23221">
        <ele>495.82000732422</ele>
        <time>2009-09-26T13:01:08Z</time>
      </trkpt>
      <trkpt lat="45.26046" lon="5.23147">
        <ele>496.50100708008</ele>
        <time>2009-09-26T13:01:20Z</time>
      </trkpt>
      <trkpt lat="45.26092" lon="5.23068">
        <ele>498.72299194336</ele>
        <time>2009-09-26T13:01:34Z</time>
      </trkpt>
      <trkpt lat="45.26095" lon="5.23062">
        <ele>499.01998901367</ele>
        <time>2009-09-26T13:01:35Z</time>
      </trkpt>
      <trkpt lat="45.26136" lon="5.22982">
        <ele>501.5710144043</ele>
        <time>2009-09-26T13:01:49Z</time>
      </trkpt>
      <trkpt lat="45.26186" lon="5.22866">
        <ele>505.49200439453</ele>
        <time>2009-09-26T13:02:08Z</time>
      </trkpt>
      <trkpt lat="45.26221" lon="5.22763">
        <ele>508.78601074219</ele>
        <time>2009-09-26T13:02:23Z</time>
      </trkpt>
      <trkpt lat="45.26238" lon="5.22689">
        <ele>510.37100219727</ele>
        <time>2009-09-26T13:02:34Z</time>
      </trkpt>
      <trkpt lat="45.26278" lon="5.22611">
        <ele>513.30902099609</ele>
        <time>2009-09-26T13:02:47Z</time>
      </trkpt>
      <trkpt lat="45.2632" lon="5.22496">
        <ele>516.89001464844</ele>
        <time>2009-09-26T13:03:04Z</time>
      </trkpt>
      <trkpt lat="45.26352" lon="5.22392">
        <ele>520.27001953125</ele>
        <time>2009-09-26T13:03:19Z</time>
      </trkpt>
      <trkpt lat="45.26399" lon="5.2227">
        <ele>523.85601806641</ele>
        <time>2009-09-26T13:03:37Z</time>
      </trkpt>
      <trkpt lat="45.2646" lon="5.22235">
        <ele>526.34802246094</ele>
        <time>2009-09-26T13:03:49Z</time>
      </trkpt>
      <trkpt lat="45.2651" lon="5.22224">
        <ele>528.63500976562</ele>
        <time>2009-09-26T13:03:58Z</time>
      </trkpt>
      <trkpt lat="45.26533" lon="5.22204">
        <ele>529.29400634766</ele>
        <time>2009-09-26T13:04:03Z</time>
      </trkpt>
      <trkpt lat="45.26545" lon="5.22179">
        <ele>530.21301269531</ele>
        <time>2009-09-26T13:04:07Z</time>
      </trkpt>
      <trkpt lat="45.26551" lon="5.22143">
        <ele>531.708984375</ele>
        <time>2009-09-26T13:04:12Z</time>
      </trkpt>
      <trkpt lat="45.26551" lon="5.22122">
        <ele>532.32702636719</ele>
        <time>2009-09-26T13:04:15Z</time>
      </trkpt>
      <trkpt lat="45.26541" lon="5.22092">
        <ele>533.18200683594</ele>
        <time>2009-09-26T13:04:19Z</time>
      </trkpt>
      <trkpt lat="45.26513" lon="5.22023">
        <ele>534.80297851562</ele>
        <time>2009-09-26T13:04:28Z</time>
      </trkpt>
      <trkpt lat="45.26505" lon="5.21982">
        <ele>536.31896972656</ele>
        <time>2009-09-26T13:04:33Z</time>
      </trkpt>
      <trkpt lat="45.26504" lon="5.21849">
        <ele>538.0419921875</ele>
        <time>2009-09-26T13:04:47Z</time>
      </trkpt>
      <trkpt lat="45.26506" lon="5.21834">
        <ele>539.80499267578</ele>
        <time>2009-09-26T13:04:49Z</time>
      </trkpt>
      <trkpt lat="45.26509" lon="5.21819">
        <ele>540.58599853516</ele>
        <time>2009-09-26T13:04:51Z</time>
      </trkpt>
      <trkpt lat="45.26549" lon="5.21769">
        <ele>543.03198242188</ele>
        <time>2009-09-26T13:05:00Z</time>
      </trkpt>
      <trkpt lat="45.26572" lon="5.21763">
        <ele>543.95697021484</ele>
        <time>2009-09-26T13:05:04Z</time>
      </trkpt>
      <trkpt lat="45.26673" lon="5.21769">
        <ele>548.32000732422</ele>
        <time>2009-09-26T13:05:22Z</time>
      </trkpt>
      <trkpt lat="45.26739" lon="5.21776">
        <ele>550.28802490234</ele>
        <time>2009-09-26T13:05:34Z</time>
      </trkpt>
      <trkpt lat="45.26744" lon="5.21774">
        <ele>550.48498535156</ele>
        <time>2009-09-26T13:05:35Z</time>
      </trkpt>
      <trkpt lat="45.26772" lon="5.21749">
        <ele>552.11700439453</ele>
        <time>2009-09-26T13:05:42Z</time>
      </trkpt>
      <trkpt lat="45.26781" lon="5.21739">
        <ele>552.19299316406</ele>
        <time>2009-09-26T13:05:44Z</time>
      </trkpt>
      <trkpt lat="45.26802" lon="5.2171">
        <ele>553.24102783203</ele>
        <time>2009-09-26T13:05:49Z</time>
      </trkpt>
      <trkpt lat="45.26807" lon="5.21696">
        <ele>553.72100830078</ele>
        <time>2009-09-26T13:05:51Z</time>
      </trkpt>
      <trkpt lat="45.26807" lon="5.21586">
        <ele>556.67797851562</ele>
        <time>2009-09-26T13:06:05Z</time>
      </trkpt>
      <trkpt lat="45.26783" lon="5.21492">
        <ele>559.23602294922</ele>
        <time>2009-09-26T13:06:17Z</time>
      </trkpt>
      <trkpt lat="45.26783" lon="5.21429">
        <ele>561.28399658203</ele>
        <time>2009-09-26T13:06:25Z</time>
      </trkpt>
      <trkpt lat="45.26796" lon="5.21391">
        <ele>562.68200683594</ele>
        <time>2009-09-26T13:06:30Z</time>
      </trkpt>
      <trkpt lat="45.26804" lon="5.21378">
        <ele>563.02502441406</ele>
        <time>2009-09-26T13:06:32Z</time>
      </trkpt>
      <trkpt lat="45.2683" lon="5.21352">
        <ele>563.53698730469</ele>
        <time>2009-09-26T13:06:37Z</time>
      </trkpt>
      <trkpt lat="45.26848" lon="5.21345">
        <ele>564.10400390625</ele>
        <time>2009-09-26T13:06:40Z</time>
      </trkpt>
      <trkpt lat="45.26943" lon="5.21344">
        <ele>568.37097167969</ele>
        <time>2009-09-26T13:06:56Z</time>
      </trkpt>
      <trkpt lat="45.2701" lon="5.21395">
        <ele>569.16400146484</ele>
        <time>2009-09-26T13:07:08Z</time>
      </trkpt>
      <trkpt lat="45.27137" lon="5.21492">
        <ele>569.14697265625</ele>
        <time>2009-09-26T13:07:27Z</time>
      </trkpt>
      <trkpt lat="45.27225" lon="5.21587">
        <ele>567.68499755859</ele>
        <time>2009-09-26T13:07:41Z</time>
      </trkpt>
      <trkpt lat="45.27278" lon="5.21642">
        <ele>565.44897460938</ele>
        <time>2009-09-26T13:07:48Z</time>
      </trkpt>
      <trkpt lat="45.27327" lon="5.21656">
        <ele>563.62799072266</ele>
        <time>2009-09-26T13:07:53Z</time>
      </trkpt>
      <trkpt lat="45.27367" lon="5.21638">
        <ele>562.083984375</ele>
        <time>2009-09-26T13:07:57Z</time>
      </trkpt>
      <trkpt lat="45.27405" lon="5.2161">
        <ele>560.07598876953</ele>
        <time>2009-09-26T13:08:01Z</time>
      </trkpt>
      <trkpt lat="45.27481" lon="5.21553">
        <ele>557.20397949219</ele>
        <time>2009-09-26T13:08:09Z</time>
      </trkpt>
      <trkpt lat="45.27525" lon="5.21554">
        <ele>556.14099121094</ele>
        <time>2009-09-26T13:08:13Z</time>
      </trkpt>
      <trkpt lat="45.27612" lon="5.21591">
        <ele>557.375</ele>
        <time>2009-09-26T13:08:22Z</time>
      </trkpt>
      <trkpt lat="45.27673" lon="5.2157">
        <ele>560.32000732422</ele>
        <time>2009-09-26T13:08:30Z</time>
      </trkpt>
      <trkpt lat="45.27755" lon="5.21483">
        <ele>564.72601318359</ele>
        <time>2009-09-26T13:08:44Z</time>
      </trkpt>
      <trkpt lat="45.27777" lon="5.21435">
        <ele>566.46197509766</ele>
        <time>2009-09-26T13:08:50Z</time>
      </trkpt>
      <trkpt lat="45.27817" lon="5.2136">
        <ele>568.04302978516</ele>
        <time>2009-09-26T13:09:00Z</time>
      </trkpt>
      <trkpt lat="45.27859" lon="5.21339">
        <ele>567.875</ele>
        <time>2009-09-26T13:09:06Z</time>
      </trkpt>
      <trkpt lat="45.28047" lon="5.21326">
        <ele>567.70397949219</ele>
        <time>2009-09-26T13:09:29Z</time>
      </trkpt>
      <trkpt lat="45.28172" lon="5.21298">
        <ele>565.71600341797</ele>
        <time>2009-09-26T13:09:45Z</time>
      </trkpt>
      <trkpt lat="45.28293" lon="5.21261">
        <ele>563.83197021484</ele>
        <time>2009-09-26T13:10:01Z</time>
      </trkpt>
      <trkpt lat="45.28328" lon="5.21254">
        <ele>564.32299804688</ele>
        <time>2009-09-26T13:10:09Z</time>
      </trkpt>
      <trkpt lat="45.28333" lon="5.21251">
        <ele>564.20599365234</ele>
        <time>2009-09-26T13:10:14Z</time>
      </trkpt>
      <trkpt lat="45.28329" lon="5.21238">
        <ele>564.10498046875</ele>
        <time>2009-09-26T13:10:21Z</time>
      </trkpt>
      <trkpt lat="45.28326" lon="5.21218">
        <ele>563.99298095703</ele>
        <time>2009-09-26T13:10:28Z</time>
      </trkpt>
      <trkpt lat="45.28321" lon="5.2116">
        <ele>565.29400634766</ele>
        <time>2009-09-26T13:10:39Z</time>
      </trkpt>
      <trkpt lat="45.28316" lon="5.21094">
        <ele>567.33599853516</ele>
        <time>2009-09-26T13:10:49Z</time>
      </trkpt>
      <trkpt lat="45.28313" lon="5.21069">
        <ele>567.71502685547</ele>
        <time>2009-09-26T13:10:53Z</time>
      </trkpt>
      <trkpt lat="45.28313" lon="5.21037">
        <ele>568.24597167969</ele>
        <time>2009-09-26T13:10:58Z</time>
      </trkpt>
      <trkpt lat="45.28318" lon="5.20992">
        <ele>567.63500976562</ele>
        <time>2009-09-26T13:11:04Z</time>
      </trkpt>
      <trkpt lat="45.28323" lon="5.20959">
        <ele>567.06097412109</ele>
        <time>2009-09-26T13:11:08Z</time>
      </trkpt>
      <trkpt lat="45.28325" lon="5.20941">
        <ele>566.43200683594</ele>
        <time>2009-09-26T13:11:10Z</time>
      </trkpt>
      <trkpt lat="45.28334" lon="5.20881">
        <ele>564.50500488281</ele>
        <time>2009-09-26T13:11:16Z</time>
      </trkpt>
      <trkpt lat="45.28345" lon="5.20797">
        <ele>560.47998046875</ele>
        <time>2009-09-26T13:11:23Z</time>
      </trkpt>
      <trkpt lat="45.28347" lon="5.2077">
        <ele>559.37701416016</ele>
        <time>2009-09-26T13:11:25Z</time>
      </trkpt>
      <trkpt lat="45.28358" lon="5.20702">
        <ele>557.10900878906</ele>
        <time>2009-09-26T13:11:30Z</time>
      </trkpt>
      <trkpt lat="45.28366" lon="5.20643">
        <ele>554.28601074219</ele>
        <time>2009-09-26T13:11:34Z</time>
      </trkpt>
      <trkpt lat="45.28377" lon="5.20567">
        <ele>551.61199951172</ele>
        <time>2009-09-26T13:11:39Z</time>
      </trkpt>
      <trkpt lat="45.28381" lon="5.20538">
        <ele>550.79498291016</ele>
        <time>2009-09-26T13:11:41Z</time>
      </trkpt>
      <trkpt lat="45.28387" lon="5.2051">
        <ele>550.63598632812</ele>
        <time>2009-09-26T13:11:43Z</time>
      </trkpt>
      <trkpt lat="45.284" lon="5.20474">
        <ele>550.40002441406</ele>
        <time>2009-09-26T13:11:46Z</time>
      </trkpt>
      <trkpt lat="45.28448" lon="5.20381">
        <ele>548.3330078125</ele>
        <time>2009-09-26T13:11:55Z</time>
      </trkpt>
      <trkpt lat="45.28458" lon="5.20343">
        <ele>547.29998779297</ele>
        <time>2009-09-26T13:11:58Z</time>
      </trkpt>
      <trkpt lat="45.28461" lon="5.20223">
        <ele>542.42297363281</ele>
        <time>2009-09-26T13:12:06Z</time>
      </trkpt>
      <trkpt lat="45.28444" lon="5.2008">
        <ele>538.31799316406</ele>
        <time>2009-09-26T13:12:15Z</time>
      </trkpt>
      <trkpt lat="45.28434" lon="5.19973">
        <ele>535.88598632812</ele>
        <time>2009-09-26T13:12:22Z</time>
      </trkpt>
      <trkpt lat="45.2841" lon="5.19887">
        <ele>533.26300048828</ele>
        <time>2009-09-26T13:12:28Z</time>
      </trkpt>
      <trkpt lat="45.28407" lon="5.19872">
        <ele>533.02600097656</ele>
        <time>2009-09-26T13:12:29Z</time>
      </trkpt>
      <trkpt lat="45.28403" lon="5.19856">
        <ele>532.7509765625</ele>
        <time>2009-09-26T13:12:30Z</time>
      </trkpt>
      <trkpt lat="45.28416" lon="5.19738">
        <ele>530.44897460938</ele>
        <time>2009-09-26T13:12:38Z</time>
      </trkpt>
      <trkpt lat="45.28415" lon="5.19595">
        <ele>526.78198242188</ele>
        <time>2009-09-26T13:12:48Z</time>
      </trkpt>
      <trkpt lat="45.28448" lon="5.19456">
        <ele>522.80902099609</ele>
        <time>2009-09-26T13:12:58Z</time>
      </trkpt>
      <trkpt lat="45.28478" lon="5.19381">
        <ele>525.36798095703</ele>
        <time>2009-09-26T13:13:05Z</time>
      </trkpt>
      <trkpt lat="45.28485" lon="5.19352">
        <ele>526.16802978516</ele>
        <time>2009-09-26T13:13:08Z</time>
      </trkpt>
      <trkpt lat="45.28472" lon="5.19276">
        <ele>528.72497558594</ele>
        <time>2009-09-26T13:13:17Z</time>
      </trkpt>
      <trkpt lat="45.2844" lon="5.19226">
        <ele>531.06298828125</ele>
        <time>2009-09-26T13:13:25Z</time>
      </trkpt>
      <trkpt lat="45.28431" lon="5.19216">
        <ele>531.32202148438</ele>
        <time>2009-09-26T13:13:27Z</time>
      </trkpt>
      <trkpt lat="45.28387" lon="5.19203">
        <ele>533.05603027344</ele>
        <time>2009-09-26T13:13:34Z</time>
      </trkpt>
      <trkpt lat="45.2838" lon="5.19204">
        <ele>533.36999511719</ele>
        <time>2009-09-26T13:13:35Z</time>
      </trkpt>
      <trkpt lat="45.28341" lon="5.19215">
        <ele>535.00500488281</ele>
        <time>2009-09-26T13:13:41Z</time>
      </trkpt>
      <trkpt lat="45.28312" lon="5.19227">
        <ele>536.11401367188</ele>
        <time>2009-09-26T13:13:45Z</time>
      </trkpt>
      <trkpt lat="45.28292" lon="5.19243">
        <ele>536.90301513672</ele>
        <time>2009-09-26T13:13:48Z</time>
      </trkpt>
      <trkpt lat="45.28246" lon="5.19304">
        <ele>539.0830078125</ele>
        <time>2009-09-26T13:13:58Z</time>
      </trkpt>
      <trkpt lat="45.28242" lon="5.1931">
        <ele>539.41900634766</ele>
        <time>2009-09-26T13:13:59Z</time>
      </trkpt>
      <trkpt lat="45.28204" lon="5.19355">
        <ele>541.28698730469</ele>
        <time>2009-09-26T13:14:07Z</time>
      </trkpt>
      <trkpt lat="45.28173" lon="5.19391">
        <ele>542.21899414062</ele>
        <time>2009-09-26T13:14:14Z</time>
      </trkpt>
      <trkpt lat="45.28146" lon="5.19401">
        <ele>542.69500732422</ele>
        <time>2009-09-26T13:14:19Z</time>
      </trkpt>
      <trkpt lat="45.28116" lon="5.19388">
        <ele>544.51898193359</ele>
        <time>2009-09-26T13:14:25Z</time>
      </trkpt>
      <trkpt lat="45.281" lon="5.19377">
        <ele>545.15997314453</ele>
        <time>2009-09-26T13:14:28Z</time>
      </trkpt>
      <trkpt lat="45.28028" lon="5.19337">
        <ele>548.53900146484</ele>
        <time>2009-09-26T13:14:40Z</time>
      </trkpt>
      <trkpt lat="45.27966" lon="5.19302">
        <ele>548.23498535156</ele>
        <time>2009-09-26T13:14:51Z</time>
      </trkpt>
      <trkpt lat="45.27898" lon="5.1926">
        <ele>544.66302490234</ele>
        <time>2009-09-26T13:15:01Z</time>
      </trkpt>
      <trkpt lat="45.27879" lon="5.19249">
        <ele>543.96301269531</ele>
        <time>2009-09-26T13:15:03Z</time>
      </trkpt>
      <trkpt lat="45.27839" lon="5.19226">
        <ele>542.30999755859</ele>
        <time>2009-09-26T13:15:07Z</time>
      </trkpt>
      <trkpt lat="45.27744" lon="5.19168">
        <ele>543.55102539062</ele>
        <time>2009-09-26T13:15:17Z</time>
      </trkpt>
      <trkpt lat="45.27706" lon="5.19146">
        <ele>545.88201904297</ele>
        <time>2009-09-26T13:15:22Z</time>
      </trkpt>
      <trkpt lat="45.27693" lon="5.19135">
        <ele>547.02502441406</ele>
        <time>2009-09-26T13:15:24Z</time>
      </trkpt>
      <trkpt lat="45.27626" lon="5.19053">
        <ele>548.65802001953</ele>
        <time>2009-09-26T13:15:37Z</time>
      </trkpt>
      <trkpt lat="45.27617" lon="5.1904">
        <ele>548.49499511719</ele>
        <time>2009-09-26T13:15:39Z</time>
      </trkpt>
      <trkpt lat="45.27598" lon="5.19012">
        <ele>547.82501220703</ele>
        <time>2009-09-26T13:15:42Z</time>
      </trkpt>
      <trkpt lat="45.27525" lon="5.18915">
        <ele>546.45001220703</ele>
        <time>2009-09-26T13:15:52Z</time>
      </trkpt>
      <trkpt lat="45.27493" lon="5.18874">
        <ele>545.71899414062</ele>
        <time>2009-09-26T13:15:57Z</time>
      </trkpt>
      <trkpt lat="45.27419" lon="5.1877">
        <ele>544.12799072266</ele>
        <time>2009-09-26T13:16:08Z</time>
      </trkpt>
      <trkpt lat="45.27373" lon="5.18709">
        <ele>542.791015625</ele>
        <time>2009-09-26T13:16:15Z</time>
      </trkpt>
      <trkpt lat="45.27331" lon="5.18654">
        <ele>540.53198242188</ele>
        <time>2009-09-26T13:16:21Z</time>
      </trkpt>
      <trkpt lat="45.27288" lon="5.18597">
        <ele>538.40997314453</ele>
        <time>2009-09-26T13:16:27Z</time>
      </trkpt>
      <trkpt lat="45.27242" lon="5.18556">
        <ele>534.95098876953</ele>
        <time>2009-09-26T13:16:32Z</time>
      </trkpt>
      <trkpt lat="45.27198" lon="5.18547">
        <ele>531.96600341797</ele>
        <time>2009-09-26T13:16:36Z</time>
      </trkpt>
      <trkpt lat="45.27115" lon="5.18565">
        <ele>527.45697021484</ele>
        <time>2009-09-26T13:16:43Z</time>
      </trkpt>
      <trkpt lat="45.27025" lon="5.18544">
        <ele>522.34002685547</ele>
        <time>2009-09-26T13:16:50Z</time>
      </trkpt>
      <trkpt lat="45.27011" lon="5.18544">
        <ele>521.82702636719</ele>
        <time>2009-09-26T13:16:51Z</time>
      </trkpt>
      <trkpt lat="45.26948" lon="5.18517">
        <ele>517.21697998047</ele>
        <time>2009-09-26T13:16:56Z</time>
      </trkpt>
      <trkpt lat="45.26864" lon="5.18481">
        <ele>512.21997070312</ele>
        <time>2009-09-26T13:17:03Z</time>
      </trkpt>
      <trkpt lat="45.26864" lon="5.184">
        <ele>509.73901367188</ele>
        <time>2009-09-26T13:17:08Z</time>
      </trkpt>
      <trkpt lat="45.26867" lon="5.18372">
        <ele>508.17300415039</ele>
        <time>2009-09-26T13:17:10Z</time>
      </trkpt>
      <trkpt lat="45.26871" lon="5.18254">
        <ele>503.61099243164</ele>
        <time>2009-09-26T13:17:17Z</time>
      </trkpt>
      <trkpt lat="45.26831" lon="5.182">
        <ele>500.13198852539</ele>
        <time>2009-09-26T13:17:22Z</time>
      </trkpt>
      <trkpt lat="45.26799" lon="5.18178">
        <ele>500.62399291992</ele>
        <time>2009-09-26T13:17:25Z</time>
      </trkpt>
      <trkpt lat="45.26776" lon="5.18132">
        <ele>502.77499389648</ele>
        <time>2009-09-26T13:17:30Z</time>
      </trkpt>
      <trkpt lat="45.26773" lon="5.18121">
        <ele>503.03100585938</ele>
        <time>2009-09-26T13:17:31Z</time>
      </trkpt>
      <trkpt lat="45.26769" lon="5.18081">
        <ele>505.28500366211</ele>
        <time>2009-09-26T13:17:35Z</time>
      </trkpt>
      <trkpt lat="45.26769" lon="5.18062">
        <ele>505.79800415039</ele>
        <time>2009-09-26T13:17:37Z</time>
      </trkpt>
      <trkpt lat="45.26769" lon="5.18053">
        <ele>506.27700805664</ele>
        <time>2009-09-26T13:17:38Z</time>
      </trkpt>
      <trkpt lat="45.26768" lon="5.18039">
        <ele>506.97399902344</ele>
        <time>2009-09-26T13:17:40Z</time>
      </trkpt>
      <trkpt lat="45.26768" lon="5.18012">
        <ele>507.76000976562</ele>
        <time>2009-09-26T13:17:44Z</time>
      </trkpt>
      <trkpt lat="45.26768" lon="5.18004">
        <ele>507.92401123047</ele>
        <time>2009-09-26T13:17:45Z</time>
      </trkpt>
      <trkpt lat="45.26757" lon="5.17971">
        <ele>509.9460144043</ele>
        <time>2009-09-26T13:17:50Z</time>
      </trkpt>
      <trkpt lat="45.26751" lon="5.17962">
        <ele>510.72299194336</ele>
        <time>2009-09-26T13:17:52Z</time>
      </trkpt>
      <trkpt lat="45.26724" lon="5.1794">
        <ele>512.68597412109</ele>
        <time>2009-09-26T13:17:58Z</time>
      </trkpt>
      <trkpt lat="45.26699" lon="5.17929">
        <ele>514.10900878906</ele>
        <time>2009-09-26T13:18:03Z</time>
      </trkpt>
      <trkpt lat="45.26671" lon="5.17915">
        <ele>515.15899658203</ele>
        <time>2009-09-26T13:18:08Z</time>
      </trkpt>
      <trkpt lat="45.26643" lon="5.17886">
        <ele>517.08197021484</ele>
        <time>2009-09-26T13:18:13Z</time>
      </trkpt>
      <trkpt lat="45.26614" lon="5.17848">
        <ele>519.05200195312</ele>
        <time>2009-09-26T13:18:19Z</time>
      </trkpt>
      <trkpt lat="45.26585" lon="5.1781">
        <ele>521.16302490234</ele>
        <time>2009-09-26T13:18:24Z</time>
      </trkpt>
      <trkpt lat="45.26551" lon="5.17766">
        <ele>524.5830078125</ele>
        <time>2009-09-26T13:18:30Z</time>
      </trkpt>
      <trkpt lat="45.26501" lon="5.17702">
        <ele>526.7490234375</ele>
        <time>2009-09-26T13:18:42Z</time>
      </trkpt>
      <trkpt lat="45.26445" lon="5.17633">
        <ele>528.82202148438</ele>
        <time>2009-09-26T13:18:55Z</time>
      </trkpt>
      <trkpt lat="45.26431" lon="5.17615">
        <ele>529.46899414062</ele>
        <time>2009-09-26T13:18:58Z</time>
      </trkpt>
      <trkpt lat="45.2642" lon="5.17602">
        <ele>530.51098632812</ele>
        <time>2009-09-26T13:19:00Z</time>
      </trkpt>
      <trkpt lat="45.26359" lon="5.17528">
        <ele>531.96002197266</ele>
        <time>2009-09-26T13:19:14Z</time>
      </trkpt>
      <trkpt lat="45.26347" lon="5.17513">
        <ele>531.93902587891</ele>
        <time>2009-09-26T13:19:17Z</time>
      </trkpt>
      <trkpt lat="45.26328" lon="5.1749">
        <ele>531.63702392578</ele>
        <time>2009-09-26T13:19:22Z</time>
      </trkpt>
      <trkpt lat="45.26308" lon="5.17464">
        <ele>531.51702880859</ele>
        <time>2009-09-26T13:19:28Z</time>
      </trkpt>
      <trkpt lat="45.26294" lon="5.17449">
        <ele>531.00201416016</ele>
        <time>2009-09-26T13:19:34Z</time>
      </trkpt>
      <trkpt lat="45.26287" lon="5.17438">
        <ele>530.78002929688</ele>
        <time>2009-09-26T13:19:38Z</time>
      </trkpt>
      <trkpt lat="45.26276" lon="5.17424">
        <ele>530.09301757812</ele>
        <time>2009-09-26T13:19:43Z</time>
      </trkpt>
      <trkpt lat="45.26256" lon="5.17398">
        <ele>528.87902832031</ele>
        <time>2009-09-26T13:19:51Z</time>
      </trkpt>
      <trkpt lat="45.2625" lon="5.17386">
        <ele>528.43701171875</ele>
        <time>2009-09-26T13:19:54Z</time>
      </trkpt>
      <trkpt lat="45.26233" lon="5.17345">
        <ele>526.28100585938</ele>
        <time>2009-09-26T13:20:00Z</time>
      </trkpt>
      <trkpt lat="45.26231" lon="5.17336">
        <ele>525.60699462891</ele>
        <time>2009-09-26T13:20:01Z</time>
      </trkpt>
      <trkpt lat="45.26211" lon="5.17303">
        <ele>523.81896972656</ele>
        <time>2009-09-26T13:20:05Z</time>
      </trkpt>
      <trkpt lat="45.26164" lon="5.17261">
        <ele>520.333984375</ele>
        <time>2009-09-26T13:20:11Z</time>
      </trkpt>
      <trkpt lat="45.26079" lon="5.17233">
        <ele>516.10601806641</ele>
        <time>2009-09-26T13:20:19Z</time>
      </trkpt>
      <trkpt lat="45.26056" lon="5.17223">
        <ele>514.43902587891</ele>
        <time>2009-09-26T13:20:21Z</time>
      </trkpt>
      <trkpt lat="45.26013" lon="5.17142">
        <ele>508.22399902344</ele>
        <time>2009-09-26T13:20:27Z</time>
      </trkpt>
      <trkpt lat="45.26016" lon="5.17107">
        <ele>506.38400268555</ele>
        <time>2009-09-26T13:20:29Z</time>
      </trkpt>
      <trkpt lat="45.26023" lon="5.17072">
        <ele>505.18600463867</ele>
        <time>2009-09-26T13:20:31Z</time>
      </trkpt>
      <trkpt lat="45.26019" lon="5.16984">
        <ele>501.68798828125</ele>
        <time>2009-09-26T13:20:36Z</time>
      </trkpt>
      <trkpt lat="45.26031" lon="5.168">
        <ele>493.86801147461</ele>
        <time>2009-09-26T13:20:46Z</time>
      </trkpt>
      <trkpt lat="45.26042" lon="5.16766">
        <ele>492.59201049805</ele>
        <time>2009-09-26T13:20:48Z</time>
      </trkpt>
      <trkpt lat="45.26039" lon="5.16675">
        <ele>488.60101318359</ele>
        <time>2009-09-26T13:20:53Z</time>
      </trkpt>
      <trkpt lat="45.26012" lon="5.16546">
        <ele>483.56500244141</ele>
        <time>2009-09-26T13:21:00Z</time>
      </trkpt>
      <trkpt lat="45.25985" lon="5.16457">
        <ele>478.67300415039</ele>
        <time>2009-09-26T13:21:05Z</time>
      </trkpt>
      <trkpt lat="45.25938" lon="5.16407">
        <ele>475.69400024414</ele>
        <time>2009-09-26T13:21:09Z</time>
      </trkpt>
      <trkpt lat="45.25887" lon="5.16421">
        <ele>472.24398803711</ele>
        <time>2009-09-26T13:21:13Z</time>
      </trkpt>
      <trkpt lat="45.2588" lon="5.16438">
        <ele>471.98599243164</ele>
        <time>2009-09-26T13:21:14Z</time>
      </trkpt>
      <trkpt lat="45.25877" lon="5.16457">
        <ele>470.68099975586</ele>
        <time>2009-09-26T13:21:15Z</time>
      </trkpt>
      <trkpt lat="45.25863" lon="5.16552">
        <ele>466.14001464844</ele>
        <time>2009-09-26T13:21:20Z</time>
      </trkpt>
      <trkpt lat="45.25856" lon="5.16609">
        <ele>464.02099609375</ele>
        <time>2009-09-26T13:21:23Z</time>
      </trkpt>
      <trkpt lat="45.25851" lon="5.16647">
        <ele>462.6789855957</ele>
        <time>2009-09-26T13:21:25Z</time>
      </trkpt>
      <trkpt lat="45.25822" lon="5.16778">
        <ele>456.88198852539</ele>
        <time>2009-09-26T13:21:32Z</time>
      </trkpt>
      <trkpt lat="45.25819" lon="5.16857">
        <ele>454.18301391602</ele>
        <time>2009-09-26T13:21:36Z</time>
      </trkpt>
      <trkpt lat="45.25835" lon="5.16977">
        <ele>449.9289855957</ele>
        <time>2009-09-26T13:21:42Z</time>
      </trkpt>
      <trkpt lat="45.25819" lon="5.1714">
        <ele>443.59799194336</ele>
        <time>2009-09-26T13:21:50Z</time>
      </trkpt>
      <trkpt lat="45.25818" lon="5.17161">
        <ele>443.24499511719</ele>
        <time>2009-09-26T13:21:51Z</time>
      </trkpt>
      <trkpt lat="45.25806" lon="5.1722">
        <ele>441.63101196289</ele>
        <time>2009-09-26T13:21:54Z</time>
      </trkpt>
      <trkpt lat="45.25746" lon="5.1731">
        <ele>436.37399291992</ele>
        <time>2009-09-26T13:22:00Z</time>
      </trkpt>
      <trkpt lat="45.25704" lon="5.17323">
        <ele>434.80801391602</ele>
        <time>2009-09-26T13:22:03Z</time>
      </trkpt>
      <trkpt lat="45.25674" lon="5.17318">
        <ele>433.82699584961</ele>
        <time>2009-09-26T13:22:09Z</time>
      </trkpt>
      <trkpt lat="45.25664" lon="5.17308">
        <ele>433.47399902344</ele>
        <time>2009-09-26T13:22:17Z</time>
      </trkpt>
      <trkpt lat="45.25659" lon="5.17311">
        <ele>432.81201171875</ele>
        <time>2009-09-26T13:22:31Z</time>
      </trkpt>
      <trkpt lat="45.25617" lon="5.1727">
        <ele>431.50900268555</ele>
        <time>2009-09-26T13:22:42Z</time>
      </trkpt>
      <trkpt lat="45.25597" lon="5.17247">
        <ele>431.26901245117</ele>
        <time>2009-09-26T13:22:46Z</time>
      </trkpt>
      <trkpt lat="45.25585" lon="5.17228">
        <ele>431.98300170898</ele>
        <time>2009-09-26T13:22:49Z</time>
      </trkpt>
      <trkpt lat="45.25549" lon="5.17157">
        <ele>430.89599609375</ele>
        <time>2009-09-26T13:23:00Z</time>
      </trkpt>
      <trkpt lat="45.25516" lon="5.17133">
        <ele>430.82800292969</ele>
        <time>2009-09-26T13:23:05Z</time>
      </trkpt>
      <trkpt lat="45.25444" lon="5.17129">
        <ele>432.71701049805</ele>
        <time>2009-09-26T13:23:18Z</time>
      </trkpt>
      <trkpt lat="45.25439" lon="5.17129">
        <ele>432.6780090332</ele>
        <time>2009-09-26T13:23:19Z</time>
      </trkpt>
      <trkpt lat="45.2543" lon="5.17129">
        <ele>433.29598999023</ele>
        <time>2009-09-26T13:23:21Z</time>
      </trkpt>
      <trkpt lat="45.25401" lon="5.17109">
        <ele>435.57000732422</ele>
        <time>2009-09-26T13:23:31Z</time>
      </trkpt>
      <trkpt lat="45.25401" lon="5.17107">
        <ele>435.63400268555</ele>
        <time>2009-09-26T13:23:34Z</time>
      </trkpt>
      <trkpt lat="45.25403" lon="5.17098">
        <ele>435.71499633789</ele>
        <time>2009-09-26T13:23:44Z</time>
      </trkpt>
      <trkpt lat="45.25407" lon="5.17095">
        <ele>435.52499389648</ele>
        <time>2009-09-26T13:24:16Z</time>
      </trkpt>
      <trkpt lat="45.25408" lon="5.17096">
        <ele>435.52301025391</ele>
        <time>2009-09-26T13:24:19Z</time>
      </trkpt>
      <trkpt lat="45.25405" lon="5.17101">
        <ele>435.72900390625</ele>
        <time>2009-09-26T13:27:03Z</time>
      </trkpt>
      <trkpt lat="45.25402" lon="5.17106">
        <ele>435.92401123047</ele>
        <time>2009-09-26T13:27:10Z</time>
      </trkpt>
      <trkpt lat="45.25397" lon="5.171">
        <ele>435.95999145508</ele>
        <time>2009-09-26T13:27:21Z</time>
      </trkpt>
      <trkpt lat="45.25373" lon="5.17065">
        <ele>437.93099975586</ele>
        <time>2009-09-26T13:27:34Z</time>
      </trkpt>
      <trkpt lat="45.2536" lon="5.17045">
        <ele>438.94100952148</ele>
        <time>2009-09-26T13:27:40Z</time>
      </trkpt>
      <trkpt lat="45.25338" lon="5.16995">
        <ele>441.30999755859</ele>
        <time>2009-09-26T13:27:52Z</time>
      </trkpt>
      <trkpt lat="45.2533" lon="5.16948">
        <ele>443.16400146484</ele>
        <time>2009-09-26T13:28:01Z</time>
      </trkpt>
      <trkpt lat="45.25325" lon="5.16898">
        <ele>445.23999023438</ele>
        <time>2009-09-26T13:28:10Z</time>
      </trkpt>
      <trkpt lat="45.25309" lon="5.16829">
        <ele>447.97198486328</ele>
        <time>2009-09-26T13:28:23Z</time>
      </trkpt>
      <trkpt lat="45.25277" lon="5.16752">
        <ele>451.20401000977</ele>
        <time>2009-09-26T13:28:39Z</time>
      </trkpt>
      <trkpt lat="45.25241" lon="5.16667">
        <ele>455.07000732422</ele>
        <time>2009-09-26T13:28:56Z</time>
      </trkpt>
      <trkpt lat="45.25198" lon="5.16572">
        <ele>459.94500732422</ele>
        <time>2009-09-26T13:29:15Z</time>
      </trkpt>
      <trkpt lat="45.25147" lon="5.16507">
        <ele>463.67999267578</ele>
        <time>2009-09-26T13:29:32Z</time>
      </trkpt>
      <trkpt lat="45.25144" lon="5.16486">
        <ele>464.64498901367</ele>
        <time>2009-09-26T13:29:36Z</time>
      </trkpt>
      <trkpt lat="45.25151" lon="5.16458">
        <ele>465.77398681641</ele>
        <time>2009-09-26T13:29:41Z</time>
      </trkpt>
      <trkpt lat="45.25159" lon="5.16444">
        <ele>466.72601318359</ele>
        <time>2009-09-26T13:29:44Z</time>
      </trkpt>
      <trkpt lat="45.25182" lon="5.1641">
        <ele>468.4169921875</ele>
        <time>2009-09-26T13:29:52Z</time>
      </trkpt>
      <trkpt lat="45.25188" lon="5.16393">
        <ele>469.17401123047</ele>
        <time>2009-09-26T13:29:55Z</time>
      </trkpt>
      <trkpt lat="45.25199" lon="5.16322">
        <ele>472.22399902344</ele>
        <time>2009-09-26T13:30:07Z</time>
      </trkpt>
      <trkpt lat="45.25201" lon="5.1625">
        <ele>474.89700317383</ele>
        <time>2009-09-26T13:30:19Z</time>
      </trkpt>
      <trkpt lat="45.25168" lon="5.16156">
        <ele>479.11898803711</ele>
        <time>2009-09-26T13:30:36Z</time>
      </trkpt>
      <trkpt lat="45.25144" lon="5.1612">
        <ele>481.04998779297</ele>
        <time>2009-09-26T13:30:44Z</time>
      </trkpt>
      <trkpt lat="45.25077" lon="5.16066">
        <ele>485.33099365234</ele>
        <time>2009-09-26T13:31:02Z</time>
      </trkpt>
      <trkpt lat="45.2504" lon="5.1604">
        <ele>487.62399291992</ele>
        <time>2009-09-26T13:31:11Z</time>
      </trkpt>
      <trkpt lat="45.25017" lon="5.16039">
        <ele>488.82998657227</ele>
        <time>2009-09-26T13:31:16Z</time>
      </trkpt>
      <trkpt lat="45.24987" lon="5.16053">
        <ele>490.63198852539</ele>
        <time>2009-09-26T13:31:23Z</time>
      </trkpt>
      <trkpt lat="45.24969" lon="5.16059">
        <ele>491.3869934082</ele>
        <time>2009-09-26T13:31:27Z</time>
      </trkpt>
      <trkpt lat="45.24952" lon="5.16056">
        <ele>492.81600952148</ele>
        <time>2009-09-26T13:31:31Z</time>
      </trkpt>
      <trkpt lat="45.2494" lon="5.16048">
        <ele>493.50399780273</ele>
        <time>2009-09-26T13:31:34Z</time>
      </trkpt>
      <trkpt lat="45.2491" lon="5.16039">
        <ele>495.3219909668</ele>
        <time>2009-09-26T13:31:41Z</time>
      </trkpt>
      <trkpt lat="45.24902" lon="5.16035">
        <ele>495.73001098633</ele>
        <time>2009-09-26T13:31:43Z</time>
      </trkpt>
      <trkpt lat="45.24884" lon="5.16002">
        <ele>497.79699707031</ele>
        <time>2009-09-26T13:31:50Z</time>
      </trkpt>
      <trkpt lat="45.24884" lon="5.1597">
        <ele>498.85598754883</ele>
        <time>2009-09-26T13:31:55Z</time>
      </trkpt>
      <trkpt lat="45.24894" lon="5.15924">
        <ele>501.46600341797</ele>
        <time>2009-09-26T13:32:03Z</time>
      </trkpt>
      <trkpt lat="45.24895" lon="5.15896">
        <ele>502.41000366211</ele>
        <time>2009-09-26T13:32:07Z</time>
      </trkpt>
      <trkpt lat="45.24895" lon="5.15865">
        <ele>503.65701293945</ele>
        <time>2009-09-26T13:32:12Z</time>
      </trkpt>
      <trkpt lat="45.24892" lon="5.15828">
        <ele>504.81900024414</ele>
        <time>2009-09-26T13:32:17Z</time>
      </trkpt>
      <trkpt lat="45.24898" lon="5.15783">
        <ele>506.80999755859</ele>
        <time>2009-09-26T13:32:24Z</time>
      </trkpt>
      <trkpt lat="45.2491" lon="5.15747">
        <ele>508.4169921875</ele>
        <time>2009-09-26T13:32:30Z</time>
      </trkpt>
      <trkpt lat="45.24915" lon="5.15734">
        <ele>508.98699951172</ele>
        <time>2009-09-26T13:32:32Z</time>
      </trkpt>
      <trkpt lat="45.24933" lon="5.15681">
        <ele>511.0710144043</ele>
        <time>2009-09-26T13:32:40Z</time>
      </trkpt>
      <trkpt lat="45.24921" lon="5.15616">
        <ele>513.5</ele>
        <time>2009-09-26T13:32:49Z</time>
      </trkpt>
      <trkpt lat="45.24903" lon="5.15612">
        <ele>514.74499511719</ele>
        <time>2009-09-26T13:32:52Z</time>
      </trkpt>
      <trkpt lat="45.24886" lon="5.15615">
        <ele>516.11999511719</ele>
        <time>2009-09-26T13:32:55Z</time>
      </trkpt>
      <trkpt lat="45.24792" lon="5.15646">
        <ele>521.25500488281</ele>
        <time>2009-09-26T13:33:11Z</time>
      </trkpt>
      <trkpt lat="45.24733" lon="5.1568">
        <ele>524.28497314453</ele>
        <time>2009-09-26T13:33:21Z</time>
      </trkpt>
      <trkpt lat="45.24687" lon="5.15711">
        <ele>526.44201660156</ele>
        <time>2009-09-26T13:33:29Z</time>
      </trkpt>
      <trkpt lat="45.24598" lon="5.15772">
        <ele>530.26098632812</ele>
        <time>2009-09-26T13:33:45Z</time>
      </trkpt>
      <trkpt lat="45.24528" lon="5.1582">
        <ele>527.8759765625</ele>
        <time>2009-09-26T13:34:00Z</time>
      </trkpt>
      <trkpt lat="45.24471" lon="5.15857">
        <ele>525.70001220703</ele>
        <time>2009-09-26T13:34:10Z</time>
      </trkpt>
      <trkpt lat="45.24447" lon="5.15868">
        <ele>524.82299804688</ele>
        <time>2009-09-26T13:34:16Z</time>
      </trkpt>
      <trkpt lat="45.24426" lon="5.15872">
        <ele>524.05200195312</ele>
        <time>2009-09-26T13:34:24Z</time>
      </trkpt>
      <trkpt lat="45.2442" lon="5.15871">
        <ele>524.0419921875</ele>
        <time>2009-09-26T13:34:28Z</time>
      </trkpt>
      <trkpt lat="45.24414" lon="5.15862">
        <ele>524.03601074219</ele>
        <time>2009-09-26T13:34:33Z</time>
      </trkpt>
      <trkpt lat="45.24396" lon="5.15842">
        <ele>524.09600830078</ele>
        <time>2009-09-26T13:34:41Z</time>
      </trkpt>
      <trkpt lat="45.2434" lon="5.15782">
        <ele>523.89599609375</ele>
        <time>2009-09-26T13:34:56Z</time>
      </trkpt>
      <trkpt lat="45.24288" lon="5.15724">
        <ele>524.13897705078</ele>
        <time>2009-09-26T13:35:07Z</time>
      </trkpt>
      <trkpt lat="45.24237" lon="5.15611">
        <ele>524.27600097656</ele>
        <time>2009-09-26T13:35:21Z</time>
      </trkpt>
      <trkpt lat="45.24163" lon="5.1551">
        <ele>524.37298583984</ele>
        <time>2009-09-26T13:35:36Z</time>
      </trkpt>
      <trkpt lat="45.24082" lon="5.15404">
        <ele>524.39898681641</ele>
        <time>2009-09-26T13:35:52Z</time>
      </trkpt>
      <trkpt lat="45.23973" lon="5.15268">
        <ele>524.18902587891</ele>
        <time>2009-09-26T13:36:13Z</time>
      </trkpt>
      <trkpt lat="45.23876" lon="5.15141">
        <ele>522.51898193359</ele>
        <time>2009-09-26T13:36:31Z</time>
      </trkpt>
      <trkpt lat="45.23796" lon="5.15037">
        <ele>521.09497070312</ele>
        <time>2009-09-26T13:36:45Z</time>
      </trkpt>
      <trkpt lat="45.23733" lon="5.14904">
        <ele>521.19201660156</ele>
        <time>2009-09-26T13:37:00Z</time>
      </trkpt>
      <trkpt lat="45.23687" lon="5.14772">
        <ele>522.80902099609</ele>
        <time>2009-09-26T13:37:15Z</time>
      </trkpt>
      <trkpt lat="45.23648" lon="5.14673">
        <ele>522.57000732422</ele>
        <time>2009-09-26T13:37:27Z</time>
      </trkpt>
      <trkpt lat="45.23569" lon="5.14544">
        <ele>523.26898193359</ele>
        <time>2009-09-26T13:37:43Z</time>
      </trkpt>
      <trkpt lat="45.23468" lon="5.14383">
        <ele>522.34002685547</ele>
        <time>2009-09-26T13:38:02Z</time>
      </trkpt>
      <trkpt lat="45.23373" lon="5.14225">
        <ele>520.77301025391</ele>
        <time>2009-09-26T13:38:21Z</time>
      </trkpt>
      <trkpt lat="45.23361" lon="5.14205">
        <ele>519.99401855469</ele>
        <time>2009-09-26T13:38:23Z</time>
      </trkpt>
      <trkpt lat="45.23325" lon="5.14142">
        <ele>517.416015625</ele>
        <time>2009-09-26T13:38:29Z</time>
      </trkpt>
      <trkpt lat="45.23283" lon="5.1407">
        <ele>514.79302978516</ele>
        <time>2009-09-26T13:38:36Z</time>
      </trkpt>
      <trkpt lat="45.23233" lon="5.1399">
        <ele>513.80102539062</ele>
        <time>2009-09-26T13:38:45Z</time>
      </trkpt>
      <trkpt lat="45.23177" lon="5.13949">
        <ele>513.11102294922</ele>
        <time>2009-09-26T13:38:52Z</time>
      </trkpt>
      <trkpt lat="45.23114" lon="5.13895">
        <ele>513.03399658203</ele>
        <time>2009-09-26T13:39:00Z</time>
      </trkpt>
      <trkpt lat="45.23073" lon="5.13859">
        <ele>513.88702392578</ele>
        <time>2009-09-26T13:39:06Z</time>
      </trkpt>
      <trkpt lat="45.23023" lon="5.13829">
        <ele>513.87200927734</ele>
        <time>2009-09-26T13:39:13Z</time>
      </trkpt>
      <trkpt lat="45.2299" lon="5.138">
        <ele>513.85302734375</ele>
        <time>2009-09-26T13:39:18Z</time>
      </trkpt>
      <trkpt lat="45.22966" lon="5.13762">
        <ele>514.79498291016</ele>
        <time>2009-09-26T13:39:23Z</time>
      </trkpt>
      <trkpt lat="45.22916" lon="5.1366">
        <ele>516.17901611328</ele>
        <time>2009-09-26T13:39:36Z</time>
      </trkpt>
      <trkpt lat="45.22852" lon="5.1359">
        <ele>518.49200439453</ele>
        <time>2009-09-26T13:39:49Z</time>
      </trkpt>
      <trkpt lat="45.2282" lon="5.13516">
        <ele>517.54302978516</ele>
        <time>2009-09-26T13:39:59Z</time>
      </trkpt>
      <trkpt lat="45.22802" lon="5.13491">
        <ele>516.97601318359</ele>
        <time>2009-09-26T13:40:03Z</time>
      </trkpt>
      <trkpt lat="45.22684" lon="5.13389">
        <ele>514.35797119141</ele>
        <time>2009-09-26T13:40:20Z</time>
      </trkpt>
      <trkpt lat="45.22627" lon="5.13338">
        <ele>511.98699951172</ele>
        <time>2009-09-26T13:40:28Z</time>
      </trkpt>
      <trkpt lat="45.22611" lon="5.13325">
        <ele>511.35800170898</ele>
        <time>2009-09-26T13:40:30Z</time>
      </trkpt>
      <trkpt lat="45.22587" lon="5.13303">
        <ele>509.77801513672</ele>
        <time>2009-09-26T13:40:33Z</time>
      </trkpt>
      <trkpt lat="45.22536" lon="5.13259">
        <ele>507.60198974609</ele>
        <time>2009-09-26T13:40:39Z</time>
      </trkpt>
      <trkpt lat="45.22482" lon="5.1323">
        <ele>507.3630065918</ele>
        <time>2009-09-26T13:40:45Z</time>
      </trkpt>
      <trkpt lat="45.22416" lon="5.13196">
        <ele>506.40701293945</ele>
        <time>2009-09-26T13:40:53Z</time>
      </trkpt>
      <trkpt lat="45.22401" lon="5.13154">
        <ele>507.6369934082</ele>
        <time>2009-09-26T13:41:00Z</time>
      </trkpt>
      <trkpt lat="45.22398" lon="5.13119">
        <ele>508.51098632812</ele>
        <time>2009-09-26T13:41:05Z</time>
      </trkpt>
      <trkpt lat="45.22403" lon="5.1309">
        <ele>509.10598754883</ele>
        <time>2009-09-26T13:41:09Z</time>
      </trkpt>
      <trkpt lat="45.22383" lon="5.13028">
        <ele>510.10101318359</ele>
        <time>2009-09-26T13:41:18Z</time>
      </trkpt>
      <trkpt lat="45.22367" lon="5.13018">
        <ele>510.39801025391</ele>
        <time>2009-09-26T13:41:21Z</time>
      </trkpt>
      <trkpt lat="45.22329" lon="5.13009">
        <ele>510.63800048828</ele>
        <time>2009-09-26T13:41:27Z</time>
      </trkpt>
      <trkpt lat="45.22296" lon="5.13001">
        <ele>509.54000854492</ele>
        <time>2009-09-26T13:41:32Z</time>
      </trkpt>
      <trkpt lat="45.22223" lon="5.12946">
        <ele>507.3030090332</ele>
        <time>2009-09-26T13:41:44Z</time>
      </trkpt>
      <trkpt lat="45.22204" lon="5.1293">
        <ele>506.63800048828</ele>
        <time>2009-09-26T13:41:47Z</time>
      </trkpt>
      <trkpt lat="45.22158" lon="5.12896">
        <ele>504.9460144043</ele>
        <time>2009-09-26T13:41:54Z</time>
      </trkpt>
      <trkpt lat="45.22107" lon="5.12813">
        <ele>498.69799804688</ele>
        <time>2009-09-26T13:42:02Z</time>
      </trkpt>
      <trkpt lat="45.22092" lon="5.1275">
        <ele>494.75201416016</ele>
        <time>2009-09-26T13:42:06Z</time>
      </trkpt>
      <trkpt lat="45.22083" lon="5.127">
        <ele>490.61898803711</ele>
        <time>2009-09-26T13:42:09Z</time>
      </trkpt>
      <trkpt lat="45.22081" lon="5.12554">
        <ele>482.17700195312</ele>
        <time>2009-09-26T13:42:17Z</time>
      </trkpt>
      <trkpt lat="45.22059" lon="5.12485">
        <ele>477.54299926758</ele>
        <time>2009-09-26T13:42:21Z</time>
      </trkpt>
      <trkpt lat="45.22038" lon="5.12436">
        <ele>474.14599609375</ele>
        <time>2009-09-26T13:42:24Z</time>
      </trkpt>
      <trkpt lat="45.22021" lon="5.1228">
        <ele>466.46798706055</ele>
        <time>2009-09-26T13:42:32Z</time>
      </trkpt>
      <trkpt lat="45.22053" lon="5.12084">
        <ele>452.7380065918</ele>
        <time>2009-09-26T13:42:42Z</time>
      </trkpt>
      <trkpt lat="45.2206" lon="5.12045">
        <ele>451.37701416016</ele>
        <time>2009-09-26T13:42:44Z</time>
      </trkpt>
      <trkpt lat="45.2207" lon="5.11986">
        <ele>448.98400878906</ele>
        <time>2009-09-26T13:42:47Z</time>
      </trkpt>
      <trkpt lat="45.22081" lon="5.11927">
        <ele>446.50201416016</ele>
        <time>2009-09-26T13:42:50Z</time>
      </trkpt>
      <trkpt lat="45.22125" lon="5.11735">
        <ele>436.32400512695</ele>
        <time>2009-09-26T13:43:00Z</time>
      </trkpt>
      <trkpt lat="45.22175" lon="5.1157">
        <ele>427.60198974609</ele>
        <time>2009-09-26T13:43:08Z</time>
      </trkpt>
      <trkpt lat="45.22235" lon="5.115">
        <ele>421.01000976562</ele>
        <time>2009-09-26T13:43:13Z</time>
      </trkpt>
      <trkpt lat="45.22264" lon="5.11486">
        <ele>419.03201293945</ele>
        <time>2009-09-26T13:43:15Z</time>
      </trkpt>
      <trkpt lat="45.22303" lon="5.11387">
        <ele>417.61599731445</ele>
        <time>2009-09-26T13:43:21Z</time>
      </trkpt>
      <trkpt lat="45.22275" lon="5.11338">
        <ele>421.98699951172</ele>
        <time>2009-09-26T13:43:25Z</time>
      </trkpt>
      <trkpt lat="45.22223" lon="5.11274">
        <ele>424.22698974609</ele>
        <time>2009-09-26T13:43:36Z</time>
      </trkpt>
      <trkpt lat="45.22176" lon="5.11185">
        <ele>423.6549987793</ele>
        <time>2009-09-26T13:43:49Z</time>
      </trkpt>
      <trkpt lat="45.22151" lon="5.11121">
        <ele>424.18798828125</ele>
        <time>2009-09-26T13:43:57Z</time>
      </trkpt>
      <trkpt lat="45.22142" lon="5.11097">
        <ele>424.66400146484</ele>
        <time>2009-09-26T13:44:00Z</time>
      </trkpt>
      <trkpt lat="45.22116" lon="5.1101">
        <ele>424.20401000977</ele>
        <time>2009-09-26T13:44:10Z</time>
      </trkpt>
      <trkpt lat="45.22079" lon="5.10836">
        <ele>421.41101074219</ele>
        <time>2009-09-26T13:44:27Z</time>
      </trkpt>
      <trkpt lat="45.22052" lon="5.1069">
        <ele>419.73901367188</ele>
        <time>2009-09-26T13:44:40Z</time>
      </trkpt>
      <trkpt lat="45.22019" lon="5.10572">
        <ele>416.90798950195</ele>
        <time>2009-09-26T13:44:50Z</time>
      </trkpt>
      <trkpt lat="45.21965" lon="5.10402">
        <ele>414.9700012207</ele>
        <time>2009-09-26T13:45:05Z</time>
      </trkpt>
      <trkpt lat="45.21943" lon="5.1033">
        <ele>411.08401489258</ele>
        <time>2009-09-26T13:45:11Z</time>
      </trkpt>
      <trkpt lat="45.21915" lon="5.10236">
        <ele>407.66500854492</ele>
        <time>2009-09-26T13:45:18Z</time>
      </trkpt>
      <trkpt lat="45.21906" lon="5.10112">
        <ele>406.39898681641</ele>
        <time>2009-09-26T13:45:27Z</time>
      </trkpt>
      <trkpt lat="45.21906" lon="5.10085">
        <ele>405.69799804688</ele>
        <time>2009-09-26T13:45:29Z</time>
      </trkpt>
      <trkpt lat="45.21906" lon="5.10019">
        <ele>403.81201171875</ele>
        <time>2009-09-26T13:45:34Z</time>
      </trkpt>
      <trkpt lat="45.21899" lon="5.09895">
        <ele>400.19400024414</ele>
        <time>2009-09-26T13:45:43Z</time>
      </trkpt>
      <trkpt lat="45.21899" lon="5.09767">
        <ele>398.28500366211</ele>
        <time>2009-09-26T13:45:52Z</time>
      </trkpt>
      <trkpt lat="45.21904" lon="5.09654">
        <ele>394.17498779297</ele>
        <time>2009-09-26T13:46:00Z</time>
      </trkpt>
      <trkpt lat="45.21904" lon="5.0961">
        <ele>392.60501098633</ele>
        <time>2009-09-26T13:46:03Z</time>
      </trkpt>
      <trkpt lat="45.21912" lon="5.09552">
        <ele>390.36499023438</ele>
        <time>2009-09-26T13:46:07Z</time>
      </trkpt>
      <trkpt lat="45.21922" lon="5.09491">
        <ele>387.31399536133</ele>
        <time>2009-09-26T13:46:11Z</time>
      </trkpt>
      <trkpt lat="45.21941" lon="5.09376">
        <ele>383.26000976562</ele>
        <time>2009-09-26T13:46:19Z</time>
      </trkpt>
      <trkpt lat="45.21944" lon="5.09331">
        <ele>381.31201171875</ele>
        <time>2009-09-26T13:46:22Z</time>
      </trkpt>
      <trkpt lat="45.21924" lon="5.09201">
        <ele>376.99600219727</ele>
        <time>2009-09-26T13:46:30Z</time>
      </trkpt>
      <trkpt lat="45.2188" lon="5.09081">
        <ele>378.17300415039</ele>
        <time>2009-09-26T13:46:40Z</time>
      </trkpt>
      <trkpt lat="45.21862" lon="5.09032">
        <ele>378.28298950195</ele>
        <time>2009-09-26T13:46:45Z</time>
      </trkpt>
      <trkpt lat="45.21858" lon="5.09023">
        <ele>378.56298828125</ele>
        <time>2009-09-26T13:46:46Z</time>
      </trkpt>
      <trkpt lat="45.21827" lon="5.08942">
        <ele>380.25799560547</ele>
        <time>2009-09-26T13:46:55Z</time>
      </trkpt>
      <trkpt lat="45.21811" lon="5.08893">
        <ele>381.04501342773</ele>
        <time>2009-09-26T13:47:01Z</time>
      </trkpt>
      <trkpt lat="45.21797" lon="5.08841">
        <ele>382.11700439453</ele>
        <time>2009-09-26T13:47:07Z</time>
      </trkpt>
      <trkpt lat="45.21795" lon="5.08822">
        <ele>382.82000732422</ele>
        <time>2009-09-26T13:47:09Z</time>
      </trkpt>
      <trkpt lat="45.21798" lon="5.08775">
        <ele>381.59799194336</ele>
        <time>2009-09-26T13:47:14Z</time>
      </trkpt>
      <trkpt lat="45.21807" lon="5.08674">
        <ele>377.46499633789</ele>
        <time>2009-09-26T13:47:23Z</time>
      </trkpt>
      <trkpt lat="45.21818" lon="5.08586">
        <ele>373.92199707031</ele>
        <time>2009-09-26T13:47:30Z</time>
      </trkpt>
      <trkpt lat="45.21824" lon="5.08532">
        <ele>371.8869934082</ele>
        <time>2009-09-26T13:47:34Z</time>
      </trkpt>
      <trkpt lat="45.21832" lon="5.08439">
        <ele>369.88000488281</ele>
        <time>2009-09-26T13:47:41Z</time>
      </trkpt>
      <trkpt lat="45.2184" lon="5.0824">
        <ele>366.99798583984</ele>
        <time>2009-09-26T13:47:57Z</time>
      </trkpt>
      <trkpt lat="45.21804" lon="5.08098">
        <ele>364.49398803711</ele>
        <time>2009-09-26T13:48:09Z</time>
      </trkpt>
      <trkpt lat="45.21719" lon="5.07838">
        <ele>360.22500610352</ele>
        <time>2009-09-26T13:48:31Z</time>
      </trkpt>
      <trkpt lat="45.21653" lon="5.07662">
        <ele>358.57901000977</ele>
        <time>2009-09-26T13:48:47Z</time>
      </trkpt>
      <trkpt lat="45.2165" lon="5.07651">
        <ele>358.63198852539</ele>
        <time>2009-09-26T13:48:48Z</time>
      </trkpt>
      <trkpt lat="45.21653" lon="5.07588">
        <ele>359.97601318359</ele>
        <time>2009-09-26T13:48:54Z</time>
      </trkpt>
      <trkpt lat="45.21663" lon="5.07555">
        <ele>360.69799804688</ele>
        <time>2009-09-26T13:48:58Z</time>
      </trkpt>
      <trkpt lat="45.21651" lon="5.07511">
        <ele>361.02099609375</ele>
        <time>2009-09-26T13:49:05Z</time>
      </trkpt>
      <trkpt lat="45.21645" lon="5.07508">
        <ele>360.98699951172</ele>
        <time>2009-09-26T13:49:06Z</time>
      </trkpt>
      <trkpt lat="45.21544" lon="5.07459">
        <ele>359.63900756836</ele>
        <time>2009-09-26T13:49:22Z</time>
      </trkpt>
      <trkpt lat="45.21402" lon="5.0739">
        <ele>358.48400878906</ele>
        <time>2009-09-26T13:49:41Z</time>
      </trkpt>
      <trkpt lat="45.21284" lon="5.07322">
        <ele>354.5530090332</ele>
        <time>2009-09-26T13:49:56Z</time>
      </trkpt>
      <trkpt lat="45.21212" lon="5.07256">
        <ele>352.45199584961</ele>
        <time>2009-09-26T13:50:05Z</time>
      </trkpt>
      <trkpt lat="45.21195" lon="5.07245">
        <ele>352.06298828125</ele>
        <time>2009-09-26T13:50:07Z</time>
      </trkpt>
      <trkpt lat="45.21186" lon="5.07241">
        <ele>351.60699462891</ele>
        <time>2009-09-26T13:50:08Z</time>
      </trkpt>
      <trkpt lat="45.2103" lon="5.07172">
        <ele>346.06100463867</ele>
        <time>2009-09-26T13:50:25Z</time>
      </trkpt>
      <trkpt lat="45.20976" lon="5.07156">
        <ele>343.88500976562</ele>
        <time>2009-09-26T13:50:31Z</time>
      </trkpt>
      <trkpt lat="45.20884" lon="5.07104">
        <ele>342.80099487305</ele>
        <time>2009-09-26T13:50:42Z</time>
      </trkpt>
      <trkpt lat="45.2082" lon="5.07056">
        <ele>341.15600585938</ele>
        <time>2009-09-26T13:50:50Z</time>
      </trkpt>
      <trkpt lat="45.20732" lon="5.06968">
        <ele>341.11099243164</ele>
        <time>2009-09-26T13:51:02Z</time>
      </trkpt>
      <trkpt lat="45.20713" lon="5.06932">
        <ele>341.22500610352</ele>
        <time>2009-09-26T13:51:06Z</time>
      </trkpt>
      <trkpt lat="45.20673" lon="5.06889">
        <ele>339.89498901367</ele>
        <time>2009-09-26T13:51:13Z</time>
      </trkpt>
      <trkpt lat="45.20668" lon="5.06879">
        <ele>339.81399536133</ele>
        <time>2009-09-26T13:51:14Z</time>
      </trkpt>
      <trkpt lat="45.20614" lon="5.06771">
        <ele>339.16101074219</ele>
        <time>2009-09-26T13:51:25Z</time>
      </trkpt>
      <trkpt lat="45.20547" lon="5.06668">
        <ele>340.98400878906</ele>
        <time>2009-09-26T13:51:37Z</time>
      </trkpt>
      <trkpt lat="45.20492" lon="5.06591">
        <ele>341.63299560547</ele>
        <time>2009-09-26T13:51:47Z</time>
      </trkpt>
      <trkpt lat="45.20468" lon="5.06559">
        <ele>341.35501098633</ele>
        <time>2009-09-26T13:51:51Z</time>
      </trkpt>
      <trkpt lat="45.20414" lon="5.06483">
        <ele>341.86999511719</ele>
        <time>2009-09-26T13:52:01Z</time>
      </trkpt>
      <trkpt lat="45.20341" lon="5.06427">
        <ele>341.16500854492</ele>
        <time>2009-09-26T13:52:12Z</time>
      </trkpt>
      <trkpt lat="45.20253" lon="5.06351">
        <ele>338.14801025391</ele>
        <time>2009-09-26T13:52:24Z</time>
      </trkpt>
      <trkpt lat="45.20151" lon="5.06288">
        <ele>334.59698486328</ele>
        <time>2009-09-26T13:52:35Z</time>
      </trkpt>
      <trkpt lat="45.19995" lon="5.06187">
        <ele>331.08801269531</ele>
        <time>2009-09-26T13:52:51Z</time>
      </trkpt>
      <trkpt lat="45.1985" lon="5.06068">
        <ele>327.625</ele>
        <time>2009-09-26T13:53:06Z</time>
      </trkpt>
      <trkpt lat="45.19698" lon="5.0592">
        <ele>322.05599975586</ele>
        <time>2009-09-26T13:53:22Z</time>
      </trkpt>
      <trkpt lat="45.19662" lon="5.05882">
        <ele>322.11099243164</ele>
        <time>2009-09-26T13:53:26Z</time>
      </trkpt>
      <trkpt lat="45.1961" lon="5.0575">
        <ele>323.00698852539</ele>
        <time>2009-09-26T13:53:36Z</time>
      </trkpt>
      <trkpt lat="45.19594" lon="5.05679">
        <ele>322.50100708008</ele>
        <time>2009-09-26T13:53:41Z</time>
      </trkpt>
      <trkpt lat="45.19535" lon="5.0557">
        <ele>319.8630065918</ele>
        <time>2009-09-26T13:53:50Z</time>
      </trkpt>
      <trkpt lat="45.19421" lon="5.05449">
        <ele>318.02200317383</ele>
        <time>2009-09-26T13:54:03Z</time>
      </trkpt>
      <trkpt lat="45.19298" lon="5.05298">
        <ele>316.67401123047</ele>
        <time>2009-09-26T13:54:18Z</time>
      </trkpt>
      <trkpt lat="45.19202" lon="5.05167">
        <ele>312.49200439453</ele>
        <time>2009-09-26T13:54:29Z</time>
      </trkpt>
      <trkpt lat="45.19088" lon="5.05038">
        <ele>309.20498657227</ele>
        <time>2009-09-26T13:54:42Z</time>
      </trkpt>
      <trkpt lat="45.18954" lon="5.04891">
        <ele>308.49700927734</ele>
        <time>2009-09-26T13:54:58Z</time>
      </trkpt>
      <trkpt lat="45.18806" lon="5.04715">
        <ele>304.9289855957</ele>
        <time>2009-09-26T13:55:15Z</time>
      </trkpt>
      <trkpt lat="45.18783" lon="5.04685">
        <ele>305.38000488281</ele>
        <time>2009-09-26T13:55:18Z</time>
      </trkpt>
      <trkpt lat="45.18778" lon="5.04663">
        <ele>306.45401000977</ele>
        <time>2009-09-26T13:55:20Z</time>
      </trkpt>
      <trkpt lat="45.18797" lon="5.04651">
        <ele>306.92599487305</ele>
        <time>2009-09-26T13:55:23Z</time>
      </trkpt>
      <trkpt lat="45.18904" lon="5.04641">
        <ele>309.56698608398</ele>
        <time>2009-09-26T13:55:40Z</time>
      </trkpt>
      <trkpt lat="45.18973" lon="5.04627">
        <ele>311.13500976562</ele>
        <time>2009-09-26T13:55:51Z</time>
      </trkpt>
      <trkpt lat="45.19007" lon="5.04643">
        <ele>312.96499633789</ele>
        <time>2009-09-26T13:55:57Z</time>
      </trkpt>
      <trkpt lat="45.19054" lon="5.04728">
        <ele>317.10101318359</ele>
        <time>2009-09-26T13:56:10Z</time>
      </trkpt>
      <trkpt lat="45.19076" lon="5.04792">
        <ele>319.98199462891</ele>
        <time>2009-09-26T13:56:19Z</time>
      </trkpt>
      <trkpt lat="45.19102" lon="5.04832">
        <ele>321.71200561523</ele>
        <time>2009-09-26T13:56:26Z</time>
      </trkpt>
      <trkpt lat="45.19125" lon="5.04847">
        <ele>322.56298828125</ele>
        <time>2009-09-26T13:56:31Z</time>
      </trkpt>
      <trkpt lat="45.19146" lon="5.04853">
        <ele>323.55801391602</ele>
        <time>2009-09-26T13:56:35Z</time>
      </trkpt>
      <trkpt lat="45.19156" lon="5.04853">
        <ele>324.07299804688</ele>
        <time>2009-09-26T13:56:37Z</time>
      </trkpt>
      <trkpt lat="45.19216" lon="5.04806">
        <ele>327.4169921875</ele>
        <time>2009-09-26T13:56:51Z</time>
      </trkpt>
      <trkpt lat="45.19284" lon="5.04667">
        <ele>331.11700439453</ele>
        <time>2009-09-26T13:57:13Z</time>
      </trkpt>
      <trkpt lat="45.19361" lon="5.04507">
        <ele>335.89199829102</ele>
        <time>2009-09-26T13:57:39Z</time>
      </trkpt>
      <trkpt lat="45.1938" lon="5.04472">
        <ele>337.34799194336</ele>
        <time>2009-09-26T13:57:45Z</time>
      </trkpt>
      <trkpt lat="45.19427" lon="5.04451">
        <ele>339.25</ele>
        <time>2009-09-26T13:57:55Z</time>
      </trkpt>
      <trkpt lat="45.19501" lon="5.0448">
        <ele>342.99099731445</ele>
        <time>2009-09-26T13:58:11Z</time>
      </trkpt>
      <trkpt lat="45.19539" lon="5.04494">
        <ele>345.11599731445</ele>
        <time>2009-09-26T13:58:19Z</time>
      </trkpt>
      <trkpt lat="45.1958" lon="5.04467">
        <ele>348.12399291992</ele>
        <time>2009-09-26T13:58:29Z</time>
      </trkpt>
      <trkpt lat="45.19585" lon="5.04447">
        <ele>348.80999755859</ele>
        <time>2009-09-26T13:58:32Z</time>
      </trkpt>
      <trkpt lat="45.19581" lon="5.04297">
        <ele>353.83999633789</ele>
        <time>2009-09-26T13:58:52Z</time>
      </trkpt>
      <trkpt lat="45.19583" lon="5.04132">
        <ele>360.04501342773</ele>
        <time>2009-09-26T13:59:16Z</time>
      </trkpt>
      <trkpt lat="45.19619" lon="5.04066">
        <ele>363.08700561523</ele>
        <time>2009-09-26T13:59:29Z</time>
      </trkpt>
      <trkpt lat="45.19638" lon="5.04052">
        <ele>363.74600219727</ele>
        <time>2009-09-26T13:59:34Z</time>
      </trkpt>
      <trkpt lat="45.19641" lon="5.04025">
        <ele>365.82699584961</ele>
        <time>2009-09-26T13:59:40Z</time>
      </trkpt>
      <trkpt lat="45.19606" lon="5.0396">
        <ele>368.71798706055</ele>
        <time>2009-09-26T13:59:54Z</time>
      </trkpt>
      <trkpt lat="45.19596" lon="5.03939">
        <ele>370.20300292969</ele>
        <time>2009-09-26T13:59:58Z</time>
      </trkpt>
      <trkpt lat="45.19563" lon="5.03873">
        <ele>373.26998901367</ele>
        <time>2009-09-26T14:00:08Z</time>
      </trkpt>
      <trkpt lat="45.19531" lon="5.03819">
        <ele>375.86999511719</ele>
        <time>2009-09-26T14:00:17Z</time>
      </trkpt>
      <trkpt lat="45.19491" lon="5.03742">
        <ele>377.21301269531</ele>
        <time>2009-09-26T14:00:29Z</time>
      </trkpt>
      <trkpt lat="45.19493" lon="5.03662">
        <ele>374.5950012207</ele>
        <time>2009-09-26T14:00:38Z</time>
      </trkpt>
      <trkpt lat="45.19502" lon="5.03643">
        <ele>374.20999145508</ele>
        <time>2009-09-26T14:00:40Z</time>
      </trkpt>
      <trkpt lat="45.19525" lon="5.03607">
        <ele>372.88800048828</ele>
        <time>2009-09-26T14:00:44Z</time>
      </trkpt>
      <trkpt lat="45.19587" lon="5.03553">
        <ele>370.56500244141</ele>
        <time>2009-09-26T14:00:52Z</time>
      </trkpt>
      <trkpt lat="45.19603" lon="5.03541">
        <ele>370.60101318359</ele>
        <time>2009-09-26T14:00:54Z</time>
      </trkpt>
      <trkpt lat="45.19637" lon="5.03475">
        <ele>371.59399414062</ele>
        <time>2009-09-26T14:01:01Z</time>
      </trkpt>
      <trkpt lat="45.19639" lon="5.03452">
        <ele>372.0299987793</ele>
        <time>2009-09-26T14:01:03Z</time>
      </trkpt>
      <trkpt lat="45.19626" lon="5.03393">
        <ele>373.89300537109</ele>
        <time>2009-09-26T14:01:09Z</time>
      </trkpt>
      <trkpt lat="45.19595" lon="5.03338">
        <ele>376.25900268555</ele>
        <time>2009-09-26T14:01:17Z</time>
      </trkpt>
      <trkpt lat="45.19584" lon="5.03308">
        <ele>377.23199462891</ele>
        <time>2009-09-26T14:01:21Z</time>
      </trkpt>
      <trkpt lat="45.19577" lon="5.0323">
        <ele>380.61999511719</ele>
        <time>2009-09-26T14:01:31Z</time>
      </trkpt>
      <trkpt lat="45.19561" lon="5.03194">
        <ele>381.4049987793</ele>
        <time>2009-09-26T14:01:37Z</time>
      </trkpt>
      <trkpt lat="45.19548" lon="5.03157">
        <ele>381.80700683594</ele>
        <time>2009-09-26T14:01:43Z</time>
      </trkpt>
      <trkpt lat="45.19547" lon="5.0314">
        <ele>381.52899169922</ele>
        <time>2009-09-26T14:01:46Z</time>
      </trkpt>
      <trkpt lat="45.19533" lon="5.03082">
        <ele>374.99600219727</ele>
        <time>2009-09-26T14:01:54Z</time>
      </trkpt>
      <trkpt lat="45.19575" lon="5.03073">
        <ele>369.55099487305</ele>
        <time>2009-09-26T14:01:59Z</time>
      </trkpt>
      <trkpt lat="45.19607" lon="5.03078">
        <ele>366.96398925781</ele>
        <time>2009-09-26T14:02:02Z</time>
      </trkpt>
      <trkpt lat="45.19662" lon="5.03066">
        <ele>362.62701416016</ele>
        <time>2009-09-26T14:02:07Z</time>
      </trkpt>
      <trkpt lat="45.19686" lon="5.03056">
        <ele>360.15701293945</ele>
        <time>2009-09-26T14:02:09Z</time>
      </trkpt>
      <trkpt lat="45.19711" lon="5.03006">
        <ele>357.2619934082</ele>
        <time>2009-09-26T14:02:13Z</time>
      </trkpt>
      <trkpt lat="45.1969" lon="5.02949">
        <ele>358.50500488281</ele>
        <time>2009-09-26T14:02:17Z</time>
      </trkpt>
      <trkpt lat="45.19666" lon="5.02931">
        <ele>360.55801391602</ele>
        <time>2009-09-26T14:02:20Z</time>
      </trkpt>
      <trkpt lat="45.19632" lon="5.02914">
        <ele>363.25799560547</ele>
        <time>2009-09-26T14:02:25Z</time>
      </trkpt>
      <trkpt lat="45.19615" lon="5.02887">
        <ele>365.89599609375</ele>
        <time>2009-09-26T14:02:29Z</time>
      </trkpt>
      <trkpt lat="45.19616" lon="5.02878">
        <ele>366.53100585938</ele>
        <time>2009-09-26T14:02:30Z</time>
      </trkpt>
      <trkpt lat="45.19622" lon="5.02861">
        <ele>367.24899291992</ele>
        <time>2009-09-26T14:02:32Z</time>
      </trkpt>
      <trkpt lat="45.1963" lon="5.02844">
        <ele>367.8210144043</ele>
        <time>2009-09-26T14:02:34Z</time>
      </trkpt>
      <trkpt lat="45.19634" lon="5.02813">
        <ele>368.91101074219</ele>
        <time>2009-09-26T14:02:37Z</time>
      </trkpt>
      <trkpt lat="45.19631" lon="5.02804">
        <ele>369.33999633789</ele>
        <time>2009-09-26T14:02:38Z</time>
      </trkpt>
      <trkpt lat="45.19625" lon="5.02795">
        <ele>369.55599975586</ele>
        <time>2009-09-26T14:02:39Z</time>
      </trkpt>
      <trkpt lat="45.19613" lon="5.0278">
        <ele>370.23599243164</ele>
        <time>2009-09-26T14:02:41Z</time>
      </trkpt>
      <trkpt lat="45.19599" lon="5.02737">
        <ele>372.15301513672</ele>
        <time>2009-09-26T14:02:45Z</time>
      </trkpt>
      <trkpt lat="45.19575" lon="5.02691">
        <ele>375.72900390625</ele>
        <time>2009-09-26T14:02:50Z</time>
      </trkpt>
      <trkpt lat="45.19546" lon="5.02665">
        <ele>377.6780090332</ele>
        <time>2009-09-26T14:02:55Z</time>
      </trkpt>
      <trkpt lat="45.19527" lon="5.02652">
        <ele>378.95901489258</ele>
        <time>2009-09-26T14:02:59Z</time>
      </trkpt>
      <trkpt lat="45.19518" lon="5.02647">
        <ele>379.54800415039</ele>
        <time>2009-09-26T14:03:01Z</time>
      </trkpt>
      <trkpt lat="45.19445" lon="5.02642">
        <ele>383.3030090332</ele>
        <time>2009-09-26T14:03:17Z</time>
      </trkpt>
      <trkpt lat="45.19404" lon="5.02624">
        <ele>385.39801025391</ele>
        <time>2009-09-26T14:03:29Z</time>
      </trkpt>
      <trkpt lat="45.194" lon="5.02586">
        <ele>384.20199584961</ele>
        <time>2009-09-26T14:03:36Z</time>
      </trkpt>
      <trkpt lat="45.19408" lon="5.02546">
        <ele>382.39199829102</ele>
        <time>2009-09-26T14:03:41Z</time>
      </trkpt>
      <trkpt lat="45.19433" lon="5.02502">
        <ele>379.00698852539</ele>
        <time>2009-09-26T14:03:46Z</time>
      </trkpt>
      <trkpt lat="45.19447" lon="5.02486">
        <ele>377.99600219727</ele>
        <time>2009-09-26T14:03:48Z</time>
      </trkpt>
      <trkpt lat="45.19473" lon="5.0247">
        <ele>375.94799804688</ele>
        <time>2009-09-26T14:03:51Z</time>
      </trkpt>
      <trkpt lat="45.19518" lon="5.02421">
        <ele>371.02801513672</ele>
        <time>2009-09-26T14:03:57Z</time>
      </trkpt>
      <trkpt lat="45.1953" lon="5.0234">
        <ele>367.27801513672</ele>
        <time>2009-09-26T14:04:02Z</time>
      </trkpt>
      <trkpt lat="45.1953" lon="5.02267">
        <ele>367.99600219727</ele>
        <time>2009-09-26T14:04:07Z</time>
      </trkpt>
      <trkpt lat="45.19529" lon="5.02235">
        <ele>369.22299194336</ele>
        <time>2009-09-26T14:04:10Z</time>
      </trkpt>
      <trkpt lat="45.19532" lon="5.02208">
        <ele>370.70199584961</ele>
        <time>2009-09-26T14:04:14Z</time>
      </trkpt>
      <trkpt lat="45.19552" lon="5.02178">
        <ele>371.59899902344</ele>
        <time>2009-09-26T14:04:23Z</time>
      </trkpt>
      <trkpt lat="45.19558" lon="5.02171">
        <ele>371.67700195312</ele>
        <time>2009-09-26T14:04:25Z</time>
      </trkpt>
      <trkpt lat="45.19569" lon="5.02152">
        <ele>370.92300415039</ele>
        <time>2009-09-26T14:04:29Z</time>
      </trkpt>
      <trkpt lat="45.19591" lon="5.02094">
        <ele>370.24099731445</ele>
        <time>2009-09-26T14:04:37Z</time>
      </trkpt>
      <trkpt lat="45.1964" lon="5.01977">
        <ele>369.88900756836</ele>
        <time>2009-09-26T14:04:53Z</time>
      </trkpt>
      <trkpt lat="45.19662" lon="5.01929">
        <ele>370.57998657227</ele>
        <time>2009-09-26T14:04:59Z</time>
      </trkpt>
      <trkpt lat="45.19671" lon="5.01897">
        <ele>371.42700195312</ele>
        <time>2009-09-26T14:05:03Z</time>
      </trkpt>
      <trkpt lat="45.19658" lon="5.01876">
        <ele>372.96398925781</ele>
        <time>2009-09-26T14:05:07Z</time>
      </trkpt>
      <trkpt lat="45.19646" lon="5.01875">
        <ele>373.86801147461</ele>
        <time>2009-09-26T14:05:09Z</time>
      </trkpt>
      <trkpt lat="45.19613" lon="5.01854">
        <ele>376.66299438477</ele>
        <time>2009-09-26T14:05:16Z</time>
      </trkpt>
      <trkpt lat="45.19593" lon="5.01817">
        <ele>379.1960144043</ele>
        <time>2009-09-26T14:05:22Z</time>
      </trkpt>
      <trkpt lat="45.19586" lon="5.01804">
        <ele>380.07598876953</ele>
        <time>2009-09-26T14:05:24Z</time>
      </trkpt>
      <trkpt lat="45.19583" lon="5.01798">
        <ele>380.26699829102</ele>
        <time>2009-09-26T14:05:25Z</time>
      </trkpt>
      <trkpt lat="45.19573" lon="5.01765">
        <ele>381.19500732422</ele>
        <time>2009-09-26T14:05:30Z</time>
      </trkpt>
      <trkpt lat="45.19567" lon="5.01745">
        <ele>380.55599975586</ele>
        <time>2009-09-26T14:05:33Z</time>
      </trkpt>
      <trkpt lat="45.19548" lon="5.0172">
        <ele>379.61199951172</ele>
        <time>2009-09-26T14:05:37Z</time>
      </trkpt>
      <trkpt lat="45.19468" lon="5.01684">
        <ele>379.10900878906</ele>
        <time>2009-09-26T14:05:48Z</time>
      </trkpt>
      <trkpt lat="45.19397" lon="5.01675">
        <ele>379.45098876953</ele>
        <time>2009-09-26T14:05:58Z</time>
      </trkpt>
      <trkpt lat="45.19373" lon="5.01669">
        <ele>379.94799804688</ele>
        <time>2009-09-26T14:06:02Z</time>
      </trkpt>
      <trkpt lat="45.19305" lon="5.01627">
        <ele>383.07598876953</ele>
        <time>2009-09-26T14:06:14Z</time>
      </trkpt>
      <trkpt lat="45.193" lon="5.01622">
        <ele>382.60400390625</ele>
        <time>2009-09-26T14:06:15Z</time>
      </trkpt>
      <trkpt lat="45.19272" lon="5.01579">
        <ele>379.57501220703</ele>
        <time>2009-09-26T14:06:20Z</time>
      </trkpt>
      <trkpt lat="45.19284" lon="5.01498">
        <ele>374.00601196289</ele>
        <time>2009-09-26T14:06:26Z</time>
      </trkpt>
      <trkpt lat="45.19287" lon="5.01442">
        <ele>372.57501220703</ele>
        <time>2009-09-26T14:06:30Z</time>
      </trkpt>
      <trkpt lat="45.19277" lon="5.01418">
        <ele>373.11599731445</ele>
        <time>2009-09-26T14:06:32Z</time>
      </trkpt>
      <trkpt lat="45.19262" lon="5.01385">
        <ele>373.29299926758</ele>
        <time>2009-09-26T14:06:35Z</time>
      </trkpt>
      <trkpt lat="45.19234" lon="5.01361">
        <ele>374.37298583984</ele>
        <time>2009-09-26T14:06:39Z</time>
      </trkpt>
      <trkpt lat="45.19205" lon="5.01322">
        <ele>377.76000976562</ele>
        <time>2009-09-26T14:06:46Z</time>
      </trkpt>
      <trkpt lat="45.19217" lon="5.01285">
        <ele>381.0830078125</ele>
        <time>2009-09-26T14:06:52Z</time>
      </trkpt>
      <trkpt lat="45.19232" lon="5.01258">
        <ele>382.53601074219</ele>
        <time>2009-09-26T14:06:58Z</time>
      </trkpt>
      <trkpt lat="45.19244" lon="5.01215">
        <ele>384.34201049805</ele>
        <time>2009-09-26T14:07:05Z</time>
      </trkpt>
      <trkpt lat="45.19277" lon="5.01156">
        <ele>382.75698852539</ele>
        <time>2009-09-26T14:07:16Z</time>
      </trkpt>
      <trkpt lat="45.19329" lon="5.01093">
        <ele>380.06100463867</ele>
        <time>2009-09-26T14:07:27Z</time>
      </trkpt>
      <trkpt lat="45.19379" lon="5.01047">
        <ele>379.09799194336</ele>
        <time>2009-09-26T14:07:36Z</time>
      </trkpt>
      <trkpt lat="45.1941" lon="5.01026">
        <ele>377.84899902344</ele>
        <time>2009-09-26T14:07:41Z</time>
      </trkpt>
      <trkpt lat="45.19439" lon="5.01004">
        <ele>377.54901123047</ele>
        <time>2009-09-26T14:07:46Z</time>
      </trkpt>
      <trkpt lat="45.19469" lon="5.00962">
        <ele>376.84298706055</ele>
        <time>2009-09-26T14:07:53Z</time>
      </trkpt>
      <trkpt lat="45.19511" lon="5.00924">
        <ele>375.76901245117</ele>
        <time>2009-09-26T14:08:00Z</time>
      </trkpt>
      <trkpt lat="45.19583" lon="5.00873">
        <ele>376.81799316406</ele>
        <time>2009-09-26T14:08:12Z</time>
      </trkpt>
      <trkpt lat="45.19671" lon="5.00806">
        <ele>378.96398925781</ele>
        <time>2009-09-26T14:08:29Z</time>
      </trkpt>
      <trkpt lat="45.19731" lon="5.00721">
        <ele>378.19400024414</ele>
        <time>2009-09-26T14:08:42Z</time>
      </trkpt>
      <trkpt lat="45.19796" lon="5.00692">
        <ele>379.43301391602</ele>
        <time>2009-09-26T14:08:53Z</time>
      </trkpt>
      <trkpt lat="45.19811" lon="5.0067">
        <ele>379.32400512695</ele>
        <time>2009-09-26T14:09:01Z</time>
      </trkpt>
      <trkpt lat="45.19801" lon="5.00613">
        <ele>375.95300292969</ele>
        <time>2009-09-26T14:09:11Z</time>
      </trkpt>
      <trkpt lat="45.19799" lon="5.00604">
        <ele>375.70199584961</ele>
        <time>2009-09-26T14:09:12Z</time>
      </trkpt>
      <trkpt lat="45.1978" lon="5.00532">
        <ele>369.82598876953</ele>
        <time>2009-09-26T14:09:18Z</time>
      </trkpt>
      <trkpt lat="45.19728" lon="5.00437">
        <ele>360.39898681641</ele>
        <time>2009-09-26T14:09:25Z</time>
      </trkpt>
      <trkpt lat="45.19711" lon="5.00408">
        <ele>357.90200805664</ele>
        <time>2009-09-26T14:09:27Z</time>
      </trkpt>
      <trkpt lat="45.19693" lon="5.00378">
        <ele>355.36199951172</ele>
        <time>2009-09-26T14:09:29Z</time>
      </trkpt>
      <trkpt lat="45.19558" lon="5.00167">
        <ele>350.29998779297</ele>
        <time>2009-09-26T14:09:44Z</time>
      </trkpt>
      <trkpt lat="45.19505" lon="5.00084">
        <ele>352.55499267578</ele>
        <time>2009-09-26T14:09:52Z</time>
      </trkpt>
      <trkpt lat="45.19489" lon="5.00059">
        <ele>353.77398681641</ele>
        <time>2009-09-26T14:09:55Z</time>
      </trkpt>
      <trkpt lat="45.19464" lon="5.00028">
        <ele>356.09600830078</ele>
        <time>2009-09-26T14:10:00Z</time>
      </trkpt>
      <trkpt lat="45.19439" lon="5.00018">
        <ele>357.64999389648</ele>
        <time>2009-09-26T14:10:05Z</time>
      </trkpt>
      <trkpt lat="45.19411" lon="5.0002">
        <ele>359.9469909668</ele>
        <time>2009-09-26T14:10:11Z</time>
      </trkpt>
      <trkpt lat="45.19398" lon="5.00021">
        <ele>361.13800048828</ele>
        <time>2009-09-26T14:10:14Z</time>
      </trkpt>
      <trkpt lat="45.19394" lon="5.00021">
        <ele>361.41500854492</ele>
        <time>2009-09-26T14:10:15Z</time>
      </trkpt>
      <trkpt lat="45.19369" lon="5.00023">
        <ele>363.41799926758</ele>
        <time>2009-09-26T14:10:21Z</time>
      </trkpt>
      <trkpt lat="45.19365" lon="5.00022">
        <ele>363.76800537109</ele>
        <time>2009-09-26T14:10:22Z</time>
      </trkpt>
      <trkpt lat="45.19369" lon="5.00006">
        <ele>364.84799194336</ele>
        <time>2009-09-26T14:10:28Z</time>
      </trkpt>
      <trkpt lat="45.19383" lon="5">
        <ele>365.37600708008</ele>
        <time>2009-09-26T14:10:32Z</time>
      </trkpt>
      <trkpt lat="45.19453" lon="4.99952">
        <ele>365.64300537109</ele>
        <time>2009-09-26T14:10:47Z</time>
      </trkpt>
      <trkpt lat="45.19521" lon="4.99876">
        <ele>366.67300415039</ele>
        <time>2009-09-26T14:11:03Z</time>
      </trkpt>
      <trkpt lat="45.19572" lon="4.99803">
        <ele>368.40798950195</ele>
        <time>2009-09-26T14:11:16Z</time>
      </trkpt>
      <trkpt lat="45.19582" lon="4.99791">
        <ele>369.32299804688</ele>
        <time>2009-09-26T14:11:19Z</time>
      </trkpt>
      <trkpt lat="45.19629" lon="4.99767">
        <ele>372.49899291992</ele>
        <time>2009-09-26T14:11:30Z</time>
      </trkpt>
      <trkpt lat="45.19659" lon="4.99759">
        <ele>373.10101318359</ele>
        <time>2009-09-26T14:11:36Z</time>
      </trkpt>
      <trkpt lat="45.1974" lon="4.99762">
        <ele>371.06298828125</ele>
        <time>2009-09-26T14:11:49Z</time>
      </trkpt>
      <trkpt lat="45.19756" lon="4.99767">
        <ele>370.22698974609</ele>
        <time>2009-09-26T14:11:51Z</time>
      </trkpt>
      <trkpt lat="45.19804" lon="4.99739">
        <ele>368.13198852539</ele>
        <time>2009-09-26T14:11:58Z</time>
      </trkpt>
      <trkpt lat="45.19831" lon="4.99682">
        <ele>363.71099853516</ele>
        <time>2009-09-26T14:12:03Z</time>
      </trkpt>
      <trkpt lat="45.19853" lon="4.99652">
        <ele>362.2380065918</ele>
        <time>2009-09-26T14:12:06Z</time>
      </trkpt>
      <trkpt lat="45.19941" lon="4.99579">
        <ele>362.5119934082</ele>
        <time>2009-09-26T14:12:17Z</time>
      </trkpt>
      <trkpt lat="45.19964" lon="4.99549">
        <ele>362.56799316406</ele>
        <time>2009-09-26T14:12:21Z</time>
      </trkpt>
      <trkpt lat="45.19969" lon="4.99541">
        <ele>362.60501098633</ele>
        <time>2009-09-26T14:12:22Z</time>
      </trkpt>
      <trkpt lat="45.20005" lon="4.9951">
        <ele>362.99301147461</ele>
        <time>2009-09-26T14:12:28Z</time>
      </trkpt>
      <trkpt lat="45.20078" lon="4.99481">
        <ele>364.26599121094</ele>
        <time>2009-09-26T14:12:39Z</time>
      </trkpt>
      <trkpt lat="45.20119" lon="4.99473">
        <ele>362.02700805664</ele>
        <time>2009-09-26T14:12:45Z</time>
      </trkpt>
      <trkpt lat="45.20149" lon="4.99452">
        <ele>359.15100097656</ele>
        <time>2009-09-26T14:12:49Z</time>
      </trkpt>
      <trkpt lat="45.20215" lon="4.99371">
        <ele>352.53100585938</ele>
        <time>2009-09-26T14:12:58Z</time>
      </trkpt>
      <trkpt lat="45.20249" lon="4.99347">
        <ele>346.97299194336</ele>
        <time>2009-09-26T14:13:02Z</time>
      </trkpt>
      <trkpt lat="45.20291" lon="4.99326">
        <ele>342.19500732422</ele>
        <time>2009-09-26T14:13:06Z</time>
      </trkpt>
      <trkpt lat="45.20301" lon="4.99318">
        <ele>341.90798950195</ele>
        <time>2009-09-26T14:13:07Z</time>
      </trkpt>
      <trkpt lat="45.20348" lon="4.99266">
        <ele>340.68499755859</ele>
        <time>2009-09-26T14:13:13Z</time>
      </trkpt>
      <trkpt lat="45.20395" lon="4.99236">
        <ele>335.29901123047</ele>
        <time>2009-09-26T14:13:22Z</time>
      </trkpt>
      <trkpt lat="45.20442" lon="4.99192">
        <ele>327.70599365234</ele>
        <time>2009-09-26T14:13:29Z</time>
      </trkpt>
      <trkpt lat="45.20511" lon="4.99084">
        <ele>317.78298950195</ele>
        <time>2009-09-26T14:13:38Z</time>
      </trkpt>
      <trkpt lat="45.20522" lon="4.99003">
        <ele>313.67199707031</ele>
        <time>2009-09-26T14:13:43Z</time>
      </trkpt>
      <trkpt lat="45.20547" lon="4.98926">
        <ele>309.35501098633</ele>
        <time>2009-09-26T14:13:49Z</time>
      </trkpt>
      <trkpt lat="45.2058" lon="4.98922">
        <ele>306.60101318359</ele>
        <time>2009-09-26T14:13:54Z</time>
      </trkpt>
      <trkpt lat="45.20585" lon="4.98929">
        <ele>306.51901245117</ele>
        <time>2009-09-26T14:13:55Z</time>
      </trkpt>
      <trkpt lat="45.20595" lon="4.98943">
        <ele>306.45001220703</ele>
        <time>2009-09-26T14:13:57Z</time>
      </trkpt>
      <trkpt lat="45.20613" lon="4.99028">
        <ele>302.52700805664</ele>
        <time>2009-09-26T14:14:06Z</time>
      </trkpt>
      <trkpt lat="45.20619" lon="4.9905">
        <ele>301.6960144043</ele>
        <time>2009-09-26T14:14:08Z</time>
      </trkpt>
      <trkpt lat="45.20626" lon="4.99074">
        <ele>300.28900146484</ele>
        <time>2009-09-26T14:14:10Z</time>
      </trkpt>
      <trkpt lat="45.20661" lon="4.99123">
        <ele>296.52200317383</ele>
        <time>2009-09-26T14:14:15Z</time>
      </trkpt>
      <trkpt lat="45.20684" lon="4.9915">
        <ele>294.83499145508</ele>
        <time>2009-09-26T14:14:18Z</time>
      </trkpt>
      <trkpt lat="45.20674" lon="4.99178">
        <ele>293.18600463867</ele>
        <time>2009-09-26T14:14:21Z</time>
      </trkpt>
      <trkpt lat="45.20652" lon="4.99202">
        <ele>291.39401245117</ele>
        <time>2009-09-26T14:14:25Z</time>
      </trkpt>
      <trkpt lat="45.2065" lon="4.99246">
        <ele>289.95999145508</ele>
        <time>2009-09-26T14:14:31Z</time>
      </trkpt>
      <trkpt lat="45.20684" lon="4.99249">
        <ele>288.72799682617</ele>
        <time>2009-09-26T14:14:38Z</time>
      </trkpt>
      <trkpt lat="45.20702" lon="4.99232">
        <ele>288.47601318359</ele>
        <time>2009-09-26T14:14:42Z</time>
      </trkpt>
      <trkpt lat="45.20726" lon="4.99215">
        <ele>287.94000244141</ele>
        <time>2009-09-26T14:14:46Z</time>
      </trkpt>
      <trkpt lat="45.20743" lon="4.99164">
        <ele>287.01800537109</ele>
        <time>2009-09-26T14:14:52Z</time>
      </trkpt>
      <trkpt lat="45.2071" lon="4.99005">
        <ele>284.26501464844</ele>
        <time>2009-09-26T14:15:08Z</time>
      </trkpt>
      <trkpt lat="45.2071" lon="4.98969">
        <ele>283.58898925781</ele>
        <time>2009-09-26T14:15:12Z</time>
      </trkpt>
      <trkpt lat="45.20727" lon="4.98851">
        <ele>281.85000610352</ele>
        <time>2009-09-26T14:15:26Z</time>
      </trkpt>
      <trkpt lat="45.20736" lon="4.98786">
        <ele>281.07800292969</ele>
        <time>2009-09-26T14:15:34Z</time>
      </trkpt>
      <trkpt lat="45.20738" lon="4.98769">
        <ele>280.73199462891</ele>
        <time>2009-09-26T14:15:36Z</time>
      </trkpt>
      <trkpt lat="45.20751" lon="4.9873">
        <ele>280.70199584961</ele>
        <time>2009-09-26T14:15:41Z</time>
      </trkpt>
      <trkpt lat="45.20801" lon="4.98651">
        <ele>281.27700805664</ele>
        <time>2009-09-26T14:15:54Z</time>
      </trkpt>
      <trkpt lat="45.20837" lon="4.98589">
        <ele>281.70901489258</ele>
        <time>2009-09-26T14:16:04Z</time>
      </trkpt>
      <trkpt lat="45.20872" lon="4.98495">
        <ele>280.72601318359</ele>
        <time>2009-09-26T14:16:19Z</time>
      </trkpt>
      <trkpt lat="45.20877" lon="4.98476">
        <ele>280.75399780273</ele>
        <time>2009-09-26T14:16:22Z</time>
      </trkpt>
      <trkpt lat="45.20881" lon="4.98463">
        <ele>280.60299682617</ele>
        <time>2009-09-26T14:16:24Z</time>
      </trkpt>
      <trkpt lat="45.20892" lon="4.98432">
        <ele>279.52301025391</ele>
        <time>2009-09-26T14:16:29Z</time>
      </trkpt>
      <trkpt lat="45.20889" lon="4.98387">
        <ele>276.0299987793</ele>
        <time>2009-09-26T14:16:34Z</time>
      </trkpt>
      <trkpt lat="45.20873" lon="4.98347">
        <ele>274.28799438477</ele>
        <time>2009-09-26T14:16:38Z</time>
      </trkpt>
      <trkpt lat="45.2086" lon="4.98319">
        <ele>274.10998535156</ele>
        <time>2009-09-26T14:16:41Z</time>
      </trkpt>
      <trkpt lat="45.20849" lon="4.9829">
        <ele>274.18399047852</ele>
        <time>2009-09-26T14:16:44Z</time>
      </trkpt>
      <trkpt lat="45.20842" lon="4.98252">
        <ele>273.99499511719</ele>
        <time>2009-09-26T14:16:48Z</time>
      </trkpt>
      <trkpt lat="45.20848" lon="4.98235">
        <ele>273.96200561523</ele>
        <time>2009-09-26T14:16:50Z</time>
      </trkpt>
      <trkpt lat="45.20879" lon="4.98171">
        <ele>273.58898925781</ele>
        <time>2009-09-26T14:16:58Z</time>
      </trkpt>
      <trkpt lat="45.20929" lon="4.98095">
        <ele>272.66299438477</ele>
        <time>2009-09-26T14:17:09Z</time>
      </trkpt>
      <trkpt lat="45.20937" lon="4.98073">
        <ele>273.04998779297</ele>
        <time>2009-09-26T14:17:12Z</time>
      </trkpt>
      <trkpt lat="45.20951" lon="4.98004">
        <ele>272.95098876953</ele>
        <time>2009-09-26T14:17:20Z</time>
      </trkpt>
      <trkpt lat="45.20953" lon="4.97955">
        <ele>273.05099487305</ele>
        <time>2009-09-26T14:17:25Z</time>
      </trkpt>
      <trkpt lat="45.20937" lon="4.97891">
        <ele>274.07800292969</ele>
        <time>2009-09-26T14:17:32Z</time>
      </trkpt>
      <trkpt lat="45.20914" lon="4.97815">
        <ele>271.44400024414</ele>
        <time>2009-09-26T14:17:40Z</time>
      </trkpt>
      <trkpt lat="45.20911" lon="4.97804">
        <ele>271.17098999023</ele>
        <time>2009-09-26T14:17:41Z</time>
      </trkpt>
      <trkpt lat="45.20894" lon="4.97771">
        <ele>269.87100219727</ele>
        <time>2009-09-26T14:17:44Z</time>
      </trkpt>
      <trkpt lat="45.20863" lon="4.97616">
        <ele>268.81500244141</ele>
        <time>2009-09-26T14:17:57Z</time>
      </trkpt>
      <trkpt lat="45.2085" lon="4.97517">
        <ele>270.8210144043</ele>
        <time>2009-09-26T14:18:07Z</time>
      </trkpt>
      <trkpt lat="45.20848" lon="4.97501">
        <ele>270.78298950195</ele>
        <time>2009-09-26T14:18:09Z</time>
      </trkpt>
      <trkpt lat="45.20842" lon="4.97473">
        <ele>269.58700561523</ele>
        <time>2009-09-26T14:18:12Z</time>
      </trkpt>
      <trkpt lat="45.20826" lon="4.97419">
        <ele>267.67599487305</ele>
        <time>2009-09-26T14:18:17Z</time>
      </trkpt>
      <trkpt lat="45.20806" lon="4.97349">
        <ele>265.88400268555</ele>
        <time>2009-09-26T14:18:23Z</time>
      </trkpt>
      <trkpt lat="45.20804" lon="4.97323">
        <ele>265.05499267578</ele>
        <time>2009-09-26T14:18:25Z</time>
      </trkpt>
      <trkpt lat="45.20818" lon="4.97275">
        <ele>263.79000854492</ele>
        <time>2009-09-26T14:18:29Z</time>
      </trkpt>
      <trkpt lat="45.20834" lon="4.97246">
        <ele>263.28100585938</ele>
        <time>2009-09-26T14:18:32Z</time>
      </trkpt>
      <trkpt lat="45.20855" lon="4.97196">
        <ele>263.32400512695</ele>
        <time>2009-09-26T14:18:37Z</time>
      </trkpt>
      <trkpt lat="45.20873" lon="4.97169">
        <ele>264.87100219727</ele>
        <time>2009-09-26T14:18:41Z</time>
      </trkpt>
      <trkpt lat="45.20898" lon="4.97142">
        <ele>265.86999511719</ele>
        <time>2009-09-26T14:18:47Z</time>
      </trkpt>
      <trkpt lat="45.20916" lon="4.97115">
        <ele>265.05801391602</ele>
        <time>2009-09-26T14:18:52Z</time>
      </trkpt>
      <trkpt lat="45.20926" lon="4.97091">
        <ele>263.98901367188</ele>
        <time>2009-09-26T14:18:55Z</time>
      </trkpt>
      <trkpt lat="45.20948" lon="4.96952">
        <ele>260.40798950195</ele>
        <time>2009-09-26T14:19:07Z</time>
      </trkpt>
      <trkpt lat="45.2098" lon="4.96828">
        <ele>260.18301391602</ele>
        <time>2009-09-26T14:19:19Z</time>
      </trkpt>
      <trkpt lat="45.21003" lon="4.96789">
        <ele>258.39498901367</ele>
        <time>2009-09-26T14:19:24Z</time>
      </trkpt>
      <trkpt lat="45.21034" lon="4.96673">
        <ele>256.25500488281</ele>
        <time>2009-09-26T14:19:35Z</time>
      </trkpt>
      <trkpt lat="45.21036" lon="4.96663">
        <ele>256.35598754883</ele>
        <time>2009-09-26T14:19:36Z</time>
      </trkpt>
      <trkpt lat="45.21059" lon="4.96584">
        <ele>255.96099853516</ele>
        <time>2009-09-26T14:19:44Z</time>
      </trkpt>
      <trkpt lat="45.21074" lon="4.96534">
        <ele>255.60200500488</ele>
        <time>2009-09-26T14:19:49Z</time>
      </trkpt>
      <trkpt lat="45.2109" lon="4.96451">
        <ele>256.06799316406</ele>
        <time>2009-09-26T14:19:57Z</time>
      </trkpt>
      <trkpt lat="45.21102" lon="4.96306">
        <ele>254.01100158691</ele>
        <time>2009-09-26T14:20:10Z</time>
      </trkpt>
      <trkpt lat="45.21119" lon="4.96113">
        <ele>254.91799926758</ele>
        <time>2009-09-26T14:20:27Z</time>
      </trkpt>
      <trkpt lat="45.21129" lon="4.96063">
        <ele>254.76600646973</ele>
        <time>2009-09-26T14:20:32Z</time>
      </trkpt>
      <trkpt lat="45.21195" lon="4.9595">
        <ele>254.05400085449</ele>
        <time>2009-09-26T14:20:46Z</time>
      </trkpt>
      <trkpt lat="45.21256" lon="4.9586">
        <ele>251.78300476074</ele>
        <time>2009-09-26T14:20:57Z</time>
      </trkpt>
      <trkpt lat="45.2132" lon="4.95751">
        <ele>251.1369934082</ele>
        <time>2009-09-26T14:21:10Z</time>
      </trkpt>
      <trkpt lat="45.21368" lon="4.95603">
        <ele>247.9880065918</ele>
        <time>2009-09-26T14:21:24Z</time>
      </trkpt>
      <trkpt lat="45.21385" lon="4.95504">
        <ele>250.57000732422</ele>
        <time>2009-09-26T14:21:35Z</time>
      </trkpt>
      <trkpt lat="45.21393" lon="4.95462">
        <ele>251.5119934082</ele>
        <time>2009-09-26T14:21:43Z</time>
      </trkpt>
      <trkpt lat="45.2138" lon="4.95451">
        <ele>251.96200561523</ele>
        <time>2009-09-26T14:21:48Z</time>
      </trkpt>
      <trkpt lat="45.21304" lon="4.9543">
        <ele>252.30599975586</ele>
        <time>2009-09-26T14:22:03Z</time>
      </trkpt>
      <trkpt lat="45.21234" lon="4.95414">
        <ele>252.67799377441</ele>
        <time>2009-09-26T14:22:15Z</time>
      </trkpt>
      <trkpt lat="45.2114" lon="4.95434">
        <ele>251.81799316406</ele>
        <time>2009-09-26T14:22:30Z</time>
      </trkpt>
      <trkpt lat="45.211" lon="4.95405">
        <ele>249.78999328613</ele>
        <time>2009-09-26T14:22:36Z</time>
      </trkpt>
      <trkpt lat="45.2109" lon="4.95371">
        <ele>247.53700256348</ele>
        <time>2009-09-26T14:22:39Z</time>
      </trkpt>
      <trkpt lat="45.21073" lon="4.95293">
        <ele>244.66999816894</ele>
        <time>2009-09-26T14:22:45Z</time>
      </trkpt>
      <trkpt lat="45.21024" lon="4.95248">
        <ele>241.12800598144</ele>
        <time>2009-09-26T14:22:51Z</time>
      </trkpt>
      <trkpt lat="45.20982" lon="4.95248">
        <ele>241.46699523926</ele>
        <time>2009-09-26T14:22:55Z</time>
      </trkpt>
      <trkpt lat="45.20972" lon="4.95248">
        <ele>241.60000610352</ele>
        <time>2009-09-26T14:22:56Z</time>
      </trkpt>
      <trkpt lat="45.20963" lon="4.95248">
        <ele>242.01600646973</ele>
        <time>2009-09-26T14:22:57Z</time>
      </trkpt>
      <trkpt lat="45.20869" lon="4.95249">
        <ele>243.02699279785</ele>
        <time>2009-09-26T14:23:09Z</time>
      </trkpt>
      <trkpt lat="45.20806" lon="4.95237">
        <ele>245.10000610352</ele>
        <time>2009-09-26T14:23:18Z</time>
      </trkpt>
      <trkpt lat="45.2077" lon="4.95228">
        <ele>245.50100708008</ele>
        <time>2009-09-26T14:23:23Z</time>
      </trkpt>
      <trkpt lat="45.20749" lon="4.95223">
        <ele>246.04200744629</ele>
        <time>2009-09-26T14:23:26Z</time>
      </trkpt>
      <trkpt lat="45.20671" lon="4.95211">
        <ele>247.72399902344</ele>
        <time>2009-09-26T14:23:37Z</time>
      </trkpt>
      <trkpt lat="45.20599" lon="4.95208">
        <ele>249.43699645996</ele>
        <time>2009-09-26T14:23:47Z</time>
      </trkpt>
      <trkpt lat="45.2049" lon="4.95204">
        <ele>251.88800048828</ele>
        <time>2009-09-26T14:24:03Z</time>
      </trkpt>
      <trkpt lat="45.2037" lon="4.95193">
        <ele>252.47399902344</ele>
        <time>2009-09-26T14:24:19Z</time>
      </trkpt>
      <trkpt lat="45.2025" lon="4.95181">
        <ele>251.66799926758</ele>
        <time>2009-09-26T14:24:34Z</time>
      </trkpt>
      <trkpt lat="45.20161" lon="4.95173">
        <ele>251.71200561523</ele>
        <time>2009-09-26T14:24:45Z</time>
      </trkpt>
      <trkpt lat="45.20062" lon="4.95163">
        <ele>251.31700134277</ele>
        <time>2009-09-26T14:24:57Z</time>
      </trkpt>
      <trkpt lat="45.19996" lon="4.95157">
        <ele>251.34700012207</ele>
        <time>2009-09-26T14:25:05Z</time>
      </trkpt>
      <trkpt lat="45.19955" lon="4.95153">
        <ele>251.71899414062</ele>
        <time>2009-09-26T14:25:10Z</time>
      </trkpt>
      <trkpt lat="45.19866" lon="4.95145">
        <ele>253.03100585938</ele>
        <time>2009-09-26T14:25:21Z</time>
      </trkpt>
      <trkpt lat="45.19765" lon="4.95148">
        <ele>254.5059967041</ele>
        <time>2009-09-26T14:25:34Z</time>
      </trkpt>
      <trkpt lat="45.19712" lon="4.95157">
        <ele>256.81100463867</ele>
        <time>2009-09-26T14:25:42Z</time>
      </trkpt>
      <trkpt lat="45.1969" lon="4.95146">
        <ele>257.36700439453</ele>
        <time>2009-09-26T14:25:46Z</time>
      </trkpt>
      <trkpt lat="45.19587" lon="4.95006">
        <ele>256.10699462891</ele>
        <time>2009-09-26T14:26:06Z</time>
      </trkpt>
      <trkpt lat="45.19532" lon="4.94959">
        <ele>254.02299499512</ele>
        <time>2009-09-26T14:26:14Z</time>
      </trkpt>
      <trkpt lat="45.19518" lon="4.94944">
        <ele>253.22099304199</ele>
        <time>2009-09-26T14:26:16Z</time>
      </trkpt>
      <trkpt lat="45.19496" lon="4.94902">
        <ele>252.29600524902</ele>
        <time>2009-09-26T14:26:20Z</time>
      </trkpt>
      <trkpt lat="45.19456" lon="4.94765">
        <ele>252.44599914551</ele>
        <time>2009-09-26T14:26:32Z</time>
      </trkpt>
      <trkpt lat="45.19422" lon="4.9472">
        <ele>252.84399414062</ele>
        <time>2009-09-26T14:26:38Z</time>
      </trkpt>
      <trkpt lat="45.19279" lon="4.94679">
        <ele>252.86799621582</ele>
        <time>2009-09-26T14:26:56Z</time>
      </trkpt>
      <trkpt lat="45.19133" lon="4.94612">
        <ele>253.00500488281</ele>
        <time>2009-09-26T14:27:15Z</time>
      </trkpt>
      <trkpt lat="45.19038" lon="4.94497">
        <ele>249.99099731445</ele>
        <time>2009-09-26T14:27:29Z</time>
      </trkpt>
      <trkpt lat="45.18896" lon="4.94328">
        <ele>247.03300476074</ele>
        <time>2009-09-26T14:27:49Z</time>
      </trkpt>
      <trkpt lat="45.18709" lon="4.94204">
        <ele>245.47900390625</ele>
        <time>2009-09-26T14:28:11Z</time>
      </trkpt>
      <trkpt lat="45.18573" lon="4.94091">
        <ele>243.45899963379</ele>
        <time>2009-09-26T14:28:28Z</time>
      </trkpt>
      <trkpt lat="45.18477" lon="4.94035">
        <ele>242.24499511719</ele>
        <time>2009-09-26T14:28:39Z</time>
      </trkpt>
      <trkpt lat="45.18335" lon="4.93966">
        <ele>237.50199890137</ele>
        <time>2009-09-26T14:28:53Z</time>
      </trkpt>
      <trkpt lat="45.18286" lon="4.93883">
        <ele>235.34199523926</ele>
        <time>2009-09-26T14:29:00Z</time>
      </trkpt>
      <trkpt lat="45.18224" lon="4.93671">
        <ele>231.53399658203</ele>
        <time>2009-09-26T14:29:15Z</time>
      </trkpt>
      <trkpt lat="45.18202" lon="4.93618">
        <ele>231.12899780273</ele>
        <time>2009-09-26T14:29:20Z</time>
      </trkpt>
      <trkpt lat="45.1818" lon="4.93616">
        <ele>231.36399841309</ele>
        <time>2009-09-26T14:29:25Z</time>
      </trkpt>
      <trkpt lat="45.18143" lon="4.93683">
        <ele>231.50300598144</ele>
        <time>2009-09-26T14:29:35Z</time>
      </trkpt>
      <trkpt lat="45.18113" lon="4.9374">
        <ele>231.75199890137</ele>
        <time>2009-09-26T14:29:45Z</time>
      </trkpt>
      <trkpt lat="45.1811" lon="4.93743">
        <ele>231.89300537109</ele>
        <time>2009-09-26T14:29:46Z</time>
      </trkpt>
      <trkpt lat="45.18097" lon="4.93736">
        <ele>232.41299438477</ele>
        <time>2009-09-26T14:29:50Z</time>
      </trkpt>
      <trkpt lat="45.18092" lon="4.93726">
        <ele>233.08799743652</ele>
        <time>2009-09-26T14:29:52Z</time>
      </trkpt>
      <trkpt lat="45.18071" lon="4.93697">
        <ele>235.36000061035</ele>
        <time>2009-09-26T14:29:59Z</time>
      </trkpt>
      <trkpt lat="45.18042" lon="4.93671">
        <ele>236.77499389648</ele>
        <time>2009-09-26T14:30:08Z</time>
      </trkpt>
      <trkpt lat="45.18039" lon="4.93667">
        <ele>236.89599609375</ele>
        <time>2009-09-26T14:30:09Z</time>
      </trkpt>
      <trkpt lat="45.18031" lon="4.9366">
        <ele>236.54899597168</ele>
        <time>2009-09-26T14:30:11Z</time>
      </trkpt>
      <trkpt lat="45.17994" lon="4.93615">
        <ele>235.85499572754</ele>
        <time>2009-09-26T14:30:20Z</time>
      </trkpt>
      <trkpt lat="45.17943" lon="4.93563">
        <ele>233.96899414062</ele>
        <time>2009-09-26T14:30:29Z</time>
      </trkpt>
      <trkpt lat="45.17925" lon="4.93539">
        <ele>232.59100341797</ele>
        <time>2009-09-26T14:30:32Z</time>
      </trkpt>
      <trkpt lat="45.17919" lon="4.9353">
        <ele>231.74099731445</ele>
        <time>2009-09-26T14:30:33Z</time>
      </trkpt>
      <trkpt lat="45.17899" lon="4.93472">
        <ele>228.92500305176</ele>
        <time>2009-09-26T14:30:38Z</time>
      </trkpt>
      <trkpt lat="45.17898" lon="4.93459">
        <ele>228.49299621582</ele>
        <time>2009-09-26T14:30:39Z</time>
      </trkpt>
      <trkpt lat="45.17899" lon="4.93432">
        <ele>227.86199951172</ele>
        <time>2009-09-26T14:30:41Z</time>
      </trkpt>
      <trkpt lat="45.17892" lon="4.93378">
        <ele>226.50999450684</ele>
        <time>2009-09-26T14:30:45Z</time>
      </trkpt>
      <trkpt lat="45.17898" lon="4.93325">
        <ele>225.9640045166</ele>
        <time>2009-09-26T14:30:49Z</time>
      </trkpt>
      <trkpt lat="45.17905" lon="4.93301">
        <ele>225.59899902344</ele>
        <time>2009-09-26T14:30:51Z</time>
      </trkpt>
      <trkpt lat="45.17912" lon="4.93225">
        <ele>227.64100646973</ele>
        <time>2009-09-26T14:30:58Z</time>
      </trkpt>
      <trkpt lat="45.17906" lon="4.93163">
        <ele>229.8690032959</ele>
        <time>2009-09-26T14:31:06Z</time>
      </trkpt>
      <trkpt lat="45.17905" lon="4.93149">
        <ele>229.02799987793</ele>
        <time>2009-09-26T14:31:08Z</time>
      </trkpt>
      <trkpt lat="45.17901" lon="4.93088">
        <ele>225.54400634766</ele>
        <time>2009-09-26T14:31:15Z</time>
      </trkpt>
      <trkpt lat="45.17921" lon="4.93052">
        <ele>222.96600341797</ele>
        <time>2009-09-26T14:31:21Z</time>
      </trkpt>
      <trkpt lat="45.1792" lon="4.93037">
        <ele>222.88600158691</ele>
        <time>2009-09-26T14:31:23Z</time>
      </trkpt>
      <trkpt lat="45.17885" lon="4.92998">
        <ele>222.85499572754</ele>
        <time>2009-09-26T14:31:33Z</time>
      </trkpt>
      <trkpt lat="45.17878" lon="4.9298">
        <ele>222.8390045166</ele>
        <time>2009-09-26T14:31:36Z</time>
      </trkpt>
      <trkpt lat="45.17868" lon="4.92933">
        <ele>223.08299255371</ele>
        <time>2009-09-26T14:31:42Z</time>
      </trkpt>
      <trkpt lat="45.1786" lon="4.92877">
        <ele>223.79600524902</ele>
        <time>2009-09-26T14:31:49Z</time>
      </trkpt>
      <trkpt lat="45.17828" lon="4.92765">
        <ele>225.34800720215</ele>
        <time>2009-09-26T14:32:03Z</time>
      </trkpt>
      <trkpt lat="45.17804" lon="4.92712">
        <ele>225.92100524902</ele>
        <time>2009-09-26T14:32:10Z</time>
      </trkpt>
      <trkpt lat="45.17734" lon="4.92649">
        <ele>225.81399536133</ele>
        <time>2009-09-26T14:32:23Z</time>
      </trkpt>
      <trkpt lat="45.17668" lon="4.926">
        <ele>223.17199707031</ele>
        <time>2009-09-26T14:32:33Z</time>
      </trkpt>
      <trkpt lat="45.176" lon="4.9252">
        <ele>222.49699401856</ele>
        <time>2009-09-26T14:32:44Z</time>
      </trkpt>
      <trkpt lat="45.17496" lon="4.92379">
        <ele>224.76499938965</ele>
        <time>2009-09-26T14:33:04Z</time>
      </trkpt>
      <trkpt lat="45.17477" lon="4.92351">
        <ele>225.50700378418</ele>
        <time>2009-09-26T14:33:08Z</time>
      </trkpt>
      <trkpt lat="45.17451" lon="4.92299">
        <ele>226.83000183106</ele>
        <time>2009-09-26T14:33:15Z</time>
      </trkpt>
      <trkpt lat="45.17435" lon="4.9227">
        <ele>227.42500305176</ele>
        <time>2009-09-26T14:33:19Z</time>
      </trkpt>
      <trkpt lat="45.17371" lon="4.92146">
        <ele>229.41299438477</ele>
        <time>2009-09-26T14:33:36Z</time>
      </trkpt>
      <trkpt lat="45.17294" lon="4.92003">
        <ele>231.69900512695</ele>
        <time>2009-09-26T14:33:56Z</time>
      </trkpt>
      <trkpt lat="45.17248" lon="4.91862">
        <ele>233.50399780273</ele>
        <time>2009-09-26T14:34:13Z</time>
      </trkpt>
      <trkpt lat="45.17244" lon="4.91844">
        <ele>233.52499389648</ele>
        <time>2009-09-26T14:34:15Z</time>
      </trkpt>
      <trkpt lat="45.17216" lon="4.91743">
        <ele>231.41999816894</ele>
        <time>2009-09-26T14:34:25Z</time>
      </trkpt>
      <trkpt lat="45.17193" lon="4.91696">
        <ele>229.91799926758</ele>
        <time>2009-09-26T14:34:30Z</time>
      </trkpt>
      <trkpt lat="45.17147" lon="4.91646">
        <ele>229.38600158691</ele>
        <time>2009-09-26T14:34:37Z</time>
      </trkpt>
      <trkpt lat="45.17062" lon="4.91617">
        <ele>229.53799438477</ele>
        <time>2009-09-26T14:34:48Z</time>
      </trkpt>
      <trkpt lat="45.16949" lon="4.91631">
        <ele>233.52099609375</ele>
        <time>2009-09-26T14:35:04Z</time>
      </trkpt>
      <trkpt lat="45.1693" lon="4.91634">
        <ele>234.89100646973</ele>
        <time>2009-09-26T14:35:07Z</time>
      </trkpt>
      <trkpt lat="45.16924" lon="4.91635">
        <ele>235.54200744629</ele>
        <time>2009-09-26T14:35:08Z</time>
      </trkpt>
      <trkpt lat="45.16912" lon="4.91636">
        <ele>236.16999816894</ele>
        <time>2009-09-26T14:35:10Z</time>
      </trkpt>
      <trkpt lat="45.16887" lon="4.9164">
        <ele>237.63299560547</ele>
        <time>2009-09-26T14:35:14Z</time>
      </trkpt>
      <trkpt lat="45.16861" lon="4.91644">
        <ele>238.6369934082</ele>
        <time>2009-09-26T14:35:18Z</time>
      </trkpt>
      <trkpt lat="45.16816" lon="4.91651">
        <ele>239.1609954834</ele>
        <time>2009-09-26T14:35:25Z</time>
      </trkpt>
      <trkpt lat="45.16727" lon="4.91665">
        <ele>239.94299316406</ele>
        <time>2009-09-26T14:35:38Z</time>
      </trkpt>
      <trkpt lat="45.16622" lon="4.9168">
        <ele>240.19099426269</ele>
        <time>2009-09-26T14:35:53Z</time>
      </trkpt>
      <trkpt lat="45.16484" lon="4.91707">
        <ele>241.38400268555</ele>
        <time>2009-09-26T14:36:12Z</time>
      </trkpt>
      <trkpt lat="45.16394" lon="4.91733">
        <ele>241.58599853516</ele>
        <time>2009-09-26T14:36:24Z</time>
      </trkpt>
      <trkpt lat="45.16252" lon="4.91765">
        <ele>246.58299255371</ele>
        <time>2009-09-26T14:36:44Z</time>
      </trkpt>
      <trkpt lat="45.16144" lon="4.91751">
        <ele>247.05299377441</ele>
        <time>2009-09-26T14:36:58Z</time>
      </trkpt>
      <trkpt lat="45.15993" lon="4.91742">
        <ele>250.23100280762</ele>
        <time>2009-09-26T14:37:17Z</time>
      </trkpt>
      <trkpt lat="45.15899" lon="4.91735">
        <ele>252.49800109863</ele>
        <time>2009-09-26T14:37:27Z</time>
      </trkpt>
      <trkpt lat="45.15846" lon="4.91727">
        <ele>254.75999450684</ele>
        <time>2009-09-26T14:37:32Z</time>
      </trkpt>
      <trkpt lat="45.15804" lon="4.91729">
        <ele>256.08700561523</ele>
        <time>2009-09-26T14:37:36Z</time>
      </trkpt>
      <trkpt lat="45.15776" lon="4.91732">
        <ele>256.73901367188</ele>
        <time>2009-09-26T14:37:39Z</time>
      </trkpt>
      <trkpt lat="45.15701" lon="4.91718">
        <ele>254.22399902344</ele>
        <time>2009-09-26T14:37:47Z</time>
      </trkpt>
      <trkpt lat="45.15591" lon="4.91606">
        <ele>249.22599792481</ele>
        <time>2009-09-26T14:38:00Z</time>
      </trkpt>
      <trkpt lat="45.15517" lon="4.91509">
        <ele>246.875</ele>
        <time>2009-09-26T14:38:10Z</time>
      </trkpt>
      <trkpt lat="45.15483" lon="4.91465">
        <ele>245.96600341797</ele>
        <time>2009-09-26T14:38:15Z</time>
      </trkpt>
      <trkpt lat="45.15458" lon="4.91446">
        <ele>245.30400085449</ele>
        <time>2009-09-26T14:38:18Z</time>
      </trkpt>
      <trkpt lat="45.15429" lon="4.91391">
        <ele>245.2200012207</ele>
        <time>2009-09-26T14:38:24Z</time>
      </trkpt>
      <trkpt lat="45.15396" lon="4.91349">
        <ele>244.15199279785</ele>
        <time>2009-09-26T14:38:30Z</time>
      </trkpt>
      <trkpt lat="45.15356" lon="4.91273">
        <ele>243.35600280762</ele>
        <time>2009-09-26T14:38:39Z</time>
      </trkpt>
      <trkpt lat="45.15262" lon="4.91216">
        <ele>240.85299682617</ele>
        <time>2009-09-26T14:38:52Z</time>
      </trkpt>
      <trkpt lat="45.15218" lon="4.91193">
        <ele>239.90800476074</ele>
        <time>2009-09-26T14:38:58Z</time>
      </trkpt>
      <trkpt lat="45.15186" lon="4.9119">
        <ele>239.07499694824</ele>
        <time>2009-09-26T14:39:02Z</time>
      </trkpt>
      <trkpt lat="45.15144" lon="4.91199">
        <ele>236.90800476074</ele>
        <time>2009-09-26T14:39:07Z</time>
      </trkpt>
      <trkpt lat="45.15001" lon="4.91227">
        <ele>232.26400756836</ele>
        <time>2009-09-26T14:39:22Z</time>
      </trkpt>
      <trkpt lat="45.14961" lon="4.91236">
        <ele>231.64799499512</ele>
        <time>2009-09-26T14:39:26Z</time>
      </trkpt>
      <trkpt lat="45.14858" lon="4.91254">
        <ele>229.53999328613</ele>
        <time>2009-09-26T14:39:36Z</time>
      </trkpt>
      <trkpt lat="45.14745" lon="4.91289">
        <ele>228.16200256348</ele>
        <time>2009-09-26T14:39:47Z</time>
      </trkpt>
      <trkpt lat="45.14563" lon="4.91361">
        <ele>225.72599792481</ele>
        <time>2009-09-26T14:40:06Z</time>
      </trkpt>
      <trkpt lat="45.14524" lon="4.91368">
        <ele>224.89399719238</ele>
        <time>2009-09-26T14:40:10Z</time>
      </trkpt>
      <trkpt lat="45.14389" lon="4.91392">
        <ele>225.28100585938</ele>
        <time>2009-09-26T14:40:25Z</time>
      </trkpt>
      <trkpt lat="45.14302" lon="4.91407">
        <ele>226.57299804688</ele>
        <time>2009-09-26T14:40:35Z</time>
      </trkpt>
      <trkpt lat="45.14229" lon="4.91424">
        <ele>227.41000366211</ele>
        <time>2009-09-26T14:40:43Z</time>
      </trkpt>
      <trkpt lat="45.14174" lon="4.91474">
        <ele>228.19400024414</ele>
        <time>2009-09-26T14:40:50Z</time>
      </trkpt>
      <trkpt lat="45.14141" lon="4.91536">
        <ele>228.32200622559</ele>
        <time>2009-09-26T14:40:56Z</time>
      </trkpt>
      <trkpt lat="45.14074" lon="4.91667">
        <ele>229.0950012207</ele>
        <time>2009-09-26T14:41:08Z</time>
      </trkpt>
      <trkpt lat="45.14006" lon="4.91794">
        <ele>231.50700378418</ele>
        <time>2009-09-26T14:41:20Z</time>
      </trkpt>
      <trkpt lat="45.13902" lon="4.91917">
        <ele>232.81300354004</ele>
        <time>2009-09-26T14:41:34Z</time>
      </trkpt>
      <trkpt lat="45.13766" lon="4.91978">
        <ele>234.43800354004</ele>
        <time>2009-09-26T14:41:48Z</time>
      </trkpt>
      <trkpt lat="45.13578" lon="4.92048">
        <ele>234.82899475098</ele>
        <time>2009-09-26T14:42:07Z</time>
      </trkpt>
      <trkpt lat="45.13464" lon="4.92117">
        <ele>234.12300109863</ele>
        <time>2009-09-26T14:42:20Z</time>
      </trkpt>
      <trkpt lat="45.13361" lon="4.92213">
        <ele>231.84800720215</ele>
        <time>2009-09-26T14:42:33Z</time>
      </trkpt>
      <trkpt lat="45.13353" lon="4.9222">
        <ele>231.22700500488</ele>
        <time>2009-09-26T14:42:34Z</time>
      </trkpt>
      <trkpt lat="45.13236" lon="4.92244">
        <ele>229.72700500488</ele>
        <time>2009-09-26T14:42:45Z</time>
      </trkpt>
      <trkpt lat="45.13103" lon="4.92254">
        <ele>228.25100708008</ele>
        <time>2009-09-26T14:42:57Z</time>
      </trkpt>
      <trkpt lat="45.1302" lon="4.92274">
        <ele>226.85499572754</ele>
        <time>2009-09-26T14:43:05Z</time>
      </trkpt>
      <trkpt lat="45.12934" lon="4.92336">
        <ele>224.68899536133</ele>
        <time>2009-09-26T14:43:14Z</time>
      </trkpt>
      <trkpt lat="45.12783" lon="4.92482">
        <ele>222.48399353027</ele>
        <time>2009-09-26T14:43:31Z</time>
      </trkpt>
      <trkpt lat="45.12687" lon="4.92583">
        <ele>223.19799804688</ele>
        <time>2009-09-26T14:43:43Z</time>
      </trkpt>
      <trkpt lat="45.12617" lon="4.92661">
        <ele>224.57299804688</ele>
        <time>2009-09-26T14:43:52Z</time>
      </trkpt>
      <trkpt lat="45.12563" lon="4.9272">
        <ele>226.0890045166</ele>
        <time>2009-09-26T14:43:59Z</time>
      </trkpt>
      <trkpt lat="45.12504" lon="4.92786">
        <ele>228.56799316406</ele>
        <time>2009-09-26T14:44:07Z</time>
      </trkpt>
      <trkpt lat="45.12498" lon="4.92796">
        <ele>229.0359954834</ele>
        <time>2009-09-26T14:44:08Z</time>
      </trkpt>
      <trkpt lat="45.12481" lon="4.92839">
        <ele>230.05599975586</ele>
        <time>2009-09-26T14:44:12Z</time>
      </trkpt>
      <trkpt lat="45.12464" lon="4.92899">
        <ele>229.70399475098</ele>
        <time>2009-09-26T14:44:17Z</time>
      </trkpt>
      <trkpt lat="45.12378" lon="4.93045">
        <ele>225.16200256348</ele>
        <time>2009-09-26T14:44:30Z</time>
      </trkpt>
      <trkpt lat="45.12284" lon="4.9328">
        <ele>222.23100280762</ele>
        <time>2009-09-26T14:44:48Z</time>
      </trkpt>
      <trkpt lat="45.12202" lon="4.93439">
        <ele>223.07800292969</ele>
        <time>2009-09-26T14:45:03Z</time>
      </trkpt>
      <trkpt lat="45.12118" lon="4.93552">
        <ele>225.80799865723</ele>
        <time>2009-09-26T14:45:17Z</time>
      </trkpt>
      <trkpt lat="45.12024" lon="4.93643">
        <ele>228.41499328613</ele>
        <time>2009-09-26T14:45:30Z</time>
      </trkpt>
      <trkpt lat="45.11967" lon="4.93745">
        <ele>227.14599609375</ele>
        <time>2009-09-26T14:45:42Z</time>
      </trkpt>
      <trkpt lat="45.11889" lon="4.93858">
        <ele>223.18600463867</ele>
        <time>2009-09-26T14:45:55Z</time>
      </trkpt>
      <trkpt lat="45.11849" lon="4.93916">
        <ele>221.53999328613</ele>
        <time>2009-09-26T14:46:01Z</time>
      </trkpt>
      <trkpt lat="45.1183" lon="4.93966">
        <ele>220.7799987793</ele>
        <time>2009-09-26T14:46:05Z</time>
      </trkpt>
      <trkpt lat="45.11784" lon="4.94182">
        <ele>220.69000244141</ele>
        <time>2009-09-26T14:46:22Z</time>
      </trkpt>
      <trkpt lat="45.1178" lon="4.94305">
        <ele>219.66299438477</ele>
        <time>2009-09-26T14:46:32Z</time>
      </trkpt>
      <trkpt lat="45.11782" lon="4.94328">
        <ele>219.64199829102</ele>
        <time>2009-09-26T14:46:34Z</time>
      </trkpt>
      <trkpt lat="45.11764" lon="4.94365">
        <ele>219.6609954834</ele>
        <time>2009-09-26T14:46:38Z</time>
      </trkpt>
      <trkpt lat="45.11729" lon="4.94408">
        <ele>220.45599365234</ele>
        <time>2009-09-26T14:46:44Z</time>
      </trkpt>
      <trkpt lat="45.11711" lon="4.94424">
        <ele>221.37899780273</ele>
        <time>2009-09-26T14:46:48Z</time>
      </trkpt>
      <trkpt lat="45.11702" lon="4.94426">
        <ele>221.82499694824</ele>
        <time>2009-09-26T14:46:50Z</time>
      </trkpt>
      <trkpt lat="45.11679" lon="4.94427">
        <ele>223.05200195312</ele>
        <time>2009-09-26T14:46:54Z</time>
      </trkpt>
      <trkpt lat="45.11628" lon="4.94452">
        <ele>227.22999572754</ele>
        <time>2009-09-26T14:47:06Z</time>
      </trkpt>
      <trkpt lat="45.1159" lon="4.94489">
        <ele>230.73500061035</ele>
        <time>2009-09-26T14:47:17Z</time>
      </trkpt>
      <trkpt lat="45.11567" lon="4.94529">
        <ele>232.69900512695</ele>
        <time>2009-09-26T14:47:26Z</time>
      </trkpt>
      <trkpt lat="45.11561" lon="4.94555">
        <ele>233.43699645996</ele>
        <time>2009-09-26T14:47:30Z</time>
      </trkpt>
      <trkpt lat="45.11557" lon="4.9461">
        <ele>234.41499328613</ele>
        <time>2009-09-26T14:47:38Z</time>
      </trkpt>
      <trkpt lat="45.11557" lon="4.94741">
        <ele>235.60800170898</ele>
        <time>2009-09-26T14:47:56Z</time>
      </trkpt>
      <trkpt lat="45.11569" lon="4.94832">
        <ele>237.14300537109</ele>
        <time>2009-09-26T14:48:09Z</time>
      </trkpt>
      <trkpt lat="45.11594" lon="4.94944">
        <ele>239.41200256348</ele>
        <time>2009-09-26T14:48:25Z</time>
      </trkpt>
      <trkpt lat="45.11642" lon="4.95056">
        <ele>238.19099426269</ele>
        <time>2009-09-26T14:48:40Z</time>
      </trkpt>
      <trkpt lat="45.11686" lon="4.95188">
        <ele>235.38999938965</ele>
        <time>2009-09-26T14:48:54Z</time>
      </trkpt>
      <trkpt lat="45.11718" lon="4.95282">
        <ele>232.92700195312</ele>
        <time>2009-09-26T14:49:03Z</time>
      </trkpt>
      <trkpt lat="45.11721" lon="4.9533">
        <ele>230.05099487305</ele>
        <time>2009-09-26T14:49:07Z</time>
      </trkpt>
      <trkpt lat="45.11717" lon="4.95356">
        <ele>229.04899597168</ele>
        <time>2009-09-26T14:49:09Z</time>
      </trkpt>
      <trkpt lat="45.11736" lon="4.95416">
        <ele>225.29200744629</ele>
        <time>2009-09-26T14:49:14Z</time>
      </trkpt>
      <trkpt lat="45.11768" lon="4.95426">
        <ele>222.21099853516</ele>
        <time>2009-09-26T14:49:17Z</time>
      </trkpt>
      <trkpt lat="45.11803" lon="4.95435">
        <ele>219.78399658203</ele>
        <time>2009-09-26T14:49:20Z</time>
      </trkpt>
      <trkpt lat="45.11826" lon="4.95464">
        <ele>218.31300354004</ele>
        <time>2009-09-26T14:49:23Z</time>
      </trkpt>
      <trkpt lat="45.11813" lon="4.95525">
        <ele>218.66499328613</ele>
        <time>2009-09-26T14:49:28Z</time>
      </trkpt>
      <trkpt lat="45.11795" lon="4.95546">
        <ele>220.60699462891</ele>
        <time>2009-09-26T14:49:31Z</time>
      </trkpt>
      <trkpt lat="45.11795" lon="4.95588">
        <ele>224.22999572754</ele>
        <time>2009-09-26T14:49:36Z</time>
      </trkpt>
      <trkpt lat="45.11797" lon="4.95603">
        <ele>224.72999572754</ele>
        <time>2009-09-26T14:49:38Z</time>
      </trkpt>
      <trkpt lat="45.11791" lon="4.95623">
        <ele>226.1309967041</ele>
        <time>2009-09-26T14:49:42Z</time>
      </trkpt>
      <trkpt lat="45.11786" lon="4.95624">
        <ele>226.40299987793</ele>
        <time>2009-09-26T14:49:43Z</time>
      </trkpt>
      <trkpt lat="45.11775" lon="4.95623">
        <ele>227.55099487305</ele>
        <time>2009-09-26T14:49:45Z</time>
      </trkpt>
      <trkpt lat="45.11751" lon="4.95635">
        <ele>229.23300170898</ele>
        <time>2009-09-26T14:49:50Z</time>
      </trkpt>
      <trkpt lat="45.11744" lon="4.9566">
        <ele>230.93299865723</ele>
        <time>2009-09-26T14:49:54Z</time>
      </trkpt>
      <trkpt lat="45.11744" lon="4.95675">
        <ele>231.37199401856</ele>
        <time>2009-09-26T14:49:56Z</time>
      </trkpt>
      <trkpt lat="45.11743" lon="4.95713">
        <ele>233.51699829102</ele>
        <time>2009-09-26T14:50:01Z</time>
      </trkpt>
      <trkpt lat="45.11743" lon="4.9576">
        <ele>235.96299743652</ele>
        <time>2009-09-26T14:50:07Z</time>
      </trkpt>
      <trkpt lat="45.11744" lon="4.95777">
        <ele>236.70100402832</ele>
        <time>2009-09-26T14:50:09Z</time>
      </trkpt>
      <trkpt lat="45.11744" lon="4.95785">
        <ele>236.92999267578</ele>
        <time>2009-09-26T14:50:10Z</time>
      </trkpt>
      <trkpt lat="45.11769" lon="4.95913">
        <ele>233.96000671387</ele>
        <time>2009-09-26T14:50:26Z</time>
      </trkpt>
      <trkpt lat="45.11756" lon="4.95926">
        <ele>233.62800598144</ele>
        <time>2009-09-26T14:50:33Z</time>
      </trkpt>
      <trkpt lat="45.11752" lon="4.95923">
        <ele>233.57800292969</ele>
        <time>2009-09-26T14:50:34Z</time>
      </trkpt>
      <trkpt lat="45.11727" lon="4.95907">
        <ele>234.70799255371</ele>
        <time>2009-09-26T14:50:40Z</time>
      </trkpt>
      <trkpt lat="45.11704" lon="4.95892">
        <ele>235.72799682617</ele>
        <time>2009-09-26T14:50:45Z</time>
      </trkpt>
      <trkpt lat="45.11682" lon="4.95878">
        <ele>237.30200195312</ele>
        <time>2009-09-26T14:50:50Z</time>
      </trkpt>
      <trkpt lat="45.1166" lon="4.959">
        <ele>238.78199768066</ele>
        <time>2009-09-26T14:50:58Z</time>
      </trkpt>
      <trkpt lat="45.11655" lon="4.95924">
        <ele>238.43499755859</ele>
        <time>2009-09-26T14:51:02Z</time>
      </trkpt>
      <trkpt lat="45.11629" lon="4.96001">
        <ele>233.98500061035</ele>
        <time>2009-09-26T14:51:12Z</time>
      </trkpt>
      <trkpt lat="45.11614" lon="4.96048">
        <ele>230.40699768066</ele>
        <time>2009-09-26T14:51:16Z</time>
      </trkpt>
      <trkpt lat="45.11605" lon="4.9609">
        <ele>228.30799865723</ele>
        <time>2009-09-26T14:51:19Z</time>
      </trkpt>
      <trkpt lat="45.11596" lon="4.96134">
        <ele>226.01600646973</ele>
        <time>2009-09-26T14:51:22Z</time>
      </trkpt>
      <trkpt lat="45.11585" lon="4.96162">
        <ele>224.70500183106</ele>
        <time>2009-09-26T14:51:24Z</time>
      </trkpt>
      <trkpt lat="45.11542" lon="4.96181">
        <ele>222.80599975586</ele>
        <time>2009-09-26T14:51:28Z</time>
      </trkpt>
      <trkpt lat="45.11524" lon="4.96183">
        <ele>222.81100463867</ele>
        <time>2009-09-26T14:51:30Z</time>
      </trkpt>
      <trkpt lat="45.11527" lon="4.96209">
        <ele>219.55700683594</ele>
        <time>2009-09-26T14:51:35Z</time>
      </trkpt>
      <trkpt lat="45.1156" lon="4.96243">
        <ele>215.61999511719</ele>
        <time>2009-09-26T14:51:40Z</time>
      </trkpt>
      <trkpt lat="45.11574" lon="4.96271">
        <ele>212.81900024414</ele>
        <time>2009-09-26T14:51:43Z</time>
      </trkpt>
      <trkpt lat="45.11582" lon="4.9633">
        <ele>207.80200195312</ele>
        <time>2009-09-26T14:51:47Z</time>
      </trkpt>
      <trkpt lat="45.11582" lon="4.96425">
        <ele>203.11199951172</ele>
        <time>2009-09-26T14:51:54Z</time>
      </trkpt>
      <trkpt lat="45.1158" lon="4.96449">
        <ele>202.42999267578</ele>
        <time>2009-09-26T14:51:58Z</time>
      </trkpt>
      <trkpt lat="45.11575" lon="4.96451">
        <ele>201.80499267578</ele>
        <time>2009-09-26T14:52:04Z</time>
      </trkpt>
      <trkpt lat="45.11564" lon="4.96448">
        <ele>201.67900085449</ele>
        <time>2009-09-26T14:52:34Z</time>
      </trkpt>
      <trkpt lat="45.11559" lon="4.96432">
        <ele>201.89700317383</ele>
        <time>2009-09-26T14:52:40Z</time>
      </trkpt>
      <trkpt lat="45.1156" lon="4.96425">
        <ele>202.38400268555</ele>
        <time>2009-09-26T14:52:43Z</time>
      </trkpt>
      <trkpt lat="45.11565" lon="4.96427">
        <ele>202.81599426269</ele>
        <time>2009-09-26T14:52:49Z</time>
      </trkpt>
      <trkpt lat="45.11567" lon="4.96427">
        <ele>202.58299255371</ele>
        <time>2009-09-26T14:53:39Z</time>
      </trkpt>
      <trkpt lat="45.11567" lon="4.96427">
        <ele>202.68200683594</ele>
        <time>2009-09-26T14:53:40Z</time>
      </trkpt>
      <trkpt lat="45.11568" lon="4.96426">
        <ele>202.49099731445</ele>
        <time>2009-09-26T14:53:42Z</time>
      </trkpt>
    </trkseg>
  </trk>
</gpx>